<?xml version='1.0' encoding='UTF-8'?><gpx version="1.1" creator="JPX - https://github.com/jenetics/jpx" xmlns="http://www.topografix.com/GPX/1/1"><trk><trkseg><trkpt lat="45.56566902196533" lon="8.045126979561227"><ele>492.0</ele><time>2026-04-23T16:36:11Z</time></trkpt><trkpt lat="45.56566277639772" lon="8.045000324712838"><ele>492.00000000000006</ele><time>2026-04-23T16:36:14Z</time></trkpt><trkpt lat="45.565579096692495" lon="8.044924490758127"><ele>492.00000000000006</ele><time>2026-04-23T16:36:17Z</time></trkpt><trkpt lat="45.56547278850707" lon="8.044906442204601"><ele>492.0</ele><time>2026-04-23T16:36:19Z</time></trkpt><trkpt lat="45.565463469563575" lon="8.044773029479924"><ele>492.0</ele><time>2026-04-23T16:36:21Z</time></trkpt><trkpt lat="45.56544975082217" lon="8.044622300760794"><ele>489.0</ele><time>2026-04-23T16:36:23Z</time></trkpt><trkpt lat="45.56544293048781" lon="8.044481787741837"><ele>486.00000000000006</ele><time>2026-04-23T16:36:25Z</time></trkpt><trkpt lat="45.565464737135926" lon="8.04433315475954"><ele>483.00000000000006</ele><time>2026-04-23T16:36:27Z</time></trkpt><trkpt lat="45.565443046625724" lon="8.044215306286041"><ele>480.0</ele><time>2026-04-23T16:36:28Z</time></trkpt><trkpt lat="45.56540984634157" lon="8.044087423987145"><ele>477.0</ele><time>2026-04-23T16:36:30Z</time></trkpt><trkpt lat="45.56537209854628" lon="8.04401337747881"><ele>474.20000000000005</ele><time>2026-04-23T16:36:31Z</time></trkpt><trkpt lat="45.56522584908408" lon="8.04407947048787"><ele>471.40000000000003</ele><time>2026-04-23T16:36:33Z</time></trkpt><trkpt lat="45.56511402057942" lon="8.044127172456047"><ele>468.59999999999997</ele><time>2026-04-23T16:36:35Z</time></trkpt><trkpt lat="45.565067527314454" lon="8.044038945957622"><ele>465.79999999999995</ele><time>2026-04-23T16:36:37Z</time></trkpt><trkpt lat="45.565110289014655" lon="8.043927682011827"><ele>463.0</ele><time>2026-04-23T16:36:38Z</time></trkpt><trkpt lat="45.565048551937444" lon="8.04382956818308"><ele>463.00000000000006</ele><time>2026-04-23T16:36:40Z</time></trkpt><trkpt lat="45.564990452716806" lon="8.043775841785488"><ele>463.0</ele><time>2026-04-23T16:36:42Z</time></trkpt><trkpt lat="45.56510151692593" lon="8.043755434862224"><ele>463.0</ele><time>2026-04-23T16:36:47Z</time></trkpt><trkpt lat="45.565037443506135" lon="8.04379672751648"><ele>463.0</ele><time>2026-04-23T16:36:57Z</time></trkpt><trkpt lat="45.56497595865142" lon="8.043765188938165"><ele>463.00000000000006</ele><time>2026-04-23T16:37:00Z</time></trkpt><trkpt lat="45.564902206554095" lon="8.043779168448257"><ele>463.0</ele><time>2026-04-23T16:37:03Z</time></trkpt><trkpt lat="45.56483650561373" lon="8.043861559677806"><ele>463.00000000000006</ele><time>2026-04-23T16:37:04Z</time></trkpt><trkpt lat="45.564772368719424" lon="8.04390937190774"><ele>463.0</ele><time>2026-04-23T16:37:05Z</time></trkpt><trkpt lat="45.5647106111569" lon="8.043998338745686"><ele>463.0</ele><time>2026-04-23T16:37:06Z</time></trkpt><trkpt lat="45.56463367315053" lon="8.044034955349087"><ele>463.0</ele><time>2026-04-23T16:37:07Z</time></trkpt><trkpt lat="45.564554863835944" lon="8.044085715127695"><ele>463.00000000000006</ele><time>2026-04-23T16:37:08Z</time></trkpt><trkpt lat="45.56446751112517" lon="8.044109509649553"><ele>463.0</ele><time>2026-04-23T16:37:09Z</time></trkpt><trkpt lat="45.564367328546204" lon="8.044103913531373"><ele>460.5</ele><time>2026-04-23T16:37:10Z</time></trkpt><trkpt lat="45.56426566532009" lon="8.0440589851445"><ele>458.0</ele><time>2026-04-23T16:37:11Z</time></trkpt><trkpt lat="45.5641516724931" lon="8.043993130611037"><ele>455.5</ele><time>2026-04-23T16:37:12Z</time></trkpt><trkpt lat="45.564079245303724" lon="8.04384701617758"><ele>453.0</ele><time>2026-04-23T16:37:13Z</time></trkpt><trkpt lat="45.56402047922749" lon="8.043705560511869"><ele>453.0</ele><time>2026-04-23T16:37:14Z</time></trkpt><trkpt lat="45.56400462328646" lon="8.043575079566677"><ele>453.0</ele><time>2026-04-23T16:37:15Z</time></trkpt><trkpt lat="45.56402698982813" lon="8.043474501389582"><ele>453.0</ele><time>2026-04-23T16:37:17Z</time></trkpt><trkpt lat="45.5639928620663" lon="8.043372689646596"><ele>453.0</ele><time>2026-04-23T16:37:23Z</time></trkpt><trkpt lat="45.563937971571995" lon="8.04330051000089"><ele>453.0</ele><time>2026-04-23T16:37:25Z</time></trkpt><trkpt lat="45.563842046448116" lon="8.043222176679953"><ele>453.0</ele><time>2026-04-23T16:37:27Z</time></trkpt><trkpt lat="45.56378377000729" lon="8.043184592517916"><ele>450.79999999999995</ele><time>2026-04-23T16:37:28Z</time></trkpt><trkpt lat="45.563710425652594" lon="8.043141313855713"><ele>448.59999999999997</ele><time>2026-04-23T16:37:29Z</time></trkpt><trkpt lat="45.56363536391836" lon="8.043107762675795"><ele>446.40000000000003</ele><time>2026-04-23T16:37:30Z</time></trkpt><trkpt lat="45.56354385780953" lon="8.04310224861417"><ele>444.20000000000005</ele><time>2026-04-23T16:37:31Z</time></trkpt><trkpt lat="45.56344167375115" lon="8.043103980689187"><ele>442.0</ele><time>2026-04-23T16:37:32Z</time></trkpt><trkpt lat="45.56333644121933" lon="8.043088206945594"><ele>440.5</ele><time>2026-04-23T16:37:33Z</time></trkpt><trkpt lat="45.56322887740603" lon="8.043078748436395"><ele>439.0</ele><time>2026-04-23T16:37:34Z</time></trkpt><trkpt lat="45.56311435890852" lon="8.043062326022296"><ele>437.5</ele><time>2026-04-23T16:37:35Z</time></trkpt><trkpt lat="45.563000197912196" lon="8.043043829197394"><ele>436.0</ele><time>2026-04-23T16:37:36Z</time></trkpt><trkpt lat="45.56288719705094" lon="8.043014544424118"><ele>434.0</ele><time>2026-04-23T16:37:37Z</time></trkpt><trkpt lat="45.562774365646156" lon="8.042995293067456"><ele>432.0</ele><time>2026-04-23T16:37:38Z</time></trkpt><trkpt lat="45.562661728001125" lon="8.043040298122325"><ele>430.0</ele><time>2026-04-23T16:37:39Z</time></trkpt><trkpt lat="45.562568256926305" lon="8.043114305157413"><ele>428.0</ele><time>2026-04-23T16:37:40Z</time></trkpt><trkpt lat="45.562496526799386" lon="8.043268167330345"><ele>428.79999999999995</ele><time>2026-04-23T16:37:41Z</time></trkpt><trkpt lat="45.56246313907647" lon="8.043458434490045"><ele>429.59999999999997</ele><time>2026-04-23T16:37:42Z</time></trkpt><trkpt lat="45.56245251528623" lon="8.043610078549312"><ele>430.40000000000003</ele><time>2026-04-23T16:37:43Z</time></trkpt><trkpt lat="45.56247590805375" lon="8.043702226471353"><ele>431.20000000000005</ele><time>2026-04-23T16:37:44Z</time></trkpt><trkpt lat="45.56241236347756" lon="8.043777554748292"><ele>432.0</ele><time>2026-04-23T16:37:45Z</time></trkpt><trkpt lat="45.562320189605614" lon="8.043768015122561"><ele>432.0</ele><time>2026-04-23T16:37:46Z</time></trkpt><trkpt lat="45.5622199740231" lon="8.043677834140825"><ele>432.00000000000006</ele><time>2026-04-23T16:37:47Z</time></trkpt><trkpt lat="45.56215277083108" lon="8.043567996385681"><ele>432.00000000000006</ele><time>2026-04-23T16:37:48Z</time></trkpt><trkpt lat="45.562074051081865" lon="8.043494241382508"><ele>432.0</ele><time>2026-04-23T16:37:49Z</time></trkpt><trkpt lat="45.56197833013746" lon="8.043432930485622"><ele>432.0</ele><time>2026-04-23T16:37:50Z</time></trkpt><trkpt lat="45.56188496210538" lon="8.043372864055314"><ele>430.25</ele><time>2026-04-23T16:37:51Z</time></trkpt><trkpt lat="45.56177814033857" lon="8.04333035976863"><ele>428.5</ele><time>2026-04-23T16:37:52Z</time></trkpt><trkpt lat="45.56168202950708" lon="8.043353392666038"><ele>426.75</ele><time>2026-04-23T16:37:53Z</time></trkpt><trkpt lat="45.561529717492505" lon="8.043390177062465"><ele>425.0</ele><time>2026-04-23T16:37:54Z</time></trkpt><trkpt lat="45.561417568143085" lon="8.04343579596482"><ele>425.0</ele><time>2026-04-23T16:37:55Z</time></trkpt><trkpt lat="45.561303848917476" lon="8.043508061873744"><ele>425.0</ele><time>2026-04-23T16:37:56Z</time></trkpt><trkpt lat="45.56119063787514" lon="8.04359244405478"><ele>425.0</ele><time>2026-04-23T16:37:57Z</time></trkpt><trkpt lat="45.561070142798066" lon="8.043670044781175"><ele>425.0</ele><time>2026-04-23T16:37:58Z</time></trkpt><trkpt lat="45.56094387749519" lon="8.043741062279961"><ele>422.25</ele><time>2026-04-23T16:37:59Z</time></trkpt><trkpt lat="45.56080956551833" lon="8.043780033155125"><ele>419.5</ele><time>2026-04-23T16:38:00Z</time></trkpt><trkpt lat="45.560673361429025" lon="8.043835369431314"><ele>416.75</ele><time>2026-04-23T16:38:01Z</time></trkpt><trkpt lat="45.56054552365282" lon="8.043882045181114"><ele>414.0</ele><time>2026-04-23T16:38:02Z</time></trkpt><trkpt lat="45.560415605633914" lon="8.043933957154668"><ele>412.75</ele><time>2026-04-23T16:38:03Z</time></trkpt><trkpt lat="45.56029108682902" lon="8.043976375451905"><ele>411.5</ele><time>2026-04-23T16:38:04Z</time></trkpt><trkpt lat="45.560172454909186" lon="8.044010883707179"><ele>410.25</ele><time>2026-04-23T16:38:05Z</time></trkpt><trkpt lat="45.56005197484821" lon="8.044052656468011"><ele>409.0</ele><time>2026-04-23T16:38:06Z</time></trkpt><trkpt lat="45.55993664854628" lon="8.044066488453579"><ele>409.00000000000006</ele><time>2026-04-23T16:38:07Z</time></trkpt><trkpt lat="45.559851693550016" lon="8.044091154631433"><ele>409.0</ele><time>2026-04-23T16:38:08Z</time></trkpt><trkpt lat="45.559727223392905" lon="8.044117499793293"><ele>409.0</ele><time>2026-04-23T16:38:10Z</time></trkpt><trkpt lat="45.55965639693519" lon="8.0441006197142"><ele>409.0</ele><time>2026-04-23T16:38:11Z</time></trkpt><trkpt lat="45.55958318489757" lon="8.044071239677846"><ele>409.00000000000006</ele><time>2026-04-23T16:38:12Z</time></trkpt><trkpt lat="45.55952146672081" lon="8.044025640333123"><ele>409.0</ele><time>2026-04-23T16:38:13Z</time></trkpt><trkpt lat="45.55946079904065" lon="8.043978977333133"><ele>408.2</ele><time>2026-04-23T16:38:14Z</time></trkpt><trkpt lat="45.55935935911433" lon="8.043920817043213"><ele>407.4</ele><time>2026-04-23T16:38:16Z</time></trkpt><trkpt lat="45.559281013284206" lon="8.04376353465636"><ele>406.6</ele><time>2026-04-23T16:38:18Z</time></trkpt><trkpt lat="45.55925592374175" lon="8.043662572807337"><ele>405.8</ele><time>2026-04-23T16:38:19Z</time></trkpt><trkpt lat="45.55922942001698" lon="8.043565864339445"><ele>405.0</ele><time>2026-04-23T16:38:20Z</time></trkpt><trkpt lat="45.559191728008706" lon="8.043467887058357"><ele>405.0</ele><time>2026-04-23T16:38:21Z</time></trkpt><trkpt lat="45.55915312072402" lon="8.04337376394633"><ele>405.0</ele><time>2026-04-23T16:38:22Z</time></trkpt><trkpt lat="45.55911682314042" lon="8.043277494459904"><ele>405.0</ele><time>2026-04-23T16:38:23Z</time></trkpt><trkpt lat="45.559080129905006" lon="8.043176774436162"><ele>405.0</ele><time>2026-04-23T16:38:24Z</time></trkpt><trkpt lat="45.55903673142107" lon="8.043083055187745"><ele>405.0</ele><time>2026-04-23T16:38:25Z</time></trkpt><trkpt lat="45.55900398897363" lon="8.042969723057665"><ele>405.0</ele><time>2026-04-23T16:38:26Z</time></trkpt><trkpt lat="45.55896717016923" lon="8.042867120038508"><ele>405.0</ele><time>2026-04-23T16:38:27Z</time></trkpt><trkpt lat="45.558931968652104" lon="8.042762675109278"><ele>405.0</ele><time>2026-04-23T16:38:28Z</time></trkpt><trkpt lat="45.55889258067494" lon="8.042662502699711"><ele>405.0</ele><time>2026-04-23T16:38:29Z</time></trkpt><trkpt lat="45.558861960932596" lon="8.042549439129488"><ele>405.0</ele><time>2026-04-23T16:38:30Z</time></trkpt><trkpt lat="45.55882896766653" lon="8.042441199111387"><ele>405.0</ele><time>2026-04-23T16:38:31Z</time></trkpt><trkpt lat="45.55877946909202" lon="8.042343617325884"><ele>405.0</ele><time>2026-04-23T16:38:32Z</time></trkpt><trkpt lat="45.558752224740076" lon="8.042233874309268"><ele>404.8333333333333</ele><time>2026-04-23T16:38:33Z</time></trkpt><trkpt lat="45.5587099382595" lon="8.042140093670785"><ele>404.66666666666663</ele><time>2026-04-23T16:38:34Z</time></trkpt><trkpt lat="45.55866599585593" lon="8.04203933550346"><ele>404.5</ele><time>2026-04-23T16:38:35Z</time></trkpt><trkpt lat="45.55863375011675" lon="8.04194607258326"><ele>404.3333333333333</ele><time>2026-04-23T16:38:36Z</time></trkpt><trkpt lat="45.55859402081554" lon="8.0418538452202"><ele>404.16666666666663</ele><time>2026-04-23T16:38:37Z</time></trkpt><trkpt lat="45.55855069611568" lon="8.041761072377705"><ele>404.0</ele><time>2026-04-23T16:38:38Z</time></trkpt><trkpt lat="45.55850840374171" lon="8.04167190841077"><ele>404.2857142857143</ele><time>2026-04-23T16:38:39Z</time></trkpt><trkpt lat="45.55847082219942" lon="8.041581655930212"><ele>404.57142857142856</ele><time>2026-04-23T16:38:40Z</time></trkpt><trkpt lat="45.558430666157" lon="8.041497440648692"><ele>404.8571428571429</ele><time>2026-04-23T16:38:41Z</time></trkpt><trkpt lat="45.55839323086146" lon="8.041402005405859"><ele>405.1428571428571</ele><time>2026-04-23T16:38:42Z</time></trkpt><trkpt lat="45.55834667501401" lon="8.041316949479285"><ele>405.42857142857144</ele><time>2026-04-23T16:38:43Z</time></trkpt><trkpt lat="45.55832636498365" lon="8.041226755782835"><ele>405.7142857142857</ele><time>2026-04-23T16:38:44Z</time></trkpt><trkpt lat="45.55829562544135" lon="8.041133181450435"><ele>406.0</ele><time>2026-04-23T16:38:45Z</time></trkpt><trkpt lat="45.55825334119662" lon="8.041049471606101"><ele>406.0</ele><time>2026-04-23T16:38:46Z</time></trkpt><trkpt lat="45.55820848876669" lon="8.040967340373278"><ele>406.0</ele><time>2026-04-23T16:38:47Z</time></trkpt><trkpt lat="45.55816685997034" lon="8.040874277046276"><ele>406.0</ele><time>2026-04-23T16:38:48Z</time></trkpt><trkpt lat="45.558130510756335" lon="8.040785071795833"><ele>406.0</ele><time>2026-04-23T16:38:49Z</time></trkpt><trkpt lat="45.55809456109421" lon="8.040685853594681"><ele>406.0</ele><time>2026-04-23T16:38:50Z</time></trkpt><trkpt lat="45.55806142216092" lon="8.040589073053079"><ele>406.0</ele><time>2026-04-23T16:38:51Z</time></trkpt><trkpt lat="45.55802548206838" lon="8.040497857302531"><ele>406.0</ele><time>2026-04-23T16:38:52Z</time></trkpt><trkpt lat="45.557993517520686" lon="8.040400087918792"><ele>406.0</ele><time>2026-04-23T16:38:53Z</time></trkpt><trkpt lat="45.55795981182884" lon="8.040313000774658"><ele>406.0</ele><time>2026-04-23T16:38:54Z</time></trkpt><trkpt lat="45.557924278877074" lon="8.040223823202089"><ele>406.0</ele><time>2026-04-23T16:38:55Z</time></trkpt><trkpt lat="45.557889193060056" lon="8.04013209869714"><ele>406.0</ele><time>2026-04-23T16:38:56Z</time></trkpt><trkpt lat="45.55785721715534" lon="8.04003943846108"><ele>406.0</ele><time>2026-04-23T16:38:57Z</time></trkpt><trkpt lat="45.55782619240681" lon="8.039951716180793"><ele>406.0</ele><time>2026-04-23T16:38:58Z</time></trkpt><trkpt lat="45.55779355083503" lon="8.039863244444158"><ele>406.0</ele><time>2026-04-23T16:38:59Z</time></trkpt><trkpt lat="45.55776051074229" lon="8.039765158239033"><ele>406.0</ele><time>2026-04-23T16:39:00Z</time></trkpt><trkpt lat="45.55772216773667" lon="8.039675805768066"><ele>406.0</ele><time>2026-04-23T16:39:01Z</time></trkpt><trkpt lat="45.55768677801543" lon="8.039591707853889"><ele>406.0</ele><time>2026-04-23T16:39:02Z</time></trkpt><trkpt lat="45.5576530426933" lon="8.039502727301112"><ele>406.0</ele><time>2026-04-23T16:39:03Z</time></trkpt><trkpt lat="45.557602613962814" lon="8.039426073141962"><ele>406.0</ele><time>2026-04-23T16:39:04Z</time></trkpt><trkpt lat="45.55756617626235" lon="8.039339555245633"><ele>406.0</ele><time>2026-04-23T16:39:05Z</time></trkpt><trkpt lat="45.55752890092014" lon="8.03925265853335"><ele>406.0</ele><time>2026-04-23T16:39:06Z</time></trkpt><trkpt lat="45.55749245892825" lon="8.039169059145616"><ele>405.8</ele><time>2026-04-23T16:39:07Z</time></trkpt><trkpt lat="45.55745498364829" lon="8.03908309069787"><ele>405.6</ele><time>2026-04-23T16:39:08Z</time></trkpt><trkpt lat="45.55739227474382" lon="8.039006238984705"><ele>405.4</ele><time>2026-04-23T16:39:09Z</time></trkpt><trkpt lat="45.557364226253654" lon="8.038913642179903"><ele>405.2</ele><time>2026-04-23T16:39:10Z</time></trkpt><trkpt lat="45.5572960781865" lon="8.038760373551794"><ele>405.0</ele><time>2026-04-23T16:39:12Z</time></trkpt><trkpt lat="45.557259998066336" lon="8.038585194472962"><ele>405.0</ele><time>2026-04-23T16:39:14Z</time></trkpt><trkpt lat="45.55719689978481" lon="8.038462883272826"><ele>405.0</ele><time>2026-04-23T16:39:16Z</time></trkpt><trkpt lat="45.557179963222566" lon="8.038254177886577"><ele>405.0</ele><time>2026-04-23T16:39:18Z</time></trkpt><trkpt lat="45.55715901554732" lon="8.038162841115977"><ele>405.0</ele><time>2026-04-23T16:39:19Z</time></trkpt><trkpt lat="45.5571404653387" lon="8.038065735763318"><ele>405.0</ele><time>2026-04-23T16:39:20Z</time></trkpt><trkpt lat="45.55712831287429" lon="8.037964307005135"><ele>404.2857142857143</ele><time>2026-04-23T16:39:21Z</time></trkpt><trkpt lat="45.557120351593355" lon="8.037861514275559"><ele>403.57142857142856</ele><time>2026-04-23T16:39:22Z</time></trkpt><trkpt lat="45.557126204648974" lon="8.037756884482498"><ele>402.8571428571429</ele><time>2026-04-23T16:39:23Z</time></trkpt><trkpt lat="45.55712747573699" lon="8.037655737622796"><ele>402.1428571428571</ele><time>2026-04-23T16:39:24Z</time></trkpt><trkpt lat="45.55712721051252" lon="8.037552551438608"><ele>401.42857142857144</ele><time>2026-04-23T16:39:25Z</time></trkpt><trkpt lat="45.55713222029002" lon="8.037447375554342"><ele>400.7142857142857</ele><time>2026-04-23T16:39:26Z</time></trkpt><trkpt lat="45.55713738419251" lon="8.03734974023957"><ele>400.0</ele><time>2026-04-23T16:39:27Z</time></trkpt><trkpt lat="45.55713815124872" lon="8.037246134372479"><ele>400.00000000000006</ele><time>2026-04-23T16:39:28Z</time></trkpt><trkpt lat="45.55713278562096" lon="8.037142455863293"><ele>400.0</ele><time>2026-04-23T16:39:29Z</time></trkpt><trkpt lat="45.55713029037846" lon="8.037041388722983"><ele>400.0</ele><time>2026-04-23T16:39:30Z</time></trkpt><trkpt lat="45.55711833456697" lon="8.036935997459791"><ele>400.0</ele><time>2026-04-23T16:39:31Z</time></trkpt><trkpt lat="45.55711826827706" lon="8.036841036847967"><ele>400.0</ele><time>2026-04-23T16:39:32Z</time></trkpt><trkpt lat="45.55712536871408" lon="8.036746115132035"><ele>400.00000000000006</ele><time>2026-04-23T16:39:33Z</time></trkpt><trkpt lat="45.557129527342624" lon="8.036648430735735"><ele>400.0</ele><time>2026-04-23T16:39:34Z</time></trkpt><trkpt lat="45.55714206085298" lon="8.036547864279386"><ele>400.7142857142857</ele><time>2026-04-23T16:39:35Z</time></trkpt><trkpt lat="45.55713808036676" lon="8.036456112572113"><ele>401.42857142857144</ele><time>2026-04-23T16:39:36Z</time></trkpt><trkpt lat="45.55714244239778" lon="8.0363593634272"><ele>402.1428571428571</ele><time>2026-04-23T16:39:37Z</time></trkpt><trkpt lat="45.55714396636299" lon="8.036264529052112"><ele>402.8571428571429</ele><time>2026-04-23T16:39:38Z</time></trkpt><trkpt lat="45.55713331367994" lon="8.036168695766388"><ele>403.57142857142856</ele><time>2026-04-23T16:39:39Z</time></trkpt><trkpt lat="45.55714168964534" lon="8.036071175093747"><ele>404.2857142857143</ele><time>2026-04-23T16:39:40Z</time></trkpt><trkpt lat="45.55713828678956" lon="8.035975560978532"><ele>405.0</ele><time>2026-04-23T16:39:41Z</time></trkpt><trkpt lat="45.557133504069036" lon="8.0357888453293"><ele>405.57142857142856</ele><time>2026-04-23T16:39:43Z</time></trkpt><trkpt lat="45.55713745455093" lon="8.035694047566421"><ele>406.1428571428571</ele><time>2026-04-23T16:39:44Z</time></trkpt><trkpt lat="45.55714212940036" lon="8.035604330772674"><ele>406.71428571428567</ele><time>2026-04-23T16:39:45Z</time></trkpt><trkpt lat="45.5571426300179" lon="8.03551038285816"><ele>407.2857142857143</ele><time>2026-04-23T16:39:46Z</time></trkpt><trkpt lat="45.557140934518884" lon="8.035418766339413"><ele>407.8571428571429</ele><time>2026-04-23T16:39:47Z</time></trkpt><trkpt lat="45.55713306674704" lon="8.035329157425542"><ele>408.4285714285714</ele><time>2026-04-23T16:39:48Z</time></trkpt><trkpt lat="45.55712365042062" lon="8.035234299643653"><ele>409.0</ele><time>2026-04-23T16:39:49Z</time></trkpt><trkpt lat="45.5571162061503" lon="8.035048244078334"><ele>409.50000000000006</ele><time>2026-04-23T16:39:51Z</time></trkpt><trkpt lat="45.55711335423012" lon="8.034956543700547"><ele>410.0</ele><time>2026-04-23T16:39:52Z</time></trkpt><trkpt lat="45.557115707141115" lon="8.03486640846273"><ele>410.5</ele><time>2026-04-23T16:39:53Z</time></trkpt><trkpt lat="45.557116368681136" lon="8.03476869416825"><ele>411.0</ele><time>2026-04-23T16:39:54Z</time></trkpt><trkpt lat="45.557098437605866" lon="8.034608769718142"><ele>411.50000000000006</ele><time>2026-04-23T16:39:56Z</time></trkpt><trkpt lat="45.557093283569" lon="8.034451370603058"><ele>412.0</ele><time>2026-04-23T16:39:58Z</time></trkpt><trkpt lat="45.55710412940303" lon="8.034345062560131"><ele>411.99999999999994</ele><time>2026-04-23T16:40:00Z</time></trkpt><trkpt lat="45.5571213166049" lon="8.0342243394427"><ele>412.0</ele><time>2026-04-23T16:40:04Z</time></trkpt><trkpt lat="45.557173280704426" lon="8.034171817419614"><ele>412.0</ele><time>2026-04-23T16:40:06Z</time></trkpt><trkpt lat="45.55724193032683" lon="8.03416569887123"><ele>412.0</ele><time>2026-04-23T16:40:08Z</time></trkpt><trkpt lat="45.55730501821162" lon="8.034190095013052"><ele>412.0</ele><time>2026-04-23T16:40:10Z</time></trkpt><trkpt lat="45.55737324266153" lon="8.0342195220002"><ele>411.99999999999994</ele><time>2026-04-23T16:40:12Z</time></trkpt><trkpt lat="45.557437011769096" lon="8.034246755698698"><ele>412.0</ele><time>2026-04-23T16:40:14Z</time></trkpt><trkpt lat="45.557498962312415" lon="8.034289746707536"><ele>411.99999999999994</ele><time>2026-04-23T16:40:16Z</time></trkpt><trkpt lat="45.5575542964522" lon="8.034339641917189"><ele>412.0</ele><time>2026-04-23T16:40:18Z</time></trkpt><trkpt lat="45.55761882455139" lon="8.034362058752258"><ele>412.0</ele><time>2026-04-23T16:40:20Z</time></trkpt><trkpt lat="45.55768044923439" lon="8.034412198694746"><ele>412.0</ele><time>2026-04-23T16:40:23Z</time></trkpt><trkpt lat="45.55773859040327" lon="8.0344495223076"><ele>412.0</ele><time>2026-04-23T16:40:25Z</time></trkpt><trkpt lat="45.557804144187664" lon="8.034485959490564"><ele>411.99999999999994</ele><time>2026-04-23T16:40:27Z</time></trkpt><trkpt lat="45.55788857873098" lon="8.034532888870137"><ele>412.0</ele><time>2026-04-23T16:40:30Z</time></trkpt><trkpt lat="45.557980519547556" lon="8.034578744888737"><ele>415.00000000000006</ele><time>2026-04-23T16:40:33Z</time></trkpt><trkpt lat="45.558054976499335" lon="8.034622782467034"><ele>418.0</ele><time>2026-04-23T16:40:36Z</time></trkpt><trkpt lat="45.558136187446344" lon="8.034674799942593"><ele>421.0</ele><time>2026-04-23T16:40:39Z</time></trkpt><trkpt lat="45.55821813316912" lon="8.034714211140981"><ele>424.0</ele><time>2026-04-23T16:40:42Z</time></trkpt><trkpt lat="45.55829385560933" lon="8.034757212610268"><ele>427.00000000000006</ele><time>2026-04-23T16:40:45Z</time></trkpt><trkpt lat="45.558375874982765" lon="8.034780757140334"><ele>430.0</ele><time>2026-04-23T16:40:48Z</time></trkpt><trkpt lat="45.55845027236024" lon="8.034822990871465"><ele>430.0</ele><time>2026-04-23T16:40:51Z</time></trkpt><trkpt lat="45.55852342252286" lon="8.034840650781998"><ele>430.0</ele><time>2026-04-23T16:40:54Z</time></trkpt><trkpt lat="45.55859621021946" lon="8.034847094960753"><ele>430.0</ele><time>2026-04-23T16:40:57Z</time></trkpt><trkpt lat="45.558669558514204" lon="8.034857161064396"><ele>430.0</ele><time>2026-04-23T16:41:00Z</time></trkpt><trkpt lat="45.558744677223636" lon="8.034856549494581"><ele>430.0</ele><time>2026-04-23T16:41:03Z</time></trkpt><trkpt lat="45.55881728094383" lon="8.03486815067848"><ele>430.0</ele><time>2026-04-23T16:41:06Z</time></trkpt><trkpt lat="45.5588805713969" lon="8.034847634942915"><ele>430.0</ele><time>2026-04-23T16:41:09Z</time></trkpt><trkpt lat="45.55895826894033" lon="8.034852189260555"><ele>432.1428571428571</ele><time>2026-04-23T16:41:12Z</time></trkpt><trkpt lat="45.55902043780355" lon="8.034835618945927"><ele>434.28571428571433</ele><time>2026-04-23T16:41:15Z</time></trkpt><trkpt lat="45.55909830071752" lon="8.03484121055945"><ele>436.42857142857144</ele><time>2026-04-23T16:41:18Z</time></trkpt><trkpt lat="45.55916475356937" lon="8.034832014419502"><ele>438.57142857142856</ele><time>2026-04-23T16:41:21Z</time></trkpt><trkpt lat="45.55924066596999" lon="8.034821331901254"><ele>440.71428571428567</ele><time>2026-04-23T16:41:25Z</time></trkpt><trkpt lat="45.55931560731838" lon="8.034804477228287"><ele>442.8571428571429</ele><time>2026-04-23T16:41:29Z</time></trkpt><trkpt lat="45.55938253994788" lon="8.03473617190839"><ele>445.0</ele><time>2026-04-23T16:41:33Z</time></trkpt><trkpt lat="45.55938020206341" lon="8.034629127118873"><ele>445.0</ele><time>2026-04-23T16:41:37Z</time></trkpt><trkpt lat="45.55931100955551" lon="8.034604391913161"><ele>445.0</ele><time>2026-04-23T16:41:40Z</time></trkpt><trkpt lat="45.559241139503605" lon="8.034619973705118"><ele>445.0</ele><time>2026-04-23T16:41:43Z</time></trkpt><trkpt lat="45.5591793171236" lon="8.03464137036107"><ele>445.0</ele><time>2026-04-23T16:41:45Z</time></trkpt><trkpt lat="45.55910759196395" lon="8.034638846748889"><ele>445.0</ele><time>2026-04-23T16:41:48Z</time></trkpt><trkpt lat="45.55902689301961" lon="8.034624800538817"><ele>445.0</ele><time>2026-04-23T16:41:51Z</time></trkpt><trkpt lat="45.55896049076805" lon="8.034592137217833"><ele>445.0</ele><time>2026-04-23T16:41:54Z</time></trkpt><trkpt lat="45.55889685154703" lon="8.034578433404729"><ele>445.0</ele><time>2026-04-23T16:41:57Z</time></trkpt><trkpt lat="45.558835305714844" lon="8.034539788047061"><ele>445.0</ele><time>2026-04-23T16:42:00Z</time></trkpt><trkpt lat="45.55877446272043" lon="8.034483265602377"><ele>445.0</ele><time>2026-04-23T16:42:03Z</time></trkpt><trkpt lat="45.55872841981012" lon="8.034411226432988"><ele>445.0</ele><time>2026-04-23T16:42:06Z</time></trkpt><trkpt lat="45.55869037175438" lon="8.034319089048417"><ele>445.0</ele><time>2026-04-23T16:42:09Z</time></trkpt><trkpt lat="45.55875050412218" lon="8.034272930583644"><ele>445.0</ele><time>2026-04-23T16:42:12Z</time></trkpt><trkpt lat="45.5588018515216" lon="8.034333924112365"><ele>445.0</ele><time>2026-04-23T16:42:15Z</time></trkpt><trkpt lat="45.5588797268732" lon="8.034378326958322"><ele>445.00000000000006</ele><time>2026-04-23T16:42:19Z</time></trkpt><trkpt lat="45.55894409120518" lon="8.034400155068793"><ele>445.0</ele><time>2026-04-23T16:42:22Z</time></trkpt><trkpt lat="45.559016861738975" lon="8.034399200739854"><ele>445.0</ele><time>2026-04-23T16:42:25Z</time></trkpt><trkpt lat="45.55908474232733" lon="8.034394088652851"><ele>445.0</ele><time>2026-04-23T16:42:28Z</time></trkpt><trkpt lat="45.55917261740958" lon="8.034385663809168"><ele>445.00000000000006</ele><time>2026-04-23T16:42:32Z</time></trkpt><trkpt lat="45.559251623510235" lon="8.034390543756988"><ele>445.0</ele><time>2026-04-23T16:42:35Z</time></trkpt><trkpt lat="45.55933862499661" lon="8.034392432646495"><ele>445.00000000000006</ele><time>2026-04-23T16:42:38Z</time></trkpt><trkpt lat="45.55940816733265" lon="8.034372231919063"><ele>445.0</ele><time>2026-04-23T16:42:41Z</time></trkpt><trkpt lat="45.55948355412896" lon="8.03433106081699"><ele>445.0</ele><time>2026-04-23T16:42:44Z</time></trkpt><trkpt lat="45.55950568566976" lon="8.034229721881195"><ele>445.0</ele><time>2026-04-23T16:42:47Z</time></trkpt><trkpt lat="45.55945328146562" lon="8.034162481716843"><ele>445.00000000000006</ele><time>2026-04-23T16:42:50Z</time></trkpt><trkpt lat="45.55937765210792" lon="8.034183389591648"><ele>445.0</ele><time>2026-04-23T16:42:53Z</time></trkpt><trkpt lat="45.55929951265128" lon="8.034212484571272"><ele>445.00000000000006</ele><time>2026-04-23T16:42:56Z</time></trkpt><trkpt lat="45.55922291495439" lon="8.034213994359932"><ele>445.0</ele><time>2026-04-23T16:42:59Z</time></trkpt><trkpt lat="45.559141759942875" lon="8.03421614384309"><ele>445.0</ele><time>2026-04-23T16:43:02Z</time></trkpt><trkpt lat="45.55906546760815" lon="8.034184392389834"><ele>445.0</ele><time>2026-04-23T16:43:05Z</time></trkpt><trkpt lat="45.55897946364529" lon="8.034153991192342"><ele>445.00000000000006</ele><time>2026-04-23T16:43:08Z</time></trkpt><trkpt lat="45.55891145933694" lon="8.034100100043908"><ele>445.0</ele><time>2026-04-23T16:43:11Z</time></trkpt><trkpt lat="45.55895167492317" lon="8.033998080152374"><ele>447.1666666666667</ele><time>2026-04-23T16:43:14Z</time></trkpt><trkpt lat="45.559011331246744" lon="8.034033170691938"><ele>449.33333333333337</ele><time>2026-04-23T16:43:16Z</time></trkpt><trkpt lat="45.559082702486435" lon="8.034073094393202"><ele>451.5</ele><time>2026-04-23T16:43:19Z</time></trkpt><trkpt lat="45.55916614438404" lon="8.034083154375251"><ele>453.66666666666663</ele><time>2026-04-23T16:43:22Z</time></trkpt><trkpt lat="45.55924642086294" lon="8.034081490432522"><ele>455.8333333333333</ele><time>2026-04-23T16:43:25Z</time></trkpt><trkpt lat="45.559326298833355" lon="8.03407180811007"><ele>458.0</ele><time>2026-04-23T16:43:28Z</time></trkpt><trkpt lat="45.559407670194304" lon="8.034023830515034"><ele>457.99999999999994</ele><time>2026-04-23T16:43:31Z</time></trkpt><trkpt lat="45.55947479762615" lon="8.033961606026462"><ele>458.0</ele><time>2026-04-23T16:43:34Z</time></trkpt><trkpt lat="45.55954059796518" lon="8.033889521207312"><ele>458.0</ele><time>2026-04-23T16:43:37Z</time></trkpt><trkpt lat="45.55960076069022" lon="8.033806070151854"><ele>458.0</ele><time>2026-04-23T16:43:40Z</time></trkpt><trkpt lat="45.5596645452301" lon="8.033742012843655"><ele>457.99999999999994</ele><time>2026-04-23T16:43:43Z</time></trkpt><trkpt lat="45.55973643276612" lon="8.033685785577926"><ele>458.0</ele><time>2026-04-23T16:43:46Z</time></trkpt><trkpt lat="45.55980879679612" lon="8.033638701660088"><ele>458.16666666666663</ele><time>2026-04-23T16:43:49Z</time></trkpt><trkpt lat="45.55989971995443" lon="8.033580255626104"><ele>458.3333333333333</ele><time>2026-04-23T16:43:53Z</time></trkpt><trkpt lat="45.559968566820274" lon="8.033527743077135"><ele>458.5</ele><time>2026-04-23T16:43:56Z</time></trkpt><trkpt lat="45.56003628997945" lon="8.03348850257008"><ele>458.66666666666663</ele><time>2026-04-23T16:43:59Z</time></trkpt><trkpt lat="45.560112235361935" lon="8.033462046722232"><ele>458.8333333333333</ele><time>2026-04-23T16:44:02Z</time></trkpt><trkpt lat="45.56019419649465" lon="8.033437278633949"><ele>459.0</ele><time>2026-04-23T16:44:05Z</time></trkpt><trkpt lat="45.560308436300424" lon="8.033374499001718"><ele>458.7142857142857</ele><time>2026-04-23T16:44:10Z</time></trkpt><trkpt lat="45.560371396031854" lon="8.033337351766027"><ele>458.42857142857144</ele><time>2026-04-23T16:44:13Z</time></trkpt><trkpt lat="45.56043570012676" lon="8.033298995301072"><ele>458.14285714285717</ele><time>2026-04-23T16:44:16Z</time></trkpt><trkpt lat="45.560503603689206" lon="8.033263288686399"><ele>457.8571428571429</ele><time>2026-04-23T16:44:19Z</time></trkpt><trkpt lat="45.56056852295594" lon="8.033232432340323"><ele>457.57142857142856</ele><time>2026-04-23T16:44:22Z</time></trkpt><trkpt lat="45.560639302504576" lon="8.033200722101505"><ele>457.28571428571433</ele><time>2026-04-23T16:44:25Z</time></trkpt><trkpt lat="45.56070479833022" lon="8.033156834118463"><ele>457.00000000000006</ele><time>2026-04-23T16:44:28Z</time></trkpt><trkpt lat="45.56076643042762" lon="8.033105636461995"><ele>458.50000000000006</ele><time>2026-04-23T16:44:31Z</time></trkpt><trkpt lat="45.56081458071108" lon="8.03302747980849"><ele>460.0</ele><time>2026-04-23T16:44:34Z</time></trkpt><trkpt lat="45.56086287713739" lon="8.03295708885884"><ele>461.5</ele><time>2026-04-23T16:44:37Z</time></trkpt><trkpt lat="45.56090655673255" lon="8.032868663522978"><ele>463.0</ele><time>2026-04-23T16:44:40Z</time></trkpt><trkpt lat="45.56095704943403" lon="8.032786116884221"><ele>464.50000000000006</ele><time>2026-04-23T16:44:43Z</time></trkpt><trkpt lat="45.56100555065221" lon="8.032697059596437"><ele>466.0</ele><time>2026-04-23T16:44:46Z</time></trkpt><trkpt lat="45.561058209627156" lon="8.0326166813191"><ele>466.00000000000006</ele><time>2026-04-23T16:44:49Z</time></trkpt><trkpt lat="45.56110915211765" lon="8.0325432188527"><ele>466.0</ele><time>2026-04-23T16:44:52Z</time></trkpt><trkpt lat="45.56117559640962" lon="8.032475412689966"><ele>466.0</ele><time>2026-04-23T16:44:55Z</time></trkpt><trkpt lat="45.561258531223416" lon="8.03244626912464"><ele>466.0</ele><time>2026-04-23T16:44:58Z</time></trkpt><trkpt lat="45.56133531374374" lon="8.032415367299489"><ele>466.00000000000006</ele><time>2026-04-23T16:45:01Z</time></trkpt><trkpt lat="45.56141780504402" lon="8.032392871298502"><ele>466.0</ele><time>2026-04-23T16:45:04Z</time></trkpt><trkpt lat="45.561491858054566" lon="8.032366627381968"><ele>466.42857142857144</ele><time>2026-04-23T16:45:07Z</time></trkpt><trkpt lat="45.56156393468532" lon="8.03235284731657"><ele>466.85714285714283</ele><time>2026-04-23T16:45:09Z</time></trkpt><trkpt lat="45.56162937146431" lon="8.032348266917012"><ele>467.2857142857143</ele><time>2026-04-23T16:45:11Z</time></trkpt><trkpt lat="45.561692150262395" lon="8.032338795638093"><ele>467.7142857142857</ele><time>2026-04-23T16:45:13Z</time></trkpt><trkpt lat="45.56175921551943" lon="8.032342757428838"><ele>468.1428571428571</ele><time>2026-04-23T16:45:15Z</time></trkpt><trkpt lat="45.561824761869964" lon="8.032333665745726"><ele>468.57142857142856</ele><time>2026-04-23T16:45:17Z</time></trkpt><trkpt lat="45.56189308917988" lon="8.032328649515549"><ele>469.0</ele><time>2026-04-23T16:45:19Z</time></trkpt><trkpt lat="45.56196377424463" lon="8.032312619430815"><ele>469.7142857142857</ele><time>2026-04-23T16:45:21Z</time></trkpt><trkpt lat="45.56204029997092" lon="8.03231661973731"><ele>470.42857142857144</ele><time>2026-04-23T16:45:23Z</time></trkpt><trkpt lat="45.562111074782564" lon="8.032323330465408"><ele>471.1428571428571</ele><time>2026-04-23T16:45:25Z</time></trkpt><trkpt lat="45.56217828745975" lon="8.03232627719098"><ele>471.85714285714283</ele><time>2026-04-23T16:45:27Z</time></trkpt><trkpt lat="45.56225600393727" lon="8.032337097143097"><ele>472.57142857142856</ele><time>2026-04-23T16:45:29Z</time></trkpt><trkpt lat="45.56233230313024" lon="8.03233578103106"><ele>473.2857142857142</ele><time>2026-04-23T16:45:31Z</time></trkpt><trkpt lat="45.562405594808645" lon="8.032328491082895"><ele>473.99999999999994</ele><time>2026-04-23T16:45:33Z</time></trkpt><trkpt lat="45.56247821631765" lon="8.032312391748107"><ele>474.0</ele><time>2026-04-23T16:45:35Z</time></trkpt><trkpt lat="45.562550814978955" lon="8.032331950465489"><ele>474.0</ele><time>2026-04-23T16:45:37Z</time></trkpt><trkpt lat="45.562644169684006" lon="8.032282100637477"><ele>474.0</ele><time>2026-04-23T16:45:39Z</time></trkpt><trkpt lat="45.562726197818414" lon="8.032245711446892"><ele>474.0</ele><time>2026-04-23T16:45:41Z</time></trkpt><trkpt lat="45.56280845852771" lon="8.032218275238584"><ele>474.0</ele><time>2026-04-23T16:45:43Z</time></trkpt><trkpt lat="45.56289366753126" lon="8.032201476610533"><ele>474.0</ele><time>2026-04-23T16:45:45Z</time></trkpt><trkpt lat="45.56305327546102" lon="8.032110132462481"><ele>473.79999999999995</ele><time>2026-04-23T16:45:49Z</time></trkpt><trkpt lat="45.56315260997223" lon="8.032067706228853"><ele>473.59999999999997</ele><time>2026-04-23T16:45:51Z</time></trkpt><trkpt lat="45.56325166717189" lon="8.032032058440217"><ele>473.4</ele><time>2026-04-23T16:45:53Z</time></trkpt><trkpt lat="45.563352857228345" lon="8.03200967530778"><ele>473.2</ele><time>2026-04-23T16:45:55Z</time></trkpt><trkpt lat="45.56344442735424" lon="8.031978551098321"><ele>473.0</ele><time>2026-04-23T16:45:57Z</time></trkpt><trkpt lat="45.563529285390345" lon="8.031953219785995"><ele>472.99999999999994</ele><time>2026-04-23T16:45:59Z</time></trkpt><trkpt lat="45.563605926063644" lon="8.031928464526938"><ele>473.0</ele><time>2026-04-23T16:46:01Z</time></trkpt><trkpt lat="45.56367655029896" lon="8.031919566390629"><ele>473.0</ele><time>2026-04-23T16:46:03Z</time></trkpt><trkpt lat="45.56375255813328" lon="8.031893226040715"><ele>473.0</ele><time>2026-04-23T16:46:05Z</time></trkpt><trkpt lat="45.563843061749" lon="8.03187004112202"><ele>472.99999999999994</ele><time>2026-04-23T16:46:07Z</time></trkpt><trkpt lat="45.56392204329642" lon="8.03179259479181"><ele>473.0</ele><time>2026-04-23T16:46:09Z</time></trkpt><trkpt lat="45.56402298932078" lon="8.031779790067448"><ele>473.2</ele><time>2026-04-23T16:46:11Z</time></trkpt><trkpt lat="45.564130900546694" lon="8.031755357656355"><ele>473.4</ele><time>2026-04-23T16:46:13Z</time></trkpt><trkpt lat="45.56422816972467" lon="8.031727541111188"><ele>473.59999999999997</ele><time>2026-04-23T16:46:15Z</time></trkpt><trkpt lat="45.56433310363654" lon="8.03169074105367"><ele>473.79999999999995</ele><time>2026-04-23T16:46:17Z</time></trkpt><trkpt lat="45.564414564300954" lon="8.03172180099086"><ele>474.0</ele><time>2026-04-23T16:46:19Z</time></trkpt><trkpt lat="45.564480615479056" lon="8.031701480161713"><ele>474.4</ele><time>2026-04-23T16:46:20Z</time></trkpt><trkpt lat="45.56457146812012" lon="8.03164965493579"><ele>474.79999999999995</ele><time>2026-04-23T16:46:22Z</time></trkpt><trkpt lat="45.56465975313351" lon="8.031624615787774"><ele>475.20000000000005</ele><time>2026-04-23T16:46:24Z</time></trkpt><trkpt lat="45.56475371087721" lon="8.031593523194223"><ele>475.6</ele><time>2026-04-23T16:46:26Z</time></trkpt><trkpt lat="45.56485315858929" lon="8.031586866188974"><ele>476.0</ele><time>2026-04-23T16:46:28Z</time></trkpt><trkpt lat="45.56494604400175" lon="8.031557598853565"><ele>475.5</ele><time>2026-04-23T16:46:30Z</time></trkpt><trkpt lat="45.565037012369515" lon="8.031525284580205"><ele>475.0</ele><time>2026-04-23T16:46:32Z</time></trkpt><trkpt lat="45.565122951917026" lon="8.031492167591889"><ele>474.5</ele><time>2026-04-23T16:46:34Z</time></trkpt><trkpt lat="45.56520984637664" lon="8.03145973884295"><ele>474.0</ele><time>2026-04-23T16:46:36Z</time></trkpt><trkpt lat="45.56545348978414" lon="8.03145248188072"><ele>474.0</ele><time>2026-04-23T16:46:42Z</time></trkpt><trkpt lat="45.56555676766156" lon="8.031472417595989"><ele>474.0</ele><time>2026-04-23T16:46:44Z</time></trkpt><trkpt lat="45.56564743553855" lon="8.031474605614514"><ele>474.0</ele><time>2026-04-23T16:46:46Z</time></trkpt><trkpt lat="45.56574555033552" lon="8.031488901973002"><ele>474.0</ele><time>2026-04-23T16:46:48Z</time></trkpt><trkpt lat="45.56584656932694" lon="8.03148897019445"><ele>474.0</ele><time>2026-04-23T16:46:50Z</time></trkpt><trkpt lat="45.565947230737535" lon="8.031505380620247"><ele>474.0</ele><time>2026-04-23T16:46:52Z</time></trkpt><trkpt lat="45.56603818356695" lon="8.031525900204256"><ele>474.0</ele><time>2026-04-23T16:46:54Z</time></trkpt><trkpt lat="45.56612455127611" lon="8.031542900994099"><ele>474.0</ele><time>2026-04-23T16:46:56Z</time></trkpt><trkpt lat="45.56622037707998" lon="8.031558124226574"><ele>474.0</ele><time>2026-04-23T16:46:58Z</time></trkpt><trkpt lat="45.5663179610674" lon="8.031569758111985"><ele>474.0</ele><time>2026-04-23T16:47:00Z</time></trkpt><trkpt lat="45.56640471349019" lon="8.03158482189845"><ele>474.4</ele><time>2026-04-23T16:47:02Z</time></trkpt><trkpt lat="45.56650794875012" lon="8.031576472257559"><ele>474.79999999999995</ele><time>2026-04-23T16:47:04Z</time></trkpt><trkpt lat="45.56659856353919" lon="8.031626368586283"><ele>475.20000000000005</ele><time>2026-04-23T16:47:06Z</time></trkpt><trkpt lat="45.56668373692186" lon="8.031639055561676"><ele>475.6</ele><time>2026-04-23T16:47:08Z</time></trkpt><trkpt lat="45.56676889820316" lon="8.031653047133565"><ele>476.0</ele><time>2026-04-23T16:47:10Z</time></trkpt><trkpt lat="45.56685037210046" lon="8.031644302044281"><ele>476.8333333333333</ele><time>2026-04-23T16:47:12Z</time></trkpt><trkpt lat="45.566935429430885" lon="8.031672882539825"><ele>477.66666666666663</ele><time>2026-04-23T16:47:14Z</time></trkpt><trkpt lat="45.567020572917144" lon="8.031704413110292"><ele>478.5</ele><time>2026-04-23T16:47:16Z</time></trkpt><trkpt lat="45.567102513832516" lon="8.03173618448342"><ele>479.33333333333337</ele><time>2026-04-23T16:47:18Z</time></trkpt><trkpt lat="45.567177713456736" lon="8.031740427347561"><ele>480.1666666666667</ele><time>2026-04-23T16:47:20Z</time></trkpt><trkpt lat="45.56724992140856" lon="8.031777541455757"><ele>481.0</ele><time>2026-04-23T16:47:22Z</time></trkpt><trkpt lat="45.56734755111847" lon="8.03181325915978"><ele>481.50000000000006</ele><time>2026-04-23T16:47:25Z</time></trkpt><trkpt lat="45.56742300035252" lon="8.03183847464825"><ele>482.0</ele><time>2026-04-23T16:47:27Z</time></trkpt><trkpt lat="45.56748755962286" lon="8.03189128707731"><ele>482.5</ele><time>2026-04-23T16:47:29Z</time></trkpt><trkpt lat="45.5675581318905" lon="8.031924325484514"><ele>483.0</ele><time>2026-04-23T16:47:31Z</time></trkpt><trkpt lat="45.56762877643279" lon="8.031957075792043"><ele>483.50000000000006</ele><time>2026-04-23T16:47:33Z</time></trkpt><trkpt lat="45.56770732441134" lon="8.031953044828823"><ele>484.0</ele><time>2026-04-23T16:47:35Z</time></trkpt><trkpt lat="45.56778193750135" lon="8.031956135388851"><ele>484.0</ele><time>2026-04-23T16:47:37Z</time></trkpt><trkpt lat="45.56785369853678" lon="8.031970791868186"><ele>483.99999999999994</ele><time>2026-04-23T16:47:39Z</time></trkpt><trkpt lat="45.56792084301873" lon="8.032023786249258"><ele>484.0</ele><time>2026-04-23T16:47:41Z</time></trkpt><trkpt lat="45.56798995574375" lon="8.032083917922883"><ele>484.0</ele><time>2026-04-23T16:47:43Z</time></trkpt><trkpt lat="45.568057098073446" lon="8.032118503359465"><ele>483.99999999999994</ele><time>2026-04-23T16:47:45Z</time></trkpt><trkpt lat="45.56811592581579" lon="8.032155114301816"><ele>484.0</ele><time>2026-04-23T16:47:47Z</time></trkpt><trkpt lat="45.56818570305388" lon="8.03218690185905"><ele>484.0</ele><time>2026-04-23T16:47:49Z</time></trkpt><trkpt lat="45.56825327552303" lon="8.032229063161132"><ele>485.00000000000006</ele><time>2026-04-23T16:47:51Z</time></trkpt><trkpt lat="45.56832862046579" lon="8.032262546661936"><ele>486.0</ele><time>2026-04-23T16:47:53Z</time></trkpt><trkpt lat="45.56840224311513" lon="8.032293860153416"><ele>487.0</ele><time>2026-04-23T16:47:55Z</time></trkpt><trkpt lat="45.56847271655586" lon="8.032328613146822"><ele>488.0</ele><time>2026-04-23T16:47:57Z</time></trkpt><trkpt lat="45.56854920820968" lon="8.032353304239752"><ele>489.00000000000006</ele><time>2026-04-23T16:47:59Z</time></trkpt><trkpt lat="45.56863588040729" lon="8.032389072661024"><ele>490.0</ele><time>2026-04-23T16:48:01Z</time></trkpt><trkpt lat="45.568717851493325" lon="8.032419421998096"><ele>490.1666666666667</ele><time>2026-04-23T16:48:03Z</time></trkpt><trkpt lat="45.5687968256906" lon="8.032443967571378"><ele>490.33333333333337</ele><time>2026-04-23T16:48:05Z</time></trkpt><trkpt lat="45.56888225315738" lon="8.032471345376269"><ele>490.5</ele><time>2026-04-23T16:48:07Z</time></trkpt><trkpt lat="45.56895691227198" lon="8.032512166019771"><ele>490.66666666666663</ele><time>2026-04-23T16:48:09Z</time></trkpt><trkpt lat="45.56902765736718" lon="8.032570603027596"><ele>490.8333333333333</ele><time>2026-04-23T16:48:11Z</time></trkpt><trkpt lat="45.56911274398467" lon="8.032589537873065"><ele>491.0</ele><time>2026-04-23T16:48:13Z</time></trkpt><trkpt lat="45.56919621183294" lon="8.032596570242513"><ele>491.66666666666663</ele><time>2026-04-23T16:48:15Z</time></trkpt><trkpt lat="45.569268412965734" lon="8.032601437809197"><ele>492.3333333333333</ele><time>2026-04-23T16:48:17Z</time></trkpt><trkpt lat="45.56934764022831" lon="8.032613728723707"><ele>493.0</ele><time>2026-04-23T16:48:19Z</time></trkpt><trkpt lat="45.5694271632674" lon="8.032625524188823"><ele>493.66666666666663</ele><time>2026-04-23T16:48:21Z</time></trkpt><trkpt lat="45.569513075665185" lon="8.032629177795926"><ele>494.3333333333333</ele><time>2026-04-23T16:48:23Z</time></trkpt><trkpt lat="45.56959286063505" lon="8.032636258585205"><ele>495.0</ele><time>2026-04-23T16:48:25Z</time></trkpt><trkpt lat="45.56967730188781" lon="8.032637820334873"><ele>495.1666666666667</ele><time>2026-04-23T16:48:27Z</time></trkpt><trkpt lat="45.569754387706666" lon="8.032640786576293"><ele>495.33333333333337</ele><time>2026-04-23T16:48:30Z</time></trkpt><trkpt lat="45.56985576475192" lon="8.032636175957947"><ele>495.5</ele><time>2026-04-23T16:48:33Z</time></trkpt><trkpt lat="45.569943121625094" lon="8.032651866408814"><ele>495.6666666666667</ele><time>2026-04-23T16:48:35Z</time></trkpt><trkpt lat="45.57003364421215" lon="8.032651188589577"><ele>495.83333333333337</ele><time>2026-04-23T16:48:37Z</time></trkpt><trkpt lat="45.570117854215894" lon="8.032667854601327"><ele>496.0</ele><time>2026-04-23T16:48:39Z</time></trkpt><trkpt lat="45.57020225365585" lon="8.03267383327112"><ele>496.0</ele><time>2026-04-23T16:48:41Z</time></trkpt><trkpt lat="45.57028101930764" lon="8.032683620749573"><ele>496.0</ele><time>2026-04-23T16:48:43Z</time></trkpt><trkpt lat="45.57036437878142" lon="8.03269098719801"><ele>496.0</ele><time>2026-04-23T16:48:45Z</time></trkpt><trkpt lat="45.57048742001866" lon="8.032686148569235"><ele>496.0</ele><time>2026-04-23T16:48:48Z</time></trkpt><trkpt lat="45.57056859377169" lon="8.032681400863954"><ele>496.0</ele><time>2026-04-23T16:48:50Z</time></trkpt><trkpt lat="45.57065131131668" lon="8.032689781155957"><ele>496.33333333333337</ele><time>2026-04-23T16:48:52Z</time></trkpt><trkpt lat="45.57073234628788" lon="8.032690539694709"><ele>496.6666666666667</ele><time>2026-04-23T16:48:54Z</time></trkpt><trkpt lat="45.570817432304686" lon="8.032695246417111"><ele>497.0</ele><time>2026-04-23T16:48:56Z</time></trkpt><trkpt lat="45.5709012589183" lon="8.032697717434493"><ele>497.33333333333337</ele><time>2026-04-23T16:48:58Z</time></trkpt><trkpt lat="45.57098327474026" lon="8.032696374924818"><ele>497.6666666666667</ele><time>2026-04-23T16:49:00Z</time></trkpt><trkpt lat="45.57106885137192" lon="8.032699425627483"><ele>498.0</ele><time>2026-04-23T16:49:02Z</time></trkpt><trkpt lat="45.57115197703087" lon="8.032692570969937"><ele>498.1666666666667</ele><time>2026-04-23T16:49:04Z</time></trkpt><trkpt lat="45.57123222280046" lon="8.032709479734807"><ele>498.33333333333337</ele><time>2026-04-23T16:49:06Z</time></trkpt><trkpt lat="45.57131409290383" lon="8.032715195032143"><ele>498.5</ele><time>2026-04-23T16:49:08Z</time></trkpt><trkpt lat="45.57139773554401" lon="8.032730824048578"><ele>498.6666666666667</ele><time>2026-04-23T16:49:10Z</time></trkpt><trkpt lat="45.57148171692802" lon="8.032745232450115"><ele>498.83333333333337</ele><time>2026-04-23T16:49:12Z</time></trkpt><trkpt lat="45.571564435440344" lon="8.032754962318975"><ele>499.0</ele><time>2026-04-23T16:49:14Z</time></trkpt><trkpt lat="45.5716528842674" lon="8.03277508576499"><ele>499.00000000000006</ele><time>2026-04-23T16:49:16Z</time></trkpt><trkpt lat="45.571738577663226" lon="8.032787310300323"><ele>499.0</ele><time>2026-04-23T16:49:18Z</time></trkpt><trkpt lat="45.57182784802048" lon="8.032798917801726"><ele>499.0</ele><time>2026-04-23T16:49:20Z</time></trkpt><trkpt lat="45.57191442331179" lon="8.03280862001333"><ele>499.0</ele><time>2026-04-23T16:49:22Z</time></trkpt><trkpt lat="45.57199964883277" lon="8.032820537512617"><ele>499.00000000000006</ele><time>2026-04-23T16:49:24Z</time></trkpt><trkpt lat="45.572082924614946" lon="8.032831565335712"><ele>499.0</ele><time>2026-04-23T16:49:26Z</time></trkpt><trkpt lat="45.57216871983168" lon="8.032846459916305"><ele>499.50000000000006</ele><time>2026-04-23T16:49:28Z</time></trkpt><trkpt lat="45.572252512818615" lon="8.03285566592003"><ele>500.0</ele><time>2026-04-23T16:49:30Z</time></trkpt><trkpt lat="45.57233714474183" lon="8.032873710518473"><ele>500.5</ele><time>2026-04-23T16:49:32Z</time></trkpt><trkpt lat="45.572420233511934" lon="8.032885182179523"><ele>501.0</ele><time>2026-04-23T16:49:34Z</time></trkpt><trkpt lat="45.572502175237254" lon="8.03290845772806"><ele>501.50000000000006</ele><time>2026-04-23T16:49:36Z</time></trkpt><trkpt lat="45.57258152704118" lon="8.03292824424143"><ele>502.0</ele><time>2026-04-23T16:49:38Z</time></trkpt><trkpt lat="45.57266531992878" lon="8.032940127573893"><ele>502.00000000000006</ele><time>2026-04-23T16:49:40Z</time></trkpt><trkpt lat="45.572740266688044" lon="8.032948935249927"><ele>502.0</ele><time>2026-04-23T16:49:42Z</time></trkpt><trkpt lat="45.572819281452965" lon="8.032967629218161"><ele>502.0</ele><time>2026-04-23T16:49:44Z</time></trkpt><trkpt lat="45.57290376963102" lon="8.033025200189975"><ele>502.0</ele><time>2026-04-23T16:49:46Z</time></trkpt><trkpt lat="45.57297731996206" lon="8.033045389068942"><ele>502.00000000000006</ele><time>2026-04-23T16:49:48Z</time></trkpt><trkpt lat="45.57309500260053" lon="8.033035924760064"><ele>502.0</ele><time>2026-04-23T16:49:51Z</time></trkpt><trkpt lat="45.573171990433195" lon="8.033056984050521"><ele>502.6666666666667</ele><time>2026-04-23T16:49:53Z</time></trkpt><trkpt lat="45.573247868973475" lon="8.033075707390852"><ele>503.33333333333337</ele><time>2026-04-23T16:49:55Z</time></trkpt><trkpt lat="45.57332564893924" lon="8.03308920893553"><ele>504.0</ele><time>2026-04-23T16:49:57Z</time></trkpt><trkpt lat="45.57340133523798" lon="8.033107074323707"><ele>504.66666666666663</ele><time>2026-04-23T16:49:59Z</time></trkpt><trkpt lat="45.57348703605368" lon="8.033124226896307"><ele>505.3333333333333</ele><time>2026-04-23T16:50:01Z</time></trkpt><trkpt lat="45.57356415337146" lon="8.03315438823538"><ele>506.0</ele><time>2026-04-23T16:50:03Z</time></trkpt><trkpt lat="45.57363333248998" lon="8.033188704171717"><ele>506.3333333333333</ele><time>2026-04-23T16:50:05Z</time></trkpt><trkpt lat="45.57370827250248" lon="8.033209740278654"><ele>506.66666666666663</ele><time>2026-04-23T16:50:07Z</time></trkpt><trkpt lat="45.573787348079534" lon="8.03322650847208"><ele>507.0</ele><time>2026-04-23T16:50:09Z</time></trkpt><trkpt lat="45.57386187096705" lon="8.033268087124005"><ele>507.33333333333337</ele><time>2026-04-23T16:50:11Z</time></trkpt><trkpt lat="45.573933476309975" lon="8.033303525885424"><ele>507.6666666666667</ele><time>2026-04-23T16:50:13Z</time></trkpt><trkpt lat="45.5740053202434" lon="8.03333971725479"><ele>508.0</ele><time>2026-04-23T16:50:15Z</time></trkpt><trkpt lat="45.574080926932474" lon="8.033379453115774"><ele>508.50000000000006</ele><time>2026-04-23T16:50:17Z</time></trkpt><trkpt lat="45.57415508737308" lon="8.033422757594787"><ele>509.0</ele><time>2026-04-23T16:50:19Z</time></trkpt><trkpt lat="45.57423447325582" lon="8.033456348147682"><ele>509.5</ele><time>2026-04-23T16:50:21Z</time></trkpt><trkpt lat="45.574309965177484" lon="8.033493582709887"><ele>510.0</ele><time>2026-04-23T16:50:23Z</time></trkpt><trkpt lat="45.574376756181614" lon="8.033527897054281"><ele>510.50000000000006</ele><time>2026-04-23T16:50:25Z</time></trkpt><trkpt lat="45.57445965785354" lon="8.03355781991225"><ele>511.0</ele><time>2026-04-23T16:50:27Z</time></trkpt><trkpt lat="45.57454140778527" lon="8.033588335424072"><ele>511.5</ele><time>2026-04-23T16:50:29Z</time></trkpt><trkpt lat="45.57461532007858" lon="8.033595165186558"><ele>512.0</ele><time>2026-04-23T16:50:31Z</time></trkpt><trkpt lat="45.57484848430956" lon="8.033579550945953"><ele>512.5</ele><time>2026-04-23T16:50:37Z</time></trkpt><trkpt lat="45.574970265671936" lon="8.033574943876443"><ele>513.0</ele><time>2026-04-23T16:50:40Z</time></trkpt><trkpt lat="45.5750451930454" lon="8.0335629315118"><ele>513.0</ele><time>2026-04-23T16:50:42Z</time></trkpt><trkpt lat="45.57516793898792" lon="8.033558051796085"><ele>513.0</ele><time>2026-04-23T16:50:45Z</time></trkpt><trkpt lat="45.57525211622983" lon="8.033542730842886"><ele>513.0</ele><time>2026-04-23T16:50:47Z</time></trkpt><trkpt lat="45.57532465725601" lon="8.033539646184453"><ele>513.0</ele><time>2026-04-23T16:50:49Z</time></trkpt><trkpt lat="45.57539929680396" lon="8.033531607149595"><ele>513.0</ele><time>2026-04-23T16:50:51Z</time></trkpt><trkpt lat="45.575476204059576" lon="8.033524289846651"><ele>513.0</ele><time>2026-04-23T16:50:53Z</time></trkpt><trkpt lat="45.5755562479856" lon="8.03352450732297"><ele>513.8333333333334</ele><time>2026-04-23T16:50:55Z</time></trkpt><trkpt lat="45.57563751827502" lon="8.033526088644557"><ele>514.6666666666666</ele><time>2026-04-23T16:50:57Z</time></trkpt><trkpt lat="45.575714368021764" lon="8.033519145417143"><ele>515.5</ele><time>2026-04-23T16:50:59Z</time></trkpt><trkpt lat="45.57579382802717" lon="8.033520958126195"><ele>516.3333333333333</ele><time>2026-04-23T16:51:01Z</time></trkpt><trkpt lat="45.57587630014989" lon="8.033520179582036"><ele>517.1666666666666</ele><time>2026-04-23T16:51:03Z</time></trkpt><trkpt lat="45.575953702792766" lon="8.033515241356659"><ele>518.0</ele><time>2026-04-23T16:51:05Z</time></trkpt><trkpt lat="45.576033241115496" lon="8.033507527429528"><ele>518.0</ele><time>2026-04-23T16:51:07Z</time></trkpt><trkpt lat="45.57611586229692" lon="8.03350352932855"><ele>518.0</ele><time>2026-04-23T16:51:09Z</time></trkpt><trkpt lat="45.5761982489975" lon="8.033491512892395"><ele>518.0</ele><time>2026-04-23T16:51:11Z</time></trkpt><trkpt lat="45.57627917907236" lon="8.033487593876616"><ele>518.0</ele><time>2026-04-23T16:51:13Z</time></trkpt><trkpt lat="45.576357937674835" lon="8.03348695950552"><ele>518.0</ele><time>2026-04-23T16:51:15Z</time></trkpt><trkpt lat="45.57643427657894" lon="8.03347477659647"><ele>518.0</ele><time>2026-04-23T16:51:17Z</time></trkpt><trkpt lat="45.576517331118495" lon="8.033467534977738"><ele>518.8333333333333</ele><time>2026-04-23T16:51:19Z</time></trkpt><trkpt lat="45.57660241996815" lon="8.033454375336913"><ele>519.6666666666666</ele><time>2026-04-23T16:51:21Z</time></trkpt><trkpt lat="45.5766800407046" lon="8.033450709170433"><ele>520.5</ele><time>2026-04-23T16:51:23Z</time></trkpt><trkpt lat="45.57675923206404" lon="8.033449055825544"><ele>521.3333333333334</ele><time>2026-04-23T16:51:25Z</time></trkpt><trkpt lat="45.57683728891914" lon="8.03344480391244"><ele>522.1666666666667</ele><time>2026-04-23T16:51:27Z</time></trkpt><trkpt lat="45.57691865927334" lon="8.03344723553488"><ele>523.0</ele><time>2026-04-23T16:51:29Z</time></trkpt><trkpt lat="45.576994868971966" lon="8.033445497699525"><ele>523.3333333333334</ele><time>2026-04-23T16:51:31Z</time></trkpt><trkpt lat="45.57707467519183" lon="8.033438205202275"><ele>523.6666666666667</ele><time>2026-04-23T16:51:33Z</time></trkpt><trkpt lat="45.57715565760721" lon="8.033439033469588"><ele>524.0</ele><time>2026-04-23T16:51:35Z</time></trkpt><trkpt lat="45.57723387254341" lon="8.033429330318203"><ele>524.3333333333334</ele><time>2026-04-23T16:51:37Z</time></trkpt><trkpt lat="45.57731864824074" lon="8.033425685399902"><ele>524.6666666666666</ele><time>2026-04-23T16:51:39Z</time></trkpt><trkpt lat="45.57739910957874" lon="8.033426408686356"><ele>525.0</ele><time>2026-04-23T16:51:41Z</time></trkpt><trkpt lat="45.57747862288234" lon="8.033424859210323"><ele>525.0</ele><time>2026-04-23T16:51:43Z</time></trkpt><trkpt lat="45.57755646635989" lon="8.033412883789552"><ele>525.0</ele><time>2026-04-23T16:51:45Z</time></trkpt><trkpt lat="45.577638355643685" lon="8.033406159457268"><ele>525.0</ele><time>2026-04-23T16:51:47Z</time></trkpt><trkpt lat="45.57771730026372" lon="8.033404871476275"><ele>525.0</ele><time>2026-04-23T16:51:49Z</time></trkpt><trkpt lat="45.57779947342241" lon="8.033405364249253"><ele>525.0</ele><time>2026-04-23T16:51:51Z</time></trkpt><trkpt lat="45.577877998426565" lon="8.033402565928084"><ele>525.0</ele><time>2026-04-23T16:51:53Z</time></trkpt><trkpt lat="45.57795940635125" lon="8.033406390286164"><ele>525.6666666666666</ele><time>2026-04-23T16:51:55Z</time></trkpt><trkpt lat="45.57803735084658" lon="8.033408611615677"><ele>526.3333333333334</ele><time>2026-04-23T16:51:57Z</time></trkpt><trkpt lat="45.57811934305336" lon="8.033398248682904"><ele>527.0</ele><time>2026-04-23T16:51:59Z</time></trkpt><trkpt lat="45.57819216703085" lon="8.033392144081583"><ele>527.6666666666667</ele><time>2026-04-23T16:52:01Z</time></trkpt><trkpt lat="45.57827321577595" lon="8.033403163702504"><ele>528.3333333333334</ele><time>2026-04-23T16:52:03Z</time></trkpt><trkpt lat="45.5783526496752" lon="8.033399159046215"><ele>529.0</ele><time>2026-04-23T16:52:05Z</time></trkpt><trkpt lat="45.578431467292326" lon="8.033384891319345"><ele>529.0</ele><time>2026-04-23T16:52:07Z</time></trkpt><trkpt lat="45.578512227102216" lon="8.033365139367593"><ele>529.0</ele><time>2026-04-23T16:52:09Z</time></trkpt><trkpt lat="45.57859238278505" lon="8.03335035702078"><ele>529.0</ele><time>2026-04-23T16:52:11Z</time></trkpt><trkpt lat="45.57867138129532" lon="8.033348074477306"><ele>529.0</ele><time>2026-04-23T16:52:13Z</time></trkpt><trkpt lat="45.578748018957555" lon="8.033351326312468"><ele>529.0</ele><time>2026-04-23T16:52:15Z</time></trkpt><trkpt lat="45.57882811311803" lon="8.033351411604965"><ele>529.0</ele><time>2026-04-23T16:52:17Z</time></trkpt><trkpt lat="45.57890532526651" lon="8.033350922300851"><ele>529.4285714285714</ele><time>2026-04-23T16:52:19Z</time></trkpt><trkpt lat="45.57898463701306" lon="8.033340521110558"><ele>529.8571428571429</ele><time>2026-04-23T16:52:21Z</time></trkpt><trkpt lat="45.57905487302511" lon="8.033346083829047"><ele>530.2857142857142</ele><time>2026-04-23T16:52:23Z</time></trkpt><trkpt lat="45.57911999211372" lon="8.033339278040044"><ele>530.7142857142858</ele><time>2026-04-23T16:52:25Z</time></trkpt><trkpt lat="45.57918901235018" lon="8.033347931034154"><ele>531.1428571428571</ele><time>2026-04-23T16:52:27Z</time></trkpt><trkpt lat="45.57925998922018" lon="8.033352934933415"><ele>531.5714285714286</ele><time>2026-04-23T16:52:29Z</time></trkpt><trkpt lat="45.57932942853143" lon="8.033355823984099"><ele>532.0</ele><time>2026-04-23T16:52:31Z</time></trkpt><trkpt lat="45.57939615537265" lon="8.033354751894185"><ele>532.0</ele><time>2026-04-23T16:52:33Z</time></trkpt><trkpt lat="45.57946454199472" lon="8.033353694573487"><ele>532.0</ele><time>2026-04-23T16:52:35Z</time></trkpt><trkpt lat="45.57953185670728" lon="8.033351453435763"><ele>532.0</ele><time>2026-04-23T16:52:37Z</time></trkpt><trkpt lat="45.57960019973629" lon="8.033341217728362"><ele>532.0</ele><time>2026-04-23T16:52:39Z</time></trkpt><trkpt lat="45.579666906629114" lon="8.033325315444413"><ele>532.0</ele><time>2026-04-23T16:52:41Z</time></trkpt><trkpt lat="45.579729474686836" lon="8.033307992150531"><ele>532.0</ele><time>2026-04-23T16:52:43Z</time></trkpt><trkpt lat="45.57979694911074" lon="8.033292967850727"><ele>532.0</ele><time>2026-04-23T16:52:45Z</time></trkpt><trkpt lat="45.57986204026783" lon="8.033279212780025"><ele>532.6666666666667</ele><time>2026-04-23T16:52:47Z</time></trkpt><trkpt lat="45.57992644194193" lon="8.033260064458524"><ele>533.3333333333334</ele><time>2026-04-23T16:52:49Z</time></trkpt><trkpt lat="45.5800170755396" lon="8.033232457299599"><ele>534.0</ele><time>2026-04-23T16:52:52Z</time></trkpt><trkpt lat="45.58010754829399" lon="8.033204585684292"><ele>534.6666666666666</ele><time>2026-04-23T16:52:55Z</time></trkpt><trkpt lat="45.58019354189596" lon="8.03317999660663"><ele>535.3333333333333</ele><time>2026-04-23T16:52:58Z</time></trkpt><trkpt lat="45.580282175876754" lon="8.03314873423544"><ele>536.0</ele><time>2026-04-23T16:53:01Z</time></trkpt><trkpt lat="45.58036218457406" lon="8.033102839037568"><ele>537.1666666666666</ele><time>2026-04-23T16:53:04Z</time></trkpt><trkpt lat="45.580441150803544" lon="8.033053213681184"><ele>538.3333333333333</ele><time>2026-04-23T16:53:07Z</time></trkpt><trkpt lat="45.58051856678125" lon="8.033019401002129"><ele>539.5</ele><time>2026-04-23T16:53:10Z</time></trkpt><trkpt lat="45.58060287183047" lon="8.032976801737489"><ele>540.6666666666666</ele><time>2026-04-23T16:53:13Z</time></trkpt><trkpt lat="45.580675516097855" lon="8.032928206950256"><ele>541.8333333333334</ele><time>2026-04-23T16:53:17Z</time></trkpt><trkpt lat="45.58076345209393" lon="8.032880458536711"><ele>543.0</ele><time>2026-04-23T16:53:20Z</time></trkpt><trkpt lat="45.580842658750406" lon="8.032823246309393"><ele>543.0</ele><time>2026-04-23T16:53:23Z</time></trkpt><trkpt lat="45.58092230075278" lon="8.032768127978269"><ele>543.0</ele><time>2026-04-23T16:53:26Z</time></trkpt><trkpt lat="45.58099292686658" lon="8.032709384345026"><ele>543.0</ele><time>2026-04-23T16:53:29Z</time></trkpt><trkpt lat="45.58106273152079" lon="8.032650284550806"><ele>543.0</ele><time>2026-04-23T16:53:32Z</time></trkpt><trkpt lat="45.581128126367716" lon="8.032578051268077"><ele>543.0</ele><time>2026-04-23T16:53:35Z</time></trkpt><trkpt lat="45.58119405303862" lon="8.03251746778901"><ele>543.0</ele><time>2026-04-23T16:53:38Z</time></trkpt><trkpt lat="45.58126064508567" lon="8.03245993623738"><ele>545.3333333333334</ele><time>2026-04-23T16:53:41Z</time></trkpt><trkpt lat="45.581323776691534" lon="8.032408743948936"><ele>547.6666666666666</ele><time>2026-04-23T16:53:44Z</time></trkpt><trkpt lat="45.58138197225327" lon="8.032345832222596"><ele>550.0</ele><time>2026-04-23T16:53:47Z</time></trkpt><trkpt lat="45.58141327690714" lon="8.032258339032282"><ele>552.3333333333333</ele><time>2026-04-23T16:53:50Z</time></trkpt><trkpt lat="45.58142941297278" lon="8.032149789305418"><ele>554.6666666666666</ele><time>2026-04-23T16:53:53Z</time></trkpt><trkpt lat="45.58141702673584" lon="8.032030879706337"><ele>557.0</ele><time>2026-04-23T16:53:56Z</time></trkpt><trkpt lat="45.58140674847966" lon="8.03192353059815"><ele>557.0</ele><time>2026-04-23T16:53:59Z</time></trkpt><trkpt lat="45.581397502547816" lon="8.031831143939629"><ele>557.0</ele><time>2026-04-23T16:54:02Z</time></trkpt><trkpt lat="45.581405187532326" lon="8.031731736549274"><ele>557.0</ele><time>2026-04-23T16:54:05Z</time></trkpt><trkpt lat="45.58142045053931" lon="8.031636019811318"><ele>557.0</ele><time>2026-04-23T16:54:07Z</time></trkpt><trkpt lat="45.58146771771602" lon="8.031528624568965"><ele>557.0</ele><time>2026-04-23T16:54:10Z</time></trkpt><trkpt lat="45.58151431815399" lon="8.031452940349014"><ele>557.0</ele><time>2026-04-23T16:54:13Z</time></trkpt><trkpt lat="45.5815773068772" lon="8.03140112234283"><ele>557.0</ele><time>2026-04-23T16:54:16Z</time></trkpt><trkpt lat="45.58162810149356" lon="8.03130585704546"><ele>556.6666666666666</ele><time>2026-04-23T16:54:19Z</time></trkpt><trkpt lat="45.58167749208181" lon="8.031248853505094"><ele>556.3333333333333</ele><time>2026-04-23T16:54:22Z</time></trkpt><trkpt lat="45.58173873345365" lon="8.031179592373661"><ele>556.0</ele><time>2026-04-23T16:54:26Z</time></trkpt><trkpt lat="45.58182212613771" lon="8.03113994383814"><ele>555.6666666666666</ele><time>2026-04-23T16:54:30Z</time></trkpt><trkpt lat="45.58189512836077" lon="8.031077803622878"><ele>555.3333333333334</ele><time>2026-04-23T16:54:34Z</time></trkpt><trkpt lat="45.581965713201306" lon="8.031023888410749"><ele>555.0</ele><time>2026-04-23T16:54:38Z</time></trkpt><trkpt lat="45.58203277490057" lon="8.03097391369588"><ele>557.8333333333334</ele><time>2026-04-23T16:54:42Z</time></trkpt><trkpt lat="45.58210622055945" lon="8.030924672972807"><ele>560.6666666666666</ele><time>2026-04-23T16:54:46Z</time></trkpt><trkpt lat="45.58217334221928" lon="8.030868179795606"><ele>563.5</ele><time>2026-04-23T16:54:50Z</time></trkpt><trkpt lat="45.58223539108861" lon="8.030814455578048"><ele>566.3333333333333</ele><time>2026-04-23T16:54:54Z</time></trkpt><trkpt lat="45.582290387189" lon="8.030733779944013"><ele>569.1666666666666</ele><time>2026-04-23T16:54:58Z</time></trkpt><trkpt lat="45.582343211309635" lon="8.03065117832009"><ele>572.0</ele><time>2026-04-23T16:55:02Z</time></trkpt><trkpt lat="45.5823738249029" lon="8.030549343945474"><ele>571.9999999999999</ele><time>2026-04-23T16:55:06Z</time></trkpt><trkpt lat="45.58238693545371" lon="8.030436750037868"><ele>572.0</ele><time>2026-04-23T16:55:10Z</time></trkpt><trkpt lat="45.58238832788497" lon="8.03031259328698"><ele>572.0</ele><time>2026-04-23T16:55:14Z</time></trkpt><trkpt lat="45.58238644900894" lon="8.030218855161667"><ele>572.0</ele><time>2026-04-23T16:55:17Z</time></trkpt><trkpt lat="45.582397011562556" lon="8.030123411984786"><ele>572.0</ele><time>2026-04-23T16:55:20Z</time></trkpt><trkpt lat="45.5824253976641" lon="8.03003075144892"><ele>571.9999999999999</ele><time>2026-04-23T16:55:23Z</time></trkpt><trkpt lat="45.58243630242261" lon="8.029939226183055"><ele>572.0</ele><time>2026-04-23T16:55:26Z</time></trkpt><trkpt lat="45.58242126940801" lon="8.029823687138673"><ele>571.8333333333333</ele><time>2026-04-23T16:55:30Z</time></trkpt><trkpt lat="45.582391480824946" lon="8.02970160381695"><ele>571.6666666666666</ele><time>2026-04-23T16:55:33Z</time></trkpt><trkpt lat="45.582338612715816" lon="8.029633364528946"><ele>571.5</ele><time>2026-04-23T16:55:35Z</time></trkpt><trkpt lat="45.582298900614774" lon="8.029533354532912"><ele>571.3333333333334</ele><time>2026-04-23T16:55:38Z</time></trkpt><trkpt lat="45.58225188356663" lon="8.029436593805311"><ele>571.1666666666667</ele><time>2026-04-23T16:55:40Z</time></trkpt><trkpt lat="45.58220467020458" lon="8.029326459478716"><ele>571.0</ele><time>2026-04-23T16:55:42Z</time></trkpt><trkpt lat="45.582191099578054" lon="8.029208925141614"><ele>569.5</ele><time>2026-04-23T16:55:44Z</time></trkpt><trkpt lat="45.58223279819874" lon="8.029111530921021"><ele>568.0</ele><time>2026-04-23T16:55:46Z</time></trkpt><trkpt lat="45.5823097055721" lon="8.02905343697464"><ele>566.5</ele><time>2026-04-23T16:55:49Z</time></trkpt><trkpt lat="45.58239380025509" lon="8.029008133520675"><ele>565.0</ele><time>2026-04-23T16:55:52Z</time></trkpt><trkpt lat="45.58247676636587" lon="8.02895735861146"><ele>563.5</ele><time>2026-04-23T16:55:55Z</time></trkpt><trkpt lat="45.582563089219995" lon="8.028921386380565"><ele>562.0</ele><time>2026-04-23T16:55:58Z</time></trkpt><trkpt lat="45.58262803837775" lon="8.02890363349143"><ele>562.0</ele><time>2026-04-23T16:56:00Z</time></trkpt><trkpt lat="45.582705229673955" lon="8.028858822127667"><ele>562.0</ele><time>2026-04-23T16:56:03Z</time></trkpt><trkpt lat="45.582767473616464" lon="8.028831465478197"><ele>562.0</ele><time>2026-04-23T16:56:05Z</time></trkpt><trkpt lat="45.58283887262329" lon="8.028803157890756"><ele>562.0</ele><time>2026-04-23T16:56:08Z</time></trkpt><trkpt lat="45.58293166729978" lon="8.028763665359401"><ele>562.0</ele><time>2026-04-23T16:56:11Z</time></trkpt><trkpt lat="45.583001460002954" lon="8.028734062474317"><ele>562.0</ele><time>2026-04-23T16:56:13Z</time></trkpt><trkpt lat="45.583068141185116" lon="8.028707280782088"><ele>562.8571428571429</ele><time>2026-04-23T16:56:15Z</time></trkpt><trkpt lat="45.58313497810563" lon="8.028678721208415"><ele>563.7142857142858</ele><time>2026-04-23T16:56:17Z</time></trkpt><trkpt lat="45.583199855954554" lon="8.028654032062768"><ele>564.5714285714286</ele><time>2026-04-23T16:56:19Z</time></trkpt><trkpt lat="45.58327054856032" lon="8.028624137518815"><ele>565.4285714285714</ele><time>2026-04-23T16:56:21Z</time></trkpt><trkpt lat="45.58334044074854" lon="8.028603857588669"><ele>566.2857142857142</ele><time>2026-04-23T16:56:23Z</time></trkpt><trkpt lat="45.58341080800728" lon="8.028558775716137"><ele>567.1428571428571</ele><time>2026-04-23T16:56:25Z</time></trkpt><trkpt lat="45.583483413577255" lon="8.028529193526683"><ele>568.0</ele><time>2026-04-23T16:56:27Z</time></trkpt><trkpt lat="45.58355661755857" lon="8.028500464313629"><ele>568.0</ele><time>2026-04-23T16:56:29Z</time></trkpt><trkpt lat="45.58363403878512" lon="8.02848282212006"><ele>568.0</ele><time>2026-04-23T16:56:31Z</time></trkpt><trkpt lat="45.58370945549835" lon="8.028441061624031"><ele>568.0</ele><time>2026-04-23T16:56:33Z</time></trkpt><trkpt lat="45.58378547530823" lon="8.028408147178231"><ele>568.0</ele><time>2026-04-23T16:56:35Z</time></trkpt><trkpt lat="45.583864827474756" lon="8.02837749149647"><ele>568.0</ele><time>2026-04-23T16:56:37Z</time></trkpt><trkpt lat="45.583936072392845" lon="8.028341161887582"><ele>568.0</ele><time>2026-04-23T16:56:39Z</time></trkpt><trkpt lat="45.584004339928704" lon="8.02827782351544"><ele>567.5</ele><time>2026-04-23T16:56:41Z</time></trkpt><trkpt lat="45.58407972553222" lon="8.028249717265265"><ele>567.0</ele><time>2026-04-23T16:56:43Z</time></trkpt><trkpt lat="45.58416868074328" lon="8.028230811465614"><ele>566.5</ele><time>2026-04-23T16:56:46Z</time></trkpt><trkpt lat="45.58423515755423" lon="8.028174055943602"><ele>566.0</ele><time>2026-04-23T16:56:49Z</time></trkpt><trkpt lat="45.584299051303724" lon="8.02816163891748"><ele>565.5</ele><time>2026-04-23T16:56:51Z</time></trkpt><trkpt lat="45.58438409674971" lon="8.028131949138306"><ele>565.0</ele><time>2026-04-23T16:56:54Z</time></trkpt><trkpt lat="45.58444183306096" lon="8.028077637386446"><ele>565.8333333333334</ele><time>2026-04-23T16:56:56Z</time></trkpt><trkpt lat="45.58452760216553" lon="8.028058329566514"><ele>566.6666666666667</ele><time>2026-04-23T16:56:58Z</time></trkpt><trkpt lat="45.584600741892366" lon="8.028002077931411"><ele>567.5</ele><time>2026-04-23T16:57:00Z</time></trkpt><trkpt lat="45.58467745021755" lon="8.027958763511135"><ele>568.3333333333334</ele><time>2026-04-23T16:57:02Z</time></trkpt><trkpt lat="45.584756022401216" lon="8.027877723390374"><ele>569.1666666666666</ele><time>2026-04-23T16:57:04Z</time></trkpt><trkpt lat="45.58482992819074" lon="8.027817097109025"><ele>570.0</ele><time>2026-04-23T16:57:06Z</time></trkpt><trkpt lat="45.58489152822292" lon="8.027709774735294"><ele>570.0</ele><time>2026-04-23T16:57:08Z</time></trkpt><trkpt lat="45.58490322096933" lon="8.027567967907245"><ele>570.0</ele><time>2026-04-23T16:57:10Z</time></trkpt><trkpt lat="45.58488135288392" lon="8.027469275080778"><ele>570.0</ele><time>2026-04-23T16:57:11Z</time></trkpt><trkpt lat="45.58485592667085" lon="8.027372677713844"><ele>570.0</ele><time>2026-04-23T16:57:12Z</time></trkpt><trkpt lat="45.5848528926104" lon="8.027262827450231"><ele>570.0</ele><time>2026-04-23T16:57:13Z</time></trkpt><trkpt lat="45.58483693769545" lon="8.027164621386587"><ele>570.0</ele><time>2026-04-23T16:57:14Z</time></trkpt><trkpt lat="45.584820624279025" lon="8.027066549594839"><ele>570.3333333333334</ele><time>2026-04-23T16:57:15Z</time></trkpt><trkpt lat="45.58479034925453" lon="8.026972075917385"><ele>570.6666666666666</ele><time>2026-04-23T16:57:16Z</time></trkpt><trkpt lat="45.58475165563635" lon="8.0268750262236"><ele>571.0</ele><time>2026-04-23T16:57:17Z</time></trkpt><trkpt lat="45.584708600302676" lon="8.026769712806805"><ele>571.3333333333333</ele><time>2026-04-23T16:57:18Z</time></trkpt><trkpt lat="45.58469655998753" lon="8.026661118323887"><ele>571.6666666666666</ele><time>2026-04-23T16:57:19Z</time></trkpt><trkpt lat="45.584695603294385" lon="8.026532311007468"><ele>572.0</ele><time>2026-04-23T16:57:20Z</time></trkpt><trkpt lat="45.58472945593833" lon="8.026446823528826"><ele>571.0</ele><time>2026-04-23T16:57:21Z</time></trkpt><trkpt lat="45.584795216974996" lon="8.02630708669903"><ele>570.0</ele><time>2026-04-23T16:57:23Z</time></trkpt><trkpt lat="45.58483258900204" lon="8.026217643572211"><ele>569.0</ele><time>2026-04-23T16:57:24Z</time></trkpt><trkpt lat="45.58488414871955" lon="8.026147007508785"><ele>568.0</ele><time>2026-04-23T16:57:25Z</time></trkpt><trkpt lat="45.584934714536914" lon="8.026091760336314"><ele>567.0</ele><time>2026-04-23T16:57:26Z</time></trkpt><trkpt lat="45.58498932510941" lon="8.026033143900806"><ele>566.0</ele><time>2026-04-23T16:57:27Z</time></trkpt><trkpt lat="45.58505193458696" lon="8.026005510546625"><ele>566.0</ele><time>2026-04-23T16:57:28Z</time></trkpt><trkpt lat="45.58516495260779" lon="8.02591730351687"><ele>566.0</ele><time>2026-04-23T16:57:30Z</time></trkpt><trkpt lat="45.58524112067223" lon="8.025813524803278"><ele>566.0</ele><time>2026-04-23T16:57:32Z</time></trkpt><trkpt lat="45.585323463941975" lon="8.025728583188732"><ele>566.0</ele><time>2026-04-23T16:57:34Z</time></trkpt><trkpt lat="45.58539010192437" lon="8.02566303398045"><ele>566.0</ele><time>2026-04-23T16:57:36Z</time></trkpt><trkpt lat="45.58544670012972" lon="8.025596983025276"><ele>569.1666666666666</ele><time>2026-04-23T16:57:38Z</time></trkpt><trkpt lat="45.58551487742887" lon="8.025543704283868"><ele>572.3333333333333</ele><time>2026-04-23T16:57:40Z</time></trkpt><trkpt lat="45.58557765285716" lon="8.02548438263489"><ele>575.5</ele><time>2026-04-23T16:57:42Z</time></trkpt><trkpt lat="45.58565198093773" lon="8.025426088728912"><ele>578.6666666666666</ele><time>2026-04-23T16:57:44Z</time></trkpt><trkpt lat="45.58572491752659" lon="8.025355134061796"><ele>581.8333333333334</ele><time>2026-04-23T16:57:46Z</time></trkpt><trkpt lat="45.58579048358202" lon="8.025270510063182"><ele>585.0</ele><time>2026-04-23T16:57:48Z</time></trkpt><trkpt lat="45.58584848523681" lon="8.025184459166102"><ele>585.0</ele><time>2026-04-23T16:57:50Z</time></trkpt><trkpt lat="45.58589693296112" lon="8.025079243711257"><ele>585.0</ele><time>2026-04-23T16:57:52Z</time></trkpt><trkpt lat="45.58590901941918" lon="8.02495462569542"><ele>585.0</ele><time>2026-04-23T16:57:54Z</time></trkpt><trkpt lat="45.58585989166446" lon="8.024850315904214"><ele>585.0</ele><time>2026-04-23T16:57:56Z</time></trkpt><trkpt lat="45.585782901155135" lon="8.02479663281036"><ele>585.0</ele><time>2026-04-23T16:57:58Z</time></trkpt><trkpt lat="45.585700171238074" lon="8.024759639314171"><ele>585.0</ele><time>2026-04-23T16:58:00Z</time></trkpt><trkpt lat="45.5856070809579" lon="8.024735010084513"><ele>585.0</ele><time>2026-04-23T16:58:02Z</time></trkpt><trkpt lat="45.58548790196557" lon="8.024740375928442"><ele>585.0</ele><time>2026-04-23T16:58:04Z</time></trkpt><trkpt lat="45.585423047499646" lon="8.024703223919555"><ele>585.0</ele><time>2026-04-23T16:58:05Z</time></trkpt><trkpt lat="45.58535974769581" lon="8.024704996455748"><ele>585.0</ele><time>2026-04-23T16:58:06Z</time></trkpt><trkpt lat="45.585289916589744" lon="8.024681205825962"><ele>585.0</ele><time>2026-04-23T16:58:07Z</time></trkpt><trkpt lat="45.5852317835075" lon="8.02460469254444"><ele>585.0</ele><time>2026-04-23T16:58:08Z</time></trkpt><trkpt lat="45.58518668040599" lon="8.024503872468488"><ele>585.0</ele><time>2026-04-23T16:58:09Z</time></trkpt><trkpt lat="45.58513591266967" lon="8.02443138060436"><ele>585.0</ele><time>2026-04-23T16:58:10Z</time></trkpt><trkpt lat="45.585074755581594" lon="8.02435729895459"><ele>585.0</ele><time>2026-04-23T16:58:11Z</time></trkpt><trkpt lat="45.58498644779456" lon="8.024329998920647"><ele>585.0</ele><time>2026-04-23T16:58:12Z</time></trkpt><trkpt lat="45.58488679843105" lon="8.024378885677677"><ele>585.0</ele><time>2026-04-23T16:58:13Z</time></trkpt><trkpt lat="45.58482591546136" lon="8.024508116043211"><ele>585.0</ele><time>2026-04-23T16:58:14Z</time></trkpt><trkpt lat="45.58476363968917" lon="8.024609580976868"><ele>585.0</ele><time>2026-04-23T16:58:15Z</time></trkpt><trkpt lat="45.58471279374369" lon="8.024710385776517"><ele>585.0</ele><time>2026-04-23T16:58:16Z</time></trkpt><trkpt lat="45.584670133215965" lon="8.024789685733808"><ele>585.0</ele><time>2026-04-23T16:58:17Z</time></trkpt><trkpt lat="45.58462283688135" lon="8.024864002996095"><ele>585.0</ele><time>2026-04-23T16:58:18Z</time></trkpt><trkpt lat="45.58452320194536" lon="8.024981740723096"><ele>583.6666666666666</ele><time>2026-04-23T16:58:20Z</time></trkpt><trkpt lat="45.584463678476176" lon="8.025022338615866"><ele>582.3333333333334</ele><time>2026-04-23T16:58:21Z</time></trkpt><trkpt lat="45.58439007188853" lon="8.025053184733137"><ele>581.0</ele><time>2026-04-23T16:58:22Z</time></trkpt><trkpt lat="45.58431143081578" lon="8.02507228158256"><ele>579.6666666666667</ele><time>2026-04-23T16:58:23Z</time></trkpt><trkpt lat="45.58423981121705" lon="8.025023529010083"><ele>578.3333333333334</ele><time>2026-04-23T16:58:24Z</time></trkpt><trkpt lat="45.58416635402377" lon="8.02495061958265"><ele>577.0</ele><time>2026-04-23T16:58:25Z</time></trkpt><trkpt lat="45.584123469627585" lon="8.024843078896861"><ele>577.0</ele><time>2026-04-23T16:58:26Z</time></trkpt><trkpt lat="45.584101488969516" lon="8.02471739058114"><ele>577.0</ele><time>2026-04-23T16:58:27Z</time></trkpt><trkpt lat="45.58407769277931" lon="8.024612140866243"><ele>577.0</ele><time>2026-04-23T16:58:28Z</time></trkpt><trkpt lat="45.58405124278736" lon="8.024511203025428"><ele>577.0</ele><time>2026-04-23T16:58:29Z</time></trkpt><trkpt lat="45.584006421445764" lon="8.024412692272245"><ele>577.0</ele><time>2026-04-23T16:58:30Z</time></trkpt><trkpt lat="45.58396368808777" lon="8.024325333006852"><ele>577.0</ele><time>2026-04-23T16:58:31Z</time></trkpt><trkpt lat="45.58392066107157" lon="8.024243950406904"><ele>577.0</ele><time>2026-04-23T16:58:32Z</time></trkpt><trkpt lat="45.583881108166196" lon="8.02414805527188"><ele>577.0</ele><time>2026-04-23T16:58:33Z</time></trkpt><trkpt lat="45.58384884728169" lon="8.024049841715742"><ele>577.0</ele><time>2026-04-23T16:58:34Z</time></trkpt><trkpt lat="45.58381777190452" lon="8.023954509846316"><ele>577.0</ele><time>2026-04-23T16:58:35Z</time></trkpt><trkpt lat="45.5837868544058" lon="8.023859381037257"><ele>577.0</ele><time>2026-04-23T16:58:36Z</time></trkpt><trkpt lat="45.58372866909984" lon="8.023791131167563"><ele>577.0</ele><time>2026-04-23T16:58:37Z</time></trkpt><trkpt lat="45.58365454721071" lon="8.02374469706012"><ele>574.8333333333334</ele><time>2026-04-23T16:58:38Z</time></trkpt><trkpt lat="45.583575691963695" lon="8.02375228713874"><ele>572.6666666666667</ele><time>2026-04-23T16:58:39Z</time></trkpt><trkpt lat="45.583500570445906" lon="8.023738379733597"><ele>570.5</ele><time>2026-04-23T16:58:40Z</time></trkpt><trkpt lat="45.58343570418372" lon="8.023697968452563"><ele>568.3333333333334</ele><time>2026-04-23T16:58:41Z</time></trkpt><trkpt lat="45.583368748295534" lon="8.023636087546855"><ele>566.1666666666666</ele><time>2026-04-23T16:58:42Z</time></trkpt><trkpt lat="45.58331877926636" lon="8.02356138553836"><ele>564.0</ele><time>2026-04-23T16:58:43Z</time></trkpt><trkpt lat="45.583296134125774" lon="8.023455452118846"><ele>564.0</ele><time>2026-04-23T16:58:44Z</time></trkpt><trkpt lat="45.583300728217296" lon="8.023335399080283"><ele>564.0</ele><time>2026-04-23T16:58:45Z</time></trkpt><trkpt lat="45.583345329509235" lon="8.023243337060961"><ele>564.0</ele><time>2026-04-23T16:58:46Z</time></trkpt><trkpt lat="45.58337417075631" lon="8.023140481769264"><ele>564.0</ele><time>2026-04-23T16:58:47Z</time></trkpt><trkpt lat="45.58339114615749" lon="8.023035263193808"><ele>564.0</ele><time>2026-04-23T16:58:48Z</time></trkpt><trkpt lat="45.58341766687512" lon="8.02293595642721"><ele>564.0</ele><time>2026-04-23T16:58:49Z</time></trkpt><trkpt lat="45.58342619707507" lon="8.022838153085797"><ele>564.3333333333334</ele><time>2026-04-23T16:58:50Z</time></trkpt><trkpt lat="45.58343945221876" lon="8.02273863135663"><ele>564.6666666666666</ele><time>2026-04-23T16:58:51Z</time></trkpt><trkpt lat="45.58343457822928" lon="8.022640471446211"><ele>565.0</ele><time>2026-04-23T16:58:52Z</time></trkpt><trkpt lat="45.583432913087165" lon="8.0225432426319"><ele>565.3333333333333</ele><time>2026-04-23T16:58:53Z</time></trkpt><trkpt lat="45.58346200751394" lon="8.022444697576601"><ele>565.6666666666666</ele><time>2026-04-23T16:58:54Z</time></trkpt><trkpt lat="45.58334226195948" lon="8.022282128260859"><ele>566.0</ele><time>2026-04-23T16:58:56Z</time></trkpt><trkpt lat="45.58330964330692" lon="8.02220129176959"><ele>566.0</ele><time>2026-04-23T16:58:57Z</time></trkpt><trkpt lat="45.58327073360068" lon="8.022120159987358"><ele>566.0</ele><time>2026-04-23T16:58:58Z</time></trkpt><trkpt lat="45.58322982833496" lon="8.022038613104817"><ele>566.0</ele><time>2026-04-23T16:58:59Z</time></trkpt><trkpt lat="45.583188669827436" lon="8.021959525608123"><ele>566.0</ele><time>2026-04-23T16:59:00Z</time></trkpt><trkpt lat="45.58315442663575" lon="8.021870657773038"><ele>566.0</ele><time>2026-04-23T16:59:01Z</time></trkpt><trkpt lat="45.583119870282424" lon="8.021784379985537"><ele>566.0</ele><time>2026-04-23T16:59:02Z</time></trkpt><trkpt lat="45.58311122931093" lon="8.021668796664333"><ele>566.0</ele><time>2026-04-23T16:59:03Z</time></trkpt><trkpt lat="45.58315142936164" lon="8.021567845299401"><ele>566.0</ele><time>2026-04-23T16:59:04Z</time></trkpt><trkpt lat="45.58322041387751" lon="8.021519674481373"><ele>566.0</ele><time>2026-04-23T16:59:05Z</time></trkpt><trkpt lat="45.58328702401753" lon="8.02148631181804"><ele>566.0</ele><time>2026-04-23T16:59:06Z</time></trkpt><trkpt lat="45.583359675369486" lon="8.021520103072518"><ele>566.0</ele><time>2026-04-23T16:59:07Z</time></trkpt><trkpt lat="45.58344058418698" lon="8.02154719301967"><ele>566.0</ele><time>2026-04-23T16:59:08Z</time></trkpt><trkpt lat="45.58355561775796" lon="8.021637486618289"><ele>566.0</ele><time>2026-04-23T16:59:10Z</time></trkpt><trkpt lat="45.58363630496798" lon="8.021699325706056"><ele>566.8</ele><time>2026-04-23T16:59:11Z</time></trkpt><trkpt lat="45.583704707182385" lon="8.021739909535595"><ele>567.6</ele><time>2026-04-23T16:59:12Z</time></trkpt><trkpt lat="45.58377279308887" lon="8.021757508361475"><ele>568.4</ele><time>2026-04-23T16:59:13Z</time></trkpt><trkpt lat="45.58389059550927" lon="8.021682685086857"><ele>569.2</ele><time>2026-04-23T16:59:15Z</time></trkpt><trkpt lat="45.583996856709994" lon="8.021594551613733"><ele>570.0</ele><time>2026-04-23T16:59:17Z</time></trkpt><trkpt lat="45.58405469274378" lon="8.021533503101614"><ele>570.0</ele><time>2026-04-23T16:59:18Z</time></trkpt><trkpt lat="45.58411120222591" lon="8.021478440578225"><ele>570.0</ele><time>2026-04-23T16:59:19Z</time></trkpt><trkpt lat="45.58416642099438" lon="8.021416109377457"><ele>570.0</ele><time>2026-04-23T16:59:20Z</time></trkpt><trkpt lat="45.58426412046077" lon="8.021334539027608"><ele>570.0</ele><time>2026-04-23T16:59:22Z</time></trkpt><trkpt lat="45.584345702386116" lon="8.021207466309743"><ele>570.0</ele><time>2026-04-23T16:59:24Z</time></trkpt><trkpt lat="45.58437298917902" lon="8.02111895733157"><ele>570.0</ele><time>2026-04-23T16:59:25Z</time></trkpt><trkpt lat="45.58437667023788" lon="8.021018015127872"><ele>570.0</ele><time>2026-04-23T16:59:26Z</time></trkpt><trkpt lat="45.58432820222394" lon="8.02084384174886"><ele>570.0</ele><time>2026-04-23T16:59:28Z</time></trkpt><trkpt lat="45.584198758267924" lon="8.020794395835898"><ele>570.0</ele><time>2026-04-23T16:59:29Z</time></trkpt><trkpt lat="45.584098207654854" lon="8.020830759233922"><ele>570.0</ele><time>2026-04-23T16:59:30Z</time></trkpt><trkpt lat="45.58404005780924" lon="8.02076616983105"><ele>570.0</ele><time>2026-04-23T16:59:31Z</time></trkpt><trkpt lat="45.58400067495125" lon="8.020686064961458"><ele>569.3333333333334</ele><time>2026-04-23T16:59:32Z</time></trkpt><trkpt lat="45.58398207894459" lon="8.020587437951098"><ele>568.6666666666666</ele><time>2026-04-23T16:59:33Z</time></trkpt><trkpt lat="45.58398457176953" lon="8.020467846676702"><ele>568.0</ele><time>2026-04-23T16:59:34Z</time></trkpt><trkpt lat="45.58402063236811" lon="8.02035300368858"><ele>567.3333333333333</ele><time>2026-04-23T16:59:35Z</time></trkpt><trkpt lat="45.5840982351354" lon="8.02026775848747"><ele>566.6666666666666</ele><time>2026-04-23T16:59:36Z</time></trkpt><trkpt lat="45.584177319785134" lon="8.020224681228887"><ele>566.0</ele><time>2026-04-23T16:59:37Z</time></trkpt><trkpt lat="45.58425769503911" lon="8.020193711003008"><ele>566.0</ele><time>2026-04-23T16:59:38Z</time></trkpt><trkpt lat="45.5843368552194" lon="8.020162314138837"><ele>566.0</ele><time>2026-04-23T16:59:39Z</time></trkpt><trkpt lat="45.58439156324004" lon="8.020059032653808"><ele>566.0</ele><time>2026-04-23T16:59:40Z</time></trkpt><trkpt lat="45.58443695882487" lon="8.019967398479674"><ele>566.0</ele><time>2026-04-23T16:59:41Z</time></trkpt><trkpt lat="45.58445914386621" lon="8.019875803033914"><ele>566.0</ele><time>2026-04-23T16:59:42Z</time></trkpt><trkpt lat="45.58445818004241" lon="8.019774670144725"><ele>566.0</ele><time>2026-04-23T16:59:43Z</time></trkpt><trkpt lat="45.58442715639887" lon="8.019670828726518"><ele>566.8333333333333</ele><time>2026-04-23T16:59:44Z</time></trkpt><trkpt lat="45.58436641190895" lon="8.019583755343547"><ele>567.6666666666666</ele><time>2026-04-23T16:59:45Z</time></trkpt><trkpt lat="45.58429038579064" lon="8.019505007570622"><ele>568.5</ele><time>2026-04-23T16:59:46Z</time></trkpt><trkpt lat="45.584240278368064" lon="8.019447092367407"><ele>569.3333333333334</ele><time>2026-04-23T16:59:47Z</time></trkpt><trkpt lat="45.58417681244287" lon="8.019387389255433"><ele>570.1666666666667</ele><time>2026-04-23T16:59:48Z</time></trkpt><trkpt lat="45.584090082710645" lon="8.019280588031172"><ele>571.0</ele><time>2026-04-23T16:59:50Z</time></trkpt><trkpt lat="45.583984197852175" lon="8.019193720156997"><ele>572.1666666666667</ele><time>2026-04-23T16:59:52Z</time></trkpt><trkpt lat="45.58388866717774" lon="8.019113956920021"><ele>573.3333333333334</ele><time>2026-04-23T16:59:54Z</time></trkpt><trkpt lat="45.58380090036907" lon="8.018983234825395"><ele>574.5</ele><time>2026-04-23T16:59:56Z</time></trkpt><trkpt lat="45.58376603773999" lon="8.018904605104224"><ele>575.6666666666666</ele><time>2026-04-23T16:59:57Z</time></trkpt><trkpt lat="45.58374244054019" lon="8.018809641123186"><ele>576.8333333333333</ele><time>2026-04-23T16:59:58Z</time></trkpt><trkpt lat="45.58374681583136" lon="8.018700935212498"><ele>578.0</ele><time>2026-04-23T16:59:59Z</time></trkpt><trkpt lat="45.58378243892452" lon="8.018599941949677"><ele>578.0</ele><time>2026-04-23T17:00:00Z</time></trkpt><trkpt lat="45.58379309649819" lon="8.018503032114527"><ele>578.0</ele><time>2026-04-23T17:00:01Z</time></trkpt><trkpt lat="45.58380128941157" lon="8.018401046567037"><ele>578.0</ele><time>2026-04-23T17:00:02Z</time></trkpt><trkpt lat="45.58378015076791" lon="8.01830220022599"><ele>578.0</ele><time>2026-04-23T17:00:03Z</time></trkpt><trkpt lat="45.58373585067675" lon="8.0182287822401"><ele>578.0</ele><time>2026-04-23T17:00:04Z</time></trkpt><trkpt lat="45.583677036518566" lon="8.0181772796703"><ele>578.0</ele><time>2026-04-23T17:00:05Z</time></trkpt><trkpt lat="45.583616945949444" lon="8.018139179960002"><ele>578.0</ele><time>2026-04-23T17:00:06Z</time></trkpt><trkpt lat="45.58356133940294" lon="8.018095869364888"><ele>576.5</ele><time>2026-04-23T17:00:07Z</time></trkpt><trkpt lat="45.583504251541676" lon="8.01804503761254"><ele>575.0</ele><time>2026-04-23T17:00:08Z</time></trkpt><trkpt lat="45.58345454501052" lon="8.017986264033082"><ele>573.5</ele><time>2026-04-23T17:00:09Z</time></trkpt><trkpt lat="45.5833513081971" lon="8.01788077897788"><ele>572.0</ele><time>2026-04-23T17:00:11Z</time></trkpt><trkpt lat="45.58329996127485" lon="8.017825137993654"><ele>570.5</ele><time>2026-04-23T17:00:12Z</time></trkpt><trkpt lat="45.58325007205193" lon="8.017755852071556"><ele>569.0</ele><time>2026-04-23T17:00:13Z</time></trkpt><trkpt lat="45.583204886472906" lon="8.017675046867684"><ele>569.0000000000001</ele><time>2026-04-23T17:00:14Z</time></trkpt><trkpt lat="45.58316660070708" lon="8.017581868949144"><ele>569.0</ele><time>2026-04-23T17:00:15Z</time></trkpt><trkpt lat="45.58313749022364" lon="8.017486197278838"><ele>569.0</ele><time>2026-04-23T17:00:16Z</time></trkpt><trkpt lat="45.58310796016815" lon="8.017397644525666"><ele>569.0</ele><time>2026-04-23T17:00:17Z</time></trkpt><trkpt lat="45.58307591859654" lon="8.017302771438857"><ele>569.0</ele><time>2026-04-23T17:00:18Z</time></trkpt><trkpt lat="45.58304814033542" lon="8.017213633016267"><ele>569.0000000000001</ele><time>2026-04-23T17:00:19Z</time></trkpt><trkpt lat="45.583014629497484" lon="8.017126738297122"><ele>569.0</ele><time>2026-04-23T17:00:20Z</time></trkpt><trkpt lat="45.58298201085793" lon="8.017048099080414"><ele>568.8571428571429</ele><time>2026-04-23T17:00:21Z</time></trkpt><trkpt lat="45.58294956343769" lon="8.016965757809437"><ele>568.7142857142858</ele><time>2026-04-23T17:00:22Z</time></trkpt><trkpt lat="45.58292248699887" lon="8.016879329381032"><ele>568.5714285714286</ele><time>2026-04-23T17:00:23Z</time></trkpt><trkpt lat="45.58289816319952" lon="8.016787219990649"><ele>568.4285714285714</ele><time>2026-04-23T17:00:24Z</time></trkpt><trkpt lat="45.582873372556534" lon="8.016699107683007"><ele>568.2857142857142</ele><time>2026-04-23T17:00:25Z</time></trkpt><trkpt lat="45.58285559885359" lon="8.016605660899554"><ele>568.1428571428571</ele><time>2026-04-23T17:00:26Z</time></trkpt><trkpt lat="45.58284533585054" lon="8.016509673190935"><ele>568.0</ele><time>2026-04-23T17:00:27Z</time></trkpt><trkpt lat="45.582840785486496" lon="8.016410241951103"><ele>568.0</ele><time>2026-04-23T17:00:28Z</time></trkpt><trkpt lat="45.58283598641909" lon="8.016308432699722"><ele>568.0</ele><time>2026-04-23T17:00:29Z</time></trkpt><trkpt lat="45.58282706371631" lon="8.0162058032988"><ele>568.0</ele><time>2026-04-23T17:00:30Z</time></trkpt><trkpt lat="45.58281137909873" lon="8.016111275948518"><ele>568.0</ele><time>2026-04-23T17:00:31Z</time></trkpt><trkpt lat="45.58277786698067" lon="8.01601821175336"><ele>568.0</ele><time>2026-04-23T17:00:32Z</time></trkpt><trkpt lat="45.58272680417202" lon="8.015948478015044"><ele>568.0</ele><time>2026-04-23T17:00:33Z</time></trkpt><trkpt lat="45.58266650025486" lon="8.015889056106301"><ele>568.0</ele><time>2026-04-23T17:00:34Z</time></trkpt><trkpt lat="45.582599619052495" lon="8.01584599637535"><ele>568.1666666666667</ele><time>2026-04-23T17:00:35Z</time></trkpt><trkpt lat="45.58253063663389" lon="8.015794940381156"><ele>568.3333333333334</ele><time>2026-04-23T17:00:36Z</time></trkpt><trkpt lat="45.582470175658734" lon="8.01574263382724"><ele>568.5</ele><time>2026-04-23T17:00:37Z</time></trkpt><trkpt lat="45.58242263770475" lon="8.01566345624609"><ele>568.6666666666666</ele><time>2026-04-23T17:00:38Z</time></trkpt><trkpt lat="45.58239004011388" lon="8.015553954406089"><ele>568.8333333333333</ele><time>2026-04-23T17:00:39Z</time></trkpt><trkpt lat="45.58236488779219" lon="8.01544513654671"><ele>569.0</ele><time>2026-04-23T17:00:40Z</time></trkpt><trkpt lat="45.58237991661895" lon="8.015318189267498"><ele>569.0</ele><time>2026-04-23T17:00:41Z</time></trkpt><trkpt lat="45.582402196789275" lon="8.015218757292708"><ele>569.0</ele><time>2026-04-23T17:00:42Z</time></trkpt><trkpt lat="45.58242533609549" lon="8.015118123085404"><ele>569.0</ele><time>2026-04-23T17:00:43Z</time></trkpt><trkpt lat="45.58244756109192" lon="8.015021017093208"><ele>569.0</ele><time>2026-04-23T17:00:44Z</time></trkpt><trkpt lat="45.582460484874254" lon="8.014931701702587"><ele>569.0</ele><time>2026-04-23T17:00:45Z</time></trkpt><trkpt lat="45.58248180098533" lon="8.014766839536533"><ele>569.0</ele><time>2026-04-23T17:00:47Z</time></trkpt><trkpt lat="45.58249003737786" lon="8.01459732077734"><ele>569.2</ele><time>2026-04-23T17:00:49Z</time></trkpt><trkpt lat="45.58250920611054" lon="8.01444133230661"><ele>569.4</ele><time>2026-04-23T17:00:51Z</time></trkpt><trkpt lat="45.582514220074266" lon="8.014296720553093"><ele>569.6</ele><time>2026-04-23T17:00:53Z</time></trkpt><trkpt lat="45.58252207042154" lon="8.01415126721738"><ele>569.8</ele><time>2026-04-23T17:00:55Z</time></trkpt><trkpt lat="45.58251760227874" lon="8.014013113104253"><ele>570.0</ele><time>2026-04-23T17:00:57Z</time></trkpt><trkpt lat="45.58251266211073" lon="8.013874514309906"><ele>571.0</ele><time>2026-04-23T17:00:59Z</time></trkpt><trkpt lat="45.58249398737189" lon="8.013735956741737"><ele>572.0</ele><time>2026-04-23T17:01:01Z</time></trkpt><trkpt lat="45.58245865190789" lon="8.01360433942013"><ele>573.0</ele><time>2026-04-23T17:01:03Z</time></trkpt><trkpt lat="45.582430517260846" lon="8.01347133425133"><ele>574.0</ele><time>2026-04-23T17:01:05Z</time></trkpt><trkpt lat="45.582393980763946" lon="8.013347955978645"><ele>575.0</ele><time>2026-04-23T17:01:07Z</time></trkpt><trkpt lat="45.582376866895586" lon="8.013206896330052"><ele>575.6</ele><time>2026-04-23T17:01:09Z</time></trkpt><trkpt lat="45.582353497793335" lon="8.013065987463698"><ele>576.2</ele><time>2026-04-23T17:01:11Z</time></trkpt><trkpt lat="45.582327323447" lon="8.012920939583095"><ele>576.8</ele><time>2026-04-23T17:01:13Z</time></trkpt><trkpt lat="45.582286024137936" lon="8.012785467315995"><ele>577.4</ele><time>2026-04-23T17:01:15Z</time></trkpt><trkpt lat="45.58224186872115" lon="8.012649182666854"><ele>578.0</ele><time>2026-04-23T17:01:17Z</time></trkpt><trkpt lat="45.582204639359105" lon="8.012505956495522"><ele>578.8</ele><time>2026-04-23T17:01:19Z</time></trkpt><trkpt lat="45.58216543533774" lon="8.01235574115309"><ele>579.5999999999999</ele><time>2026-04-23T17:01:21Z</time></trkpt><trkpt lat="45.58214903944434" lon="8.012206148996993"><ele>580.4000000000001</ele><time>2026-04-23T17:01:23Z</time></trkpt><trkpt lat="45.582132674189474" lon="8.012054382653673"><ele>581.2</ele><time>2026-04-23T17:01:25Z</time></trkpt><trkpt lat="45.582131794076794" lon="8.011905076138566"><ele>582.0</ele><time>2026-04-23T17:01:27Z</time></trkpt><trkpt lat="45.582133578120946" lon="8.01176089281454"><ele>581.3333333333334</ele><time>2026-04-23T17:01:29Z</time></trkpt><trkpt lat="45.582136060960195" lon="8.011618788828631"><ele>580.6666666666666</ele><time>2026-04-23T17:01:31Z</time></trkpt><trkpt lat="45.582135306704615" lon="8.011504931535704"><ele>580.0</ele><time>2026-04-23T17:01:33Z</time></trkpt><trkpt lat="45.582118195687315" lon="8.011341549680077"><ele>579.3333333333333</ele><time>2026-04-23T17:01:35Z</time></trkpt><trkpt lat="45.582126168509866" lon="8.011248778616116"><ele>578.6666666666666</ele><time>2026-04-23T17:01:36Z</time></trkpt><trkpt lat="45.58217052348216" lon="8.011156272209828"><ele>578.0</ele><time>2026-04-23T17:01:37Z</time></trkpt><trkpt lat="45.58218838403835" lon="8.011051580028548"><ele>578.0</ele><time>2026-04-23T17:01:38Z</time></trkpt><trkpt lat="45.58218881830091" lon="8.010953319994066"><ele>578.0</ele><time>2026-04-23T17:01:39Z</time></trkpt><trkpt lat="45.58219063587571" lon="8.010847160153087"><ele>578.0</ele><time>2026-04-23T17:01:40Z</time></trkpt><trkpt lat="45.58219735827952" lon="8.010730017536305"><ele>578.0</ele><time>2026-04-23T17:01:41Z</time></trkpt><trkpt lat="45.58219623222998" lon="8.010628366776752"><ele>578.0</ele><time>2026-04-23T17:01:42Z</time></trkpt><trkpt lat="45.58222485519949" lon="8.010547827266999"><ele>578.0</ele><time>2026-04-23T17:01:43Z</time></trkpt><trkpt lat="45.5823359645975" lon="8.010428338701493"><ele>576.4</ele><time>2026-04-23T17:01:45Z</time></trkpt><trkpt lat="45.582392431172195" lon="8.010379730105289"><ele>574.8</ele><time>2026-04-23T17:01:46Z</time></trkpt><trkpt lat="45.582485492631676" lon="8.010260762486007"><ele>573.2</ele><time>2026-04-23T17:01:48Z</time></trkpt><trkpt lat="45.58257298001873" lon="8.010149091064353"><ele>571.6</ele><time>2026-04-23T17:01:50Z</time></trkpt><trkpt lat="45.58266930964943" lon="8.010071817309827"><ele>570.0</ele><time>2026-04-23T17:01:52Z</time></trkpt><trkpt lat="45.58278367967725" lon="8.010031362154974"><ele>571.6666666666666</ele><time>2026-04-23T17:01:54Z</time></trkpt><trkpt lat="45.58289768278813" lon="8.009980821245826"><ele>573.3333333333334</ele><time>2026-04-23T17:01:56Z</time></trkpt><trkpt lat="45.58294631087062" lon="8.009916188013921"><ele>575.0</ele><time>2026-04-23T17:01:57Z</time></trkpt><trkpt lat="45.58297815515327" lon="8.009835757603682"><ele>576.6666666666667</ele><time>2026-04-23T17:01:58Z</time></trkpt><trkpt lat="45.582981973125804" lon="8.00973320883625"><ele>578.3333333333334</ele><time>2026-04-23T17:01:59Z</time></trkpt><trkpt lat="45.582980258889606" lon="8.009636048101964"><ele>580.0</ele><time>2026-04-23T17:02:00Z</time></trkpt><trkpt lat="45.582985368617095" lon="8.00954479831168"><ele>580.0</ele><time>2026-04-23T17:02:01Z</time></trkpt><trkpt lat="45.58298966705874" lon="8.009452609028363"><ele>580.0</ele><time>2026-04-23T17:02:02Z</time></trkpt><trkpt lat="45.58300485598208" lon="8.009273605053792"><ele>580.0</ele><time>2026-04-23T17:02:04Z</time></trkpt><trkpt lat="45.58301090839175" lon="8.009183898401567"><ele>580.0</ele><time>2026-04-23T17:02:05Z</time></trkpt><trkpt lat="45.583018140231665" lon="8.009092130960768"><ele>580.0</ele><time>2026-04-23T17:02:06Z</time></trkpt><trkpt lat="45.58303055952842" lon="8.008997932725507"><ele>580.0</ele><time>2026-04-23T17:02:07Z</time></trkpt><trkpt lat="45.58302990710925" lon="8.008906054842456"><ele>580.0</ele><time>2026-04-23T17:02:08Z</time></trkpt><trkpt lat="45.58297470410656" lon="8.008752920859857"><ele>580.0</ele><time>2026-04-23T17:02:10Z</time></trkpt><trkpt lat="45.58289839518984" lon="8.008640702295693"><ele>580.0</ele><time>2026-04-23T17:02:12Z</time></trkpt><trkpt lat="45.58283256650914" lon="8.008521369060306"><ele>580.0</ele><time>2026-04-23T17:02:14Z</time></trkpt><trkpt lat="45.58276545424941" lon="8.008410565440121"><ele>580.0</ele><time>2026-04-23T17:02:16Z</time></trkpt><trkpt lat="45.58269992237038" lon="8.00829342099162"><ele>578.6</ele><time>2026-04-23T17:02:18Z</time></trkpt><trkpt lat="45.58263226247361" lon="8.008187353432477"><ele>577.2</ele><time>2026-04-23T17:02:20Z</time></trkpt><trkpt lat="45.5825751105761" lon="8.008080567415682"><ele>575.8</ele><time>2026-04-23T17:02:22Z</time></trkpt><trkpt lat="45.582512694167015" lon="8.007971054686934"><ele>574.4</ele><time>2026-04-23T17:02:24Z</time></trkpt><trkpt lat="45.58245398637557" lon="8.007867433720131"><ele>573.0</ele><time>2026-04-23T17:02:26Z</time></trkpt><trkpt lat="45.582392363611724" lon="8.007756363198974"><ele>573.0</ele><time>2026-04-23T17:02:28Z</time></trkpt><trkpt lat="45.58232108923184" lon="8.007639921825186"><ele>573.0</ele><time>2026-04-23T17:02:30Z</time></trkpt><trkpt lat="45.58223174793868" lon="8.007499857078976"><ele>573.0</ele><time>2026-04-23T17:02:32Z</time></trkpt><trkpt lat="45.58218807792385" lon="8.007411436449532"><ele>573.0</ele><time>2026-04-23T17:02:33Z</time></trkpt><trkpt lat="45.582149527016945" lon="8.007315624225656"><ele>573.0</ele><time>2026-04-23T17:02:34Z</time></trkpt><trkpt lat="45.58207861439963" lon="8.007245077535883"><ele>573.0</ele><time>2026-04-23T17:02:35Z</time></trkpt><trkpt lat="45.58201541703942" lon="8.007136090893423"><ele>573.0</ele><time>2026-04-23T17:02:36Z</time></trkpt><trkpt lat="45.58195602527335" lon="8.007038590570819"><ele>573.0</ele><time>2026-04-23T17:02:37Z</time></trkpt><trkpt lat="45.58190083909627" lon="8.006935651715182"><ele>573.0</ele><time>2026-04-23T17:02:38Z</time></trkpt><trkpt lat="45.581846692950656" lon="8.006839761805358"><ele>573.0</ele><time>2026-04-23T17:02:39Z</time></trkpt><trkpt lat="45.58178728417798" lon="8.006771318029694"><ele>573.0</ele><time>2026-04-23T17:02:40Z</time></trkpt><trkpt lat="45.581722181606736" lon="8.00672496347532"><ele>573.5</ele><time>2026-04-23T17:02:41Z</time></trkpt><trkpt lat="45.58166201934717" lon="8.006692768531687"><ele>574.0</ele><time>2026-04-23T17:02:42Z</time></trkpt><trkpt lat="45.58156638288631" lon="8.00674714754694"><ele>574.5</ele><time>2026-04-23T17:02:44Z</time></trkpt><trkpt lat="45.58148447761611" lon="8.006766979649912"><ele>575.0</ele><time>2026-04-23T17:02:46Z</time></trkpt><trkpt lat="45.581416468399546" lon="8.006762975270242"><ele>575.5</ele><time>2026-04-23T17:02:48Z</time></trkpt><trkpt lat="45.581378285777795" lon="8.006676166306082"><ele>576.0</ele><time>2026-04-23T17:02:50Z</time></trkpt><trkpt lat="45.5813325802877" lon="8.00656133704169"><ele>576.0</ele><time>2026-04-23T17:02:52Z</time></trkpt><trkpt lat="45.58128355910523" lon="8.006460319314826"><ele>576.0</ele><time>2026-04-23T17:02:54Z</time></trkpt><trkpt lat="45.581252992121044" lon="8.00637334316668"><ele>576.0</ele><time>2026-04-23T17:02:56Z</time></trkpt><trkpt lat="45.58122050056819" lon="8.006294968447158"><ele>576.0</ele><time>2026-04-23T17:02:58Z</time></trkpt><trkpt lat="45.58117816990162" lon="8.006196786334623"><ele>576.0</ele><time>2026-04-23T17:03:00Z</time></trkpt><trkpt lat="45.581134787899806" lon="8.006087071378133"><ele>576.0</ele><time>2026-04-23T17:03:02Z</time></trkpt><trkpt lat="45.58109227903054" lon="8.005989961729117"><ele>575.6666666666666</ele><time>2026-04-23T17:03:04Z</time></trkpt><trkpt lat="45.58105640266979" lon="8.00589451203597"><ele>575.3333333333334</ele><time>2026-04-23T17:03:06Z</time></trkpt><trkpt lat="45.58101981972942" lon="8.005808381381907"><ele>575.0</ele><time>2026-04-23T17:03:08Z</time></trkpt><trkpt lat="45.580950697661905" lon="8.005728535243207"><ele>574.6666666666667</ele><time>2026-04-23T17:03:11Z</time></trkpt><trkpt lat="45.58097544223064" lon="8.005834697195665"><ele>574.3333333333334</ele><time>2026-04-23T17:03:15Z</time></trkpt><trkpt lat="45.581031828194014" lon="8.005903560108957"><ele>574.0</ele><time>2026-04-23T17:03:17Z</time></trkpt><trkpt lat="45.581080608590156" lon="8.005996428868647"><ele>574.3333333333334</ele><time>2026-04-23T17:03:19Z</time></trkpt><trkpt lat="45.58112659391605" lon="8.00609807415268"><ele>574.6666666666667</ele><time>2026-04-23T17:03:21Z</time></trkpt><trkpt lat="45.581175097010885" lon="8.006199712837967"><ele>575.0</ele><time>2026-04-23T17:03:23Z</time></trkpt><trkpt lat="45.581218754284905" lon="8.00631091164523"><ele>575.3333333333334</ele><time>2026-04-23T17:03:25Z</time></trkpt><trkpt lat="45.581263428555395" lon="8.006422992101278"><ele>575.6666666666666</ele><time>2026-04-23T17:03:27Z</time></trkpt><trkpt lat="45.58130929737414" lon="8.006520771431369"><ele>576.0</ele><time>2026-04-23T17:03:29Z</time></trkpt><trkpt lat="45.5813521534912" lon="8.006608573302174"><ele>574.8571428571429</ele><time>2026-04-23T17:03:31Z</time></trkpt><trkpt lat="45.58139729554282" lon="8.006690009192468"><ele>573.7142857142858</ele><time>2026-04-23T17:03:33Z</time></trkpt><trkpt lat="45.581431449092115" lon="8.006773593935844"><ele>572.5714285714286</ele><time>2026-04-23T17:03:35Z</time></trkpt><trkpt lat="45.581465562391195" lon="8.006855924843382"><ele>571.4285714285714</ele><time>2026-04-23T17:03:37Z</time></trkpt><trkpt lat="45.58141539311208" lon="8.006942896772134"><ele>570.2857142857142</ele><time>2026-04-23T17:03:41Z</time></trkpt><trkpt lat="45.58140692968539" lon="8.00704489827512"><ele>569.1428571428571</ele><time>2026-04-23T17:04:06Z</time></trkpt><trkpt lat="45.58136670163126" lon="8.007119778404315"><ele>568.0</ele><time>2026-04-23T17:04:08Z</time></trkpt><trkpt lat="45.58126666940529" lon="8.007186308434322"><ele>567.8</ele><time>2026-04-23T17:04:10Z</time></trkpt><trkpt lat="45.58114428644428" lon="8.007252177347727"><ele>567.5999999999999</ele><time>2026-04-23T17:04:12Z</time></trkpt><trkpt lat="45.581086253549756" lon="8.007308532630844"><ele>567.4000000000001</ele><time>2026-04-23T17:04:13Z</time></trkpt><trkpt lat="45.58103884358916" lon="8.007370151111962"><ele>567.2</ele><time>2026-04-23T17:04:14Z</time></trkpt><trkpt lat="45.580980888728355" lon="8.007577819951289"><ele>567.0</ele><time>2026-04-23T17:04:16Z</time></trkpt><trkpt lat="45.580930063322654" lon="8.007648788951615"><ele>566.1666666666666</ele><time>2026-04-23T17:04:17Z</time></trkpt><trkpt lat="45.58083957631459" lon="8.007692761615798"><ele>565.3333333333334</ele><time>2026-04-23T17:04:19Z</time></trkpt><trkpt lat="45.5807744671102" lon="8.007672808788225"><ele>564.5</ele><time>2026-04-23T17:04:20Z</time></trkpt><trkpt lat="45.580707893531326" lon="8.007568843279637"><ele>563.6666666666667</ele><time>2026-04-23T17:04:21Z</time></trkpt><trkpt lat="45.580628352607" lon="8.007573252713948"><ele>562.8333333333334</ele><time>2026-04-23T17:04:22Z</time></trkpt><trkpt lat="45.58056173708709" lon="8.00762131299393"><ele>562.0</ele><time>2026-04-23T17:04:23Z</time></trkpt><trkpt lat="45.58049290580099" lon="8.007640371363292"><ele>562.0</ele><time>2026-04-23T17:04:24Z</time></trkpt><trkpt lat="45.58035158900473" lon="8.007731094868378"><ele>562.0</ele><time>2026-04-23T17:04:26Z</time></trkpt><trkpt lat="45.58028212162645" lon="8.007771262781798"><ele>562.0</ele><time>2026-04-23T17:04:27Z</time></trkpt><trkpt lat="45.58019423138816" lon="8.007815514663513"><ele>562.0</ele><time>2026-04-23T17:04:28Z</time></trkpt><trkpt lat="45.580092482601465" lon="8.00784386833242"><ele>562.0</ele><time>2026-04-23T17:04:29Z</time></trkpt><trkpt lat="45.580000994216945" lon="8.007884497118146"><ele>560.6</ele><time>2026-04-23T17:04:30Z</time></trkpt><trkpt lat="45.579917243328424" lon="8.007928990084801"><ele>559.2</ele><time>2026-04-23T17:04:31Z</time></trkpt><trkpt lat="45.57982264428789" lon="8.007965973505808"><ele>557.8</ele><time>2026-04-23T17:04:32Z</time></trkpt><trkpt lat="45.57973051507635" lon="8.008011501897107"><ele>556.4</ele><time>2026-04-23T17:04:33Z</time></trkpt><trkpt lat="45.57963679928573" lon="8.00806396494724"><ele>555.0</ele><time>2026-04-23T17:04:34Z</time></trkpt><trkpt lat="45.579532117497884" lon="8.008118107660502"><ele>553.6666666666666</ele><time>2026-04-23T17:04:35Z</time></trkpt><trkpt lat="45.579451328837486" lon="8.00815073204574"><ele>552.3333333333334</ele><time>2026-04-23T17:04:36Z</time></trkpt><trkpt lat="45.57937781515672" lon="8.008175141566335"><ele>551.0</ele><time>2026-04-23T17:04:37Z</time></trkpt><trkpt lat="45.57930282895252" lon="8.008142961779395"><ele>549.6666666666667</ele><time>2026-04-23T17:04:38Z</time></trkpt><trkpt lat="45.57922351401783" lon="8.008144170782716"><ele>548.3333333333334</ele><time>2026-04-23T17:04:39Z</time></trkpt><trkpt lat="45.57915586487743" lon="8.008074781524682"><ele>547.0</ele><time>2026-04-23T17:04:40Z</time></trkpt><trkpt lat="45.579110316935505" lon="8.007969225691742"><ele>547.0</ele><time>2026-04-23T17:04:41Z</time></trkpt><trkpt lat="45.57910653582799" lon="8.007846111622085"><ele>547.0</ele><time>2026-04-23T17:04:42Z</time></trkpt><trkpt lat="45.57908765605319" lon="8.007737850084078"><ele>547.0</ele><time>2026-04-23T17:04:43Z</time></trkpt><trkpt lat="45.57907163949231" lon="8.007644109131999"><ele>547.0</ele><time>2026-04-23T17:04:44Z</time></trkpt><trkpt lat="45.57894672746619" lon="8.00760107761565"><ele>547.0</ele><time>2026-04-23T17:04:45Z</time></trkpt><trkpt lat="45.57886290132705" lon="8.007582100576771"><ele>547.0</ele><time>2026-04-23T17:04:46Z</time></trkpt><trkpt lat="45.57877945015613" lon="8.007586778885079"><ele>547.0</ele><time>2026-04-23T17:04:47Z</time></trkpt><trkpt lat="45.578701912026304" lon="8.00754268124973"><ele>547.0</ele><time>2026-04-23T17:04:48Z</time></trkpt><trkpt lat="45.57861988484911" lon="8.00751755167859"><ele>547.0</ele><time>2026-04-23T17:04:49Z</time></trkpt><trkpt lat="45.57853620790389" lon="8.007493797199125"><ele>547.0</ele><time>2026-04-23T17:04:50Z</time></trkpt><trkpt lat="45.57845104795881" lon="8.007486536183537"><ele>547.0</ele><time>2026-04-23T17:04:51Z</time></trkpt><trkpt lat="45.57836828433424" lon="8.007532631857448"><ele>547.0</ele><time>2026-04-23T17:04:52Z</time></trkpt><trkpt lat="45.5782838761533" lon="8.007554116215546"><ele>546.1666666666667</ele><time>2026-04-23T17:04:53Z</time></trkpt><trkpt lat="45.57819648454209" lon="8.007589315528552"><ele>545.3333333333334</ele><time>2026-04-23T17:04:54Z</time></trkpt><trkpt lat="45.57811121997912" lon="8.007631498615947"><ele>544.5</ele><time>2026-04-23T17:04:55Z</time></trkpt><trkpt lat="45.578022528756094" lon="8.007645676234244"><ele>543.6666666666666</ele><time>2026-04-23T17:04:56Z</time></trkpt><trkpt lat="45.57793717520829" lon="8.007676372995949"><ele>542.8333333333333</ele><time>2026-04-23T17:04:57Z</time></trkpt><trkpt lat="45.57787036239199" lon="8.00772491920669"><ele>542.0</ele><time>2026-04-23T17:04:58Z</time></trkpt><trkpt lat="45.57779040571419" lon="8.007751030078918"><ele>541.5</ele><time>2026-04-23T17:04:59Z</time></trkpt><trkpt lat="45.577711934602405" lon="8.007763654501273"><ele>541.0</ele><time>2026-04-23T17:05:00Z</time></trkpt><trkpt lat="45.57763843098721" lon="8.007812717731348"><ele>540.5</ele><time>2026-04-23T17:05:01Z</time></trkpt><trkpt lat="45.57756066658393" lon="8.00783706810902"><ele>540.0</ele><time>2026-04-23T17:05:02Z</time></trkpt><trkpt lat="45.57748499249036" lon="8.007828827228813"><ele>539.5</ele><time>2026-04-23T17:05:03Z</time></trkpt><trkpt lat="45.577415159848385" lon="8.007839089431776"><ele>539.0</ele><time>2026-04-23T17:05:04Z</time></trkpt><trkpt lat="45.57735887501395" lon="8.007777245852543"><ele>539.0</ele><time>2026-04-23T17:05:05Z</time></trkpt><trkpt lat="45.5773131389648" lon="8.007697829290503"><ele>539.0</ele><time>2026-04-23T17:05:06Z</time></trkpt><trkpt lat="45.57727616521728" lon="8.007611706791721"><ele>539.0</ele><time>2026-04-23T17:05:07Z</time></trkpt><trkpt lat="45.57721237649521" lon="8.007481940182197"><ele>539.0</ele><time>2026-04-23T17:05:09Z</time></trkpt><trkpt lat="45.57715125352111" lon="8.007367322357705"><ele>539.0</ele><time>2026-04-23T17:05:11Z</time></trkpt><trkpt lat="45.57709803257996" lon="8.007268797306446"><ele>539.0</ele><time>2026-04-23T17:05:13Z</time></trkpt><trkpt lat="45.57703543224635" lon="8.007196255429356"><ele>538.6666666666666</ele><time>2026-04-23T17:05:15Z</time></trkpt><trkpt lat="45.576924592393354" lon="8.007195479468685"><ele>538.3333333333333</ele><time>2026-04-23T17:05:17Z</time></trkpt><trkpt lat="45.57686401530112" lon="8.007228091983873"><ele>538.0</ele><time>2026-04-23T17:05:18Z</time></trkpt><trkpt lat="45.576801236899456" lon="8.007242349488191"><ele>537.6666666666666</ele><time>2026-04-23T17:05:19Z</time></trkpt><trkpt lat="45.576736564122314" lon="8.007249230910576"><ele>537.3333333333334</ele><time>2026-04-23T17:05:20Z</time></trkpt><trkpt lat="45.576613306071614" lon="8.007280090703206"><ele>537.0</ele><time>2026-04-23T17:05:22Z</time></trkpt><trkpt lat="45.57654976057155" lon="8.007328263007782"><ele>537.0</ele><time>2026-04-23T17:05:23Z</time></trkpt><trkpt lat="45.57649116691894" lon="8.007392262595081"><ele>537.0</ele><time>2026-04-23T17:05:24Z</time></trkpt><trkpt lat="45.57644351650128" lon="8.007475031952715"><ele>537.0</ele><time>2026-04-23T17:05:25Z</time></trkpt><trkpt lat="45.57639317185035" lon="8.00756696840164"><ele>537.0</ele><time>2026-04-23T17:05:26Z</time></trkpt><trkpt lat="45.576332416240554" lon="8.007655891020379"><ele>537.0</ele><time>2026-04-23T17:05:27Z</time></trkpt><trkpt lat="45.57627631952486" lon="8.007741842461142"><ele>537.0</ele><time>2026-04-23T17:05:28Z</time></trkpt><trkpt lat="45.576211959393945" lon="8.007826404631341"><ele>535.4</ele><time>2026-04-23T17:05:29Z</time></trkpt><trkpt lat="45.57615261626079" lon="8.007921613241459"><ele>533.8000000000001</ele><time>2026-04-23T17:05:30Z</time></trkpt><trkpt lat="45.576094510658706" lon="8.008019962956752"><ele>532.2</ele><time>2026-04-23T17:05:31Z</time></trkpt><trkpt lat="45.576032634378976" lon="8.008117453389241"><ele>530.6</ele><time>2026-04-23T17:05:32Z</time></trkpt><trkpt lat="45.57596751492422" lon="8.00821756243884"><ele>529.0</ele><time>2026-04-23T17:05:33Z</time></trkpt><trkpt lat="45.57589554990662" lon="8.00831746809876"><ele>528.6</ele><time>2026-04-23T17:05:34Z</time></trkpt><trkpt lat="45.57582107810609" lon="8.008423247341671"><ele>528.2</ele><time>2026-04-23T17:05:35Z</time></trkpt><trkpt lat="45.575745024971695" lon="8.008533262405848"><ele>527.8000000000001</ele><time>2026-04-23T17:05:36Z</time></trkpt><trkpt lat="45.57567483789183" lon="8.008627546210452"><ele>527.4</ele><time>2026-04-23T17:05:37Z</time></trkpt><trkpt lat="45.575595617639685" lon="8.008742788097562"><ele>527.0</ele><time>2026-04-23T17:05:38Z</time></trkpt><trkpt lat="45.57551273751264" lon="8.00884888342886"><ele>527.0</ele><time>2026-04-23T17:05:39Z</time></trkpt><trkpt lat="45.57544437661736" lon="8.008961757591088"><ele>527.0</ele><time>2026-04-23T17:05:40Z</time></trkpt><trkpt lat="45.57536477331509" lon="8.009080709153963"><ele>527.0</ele><time>2026-04-23T17:05:41Z</time></trkpt><trkpt lat="45.57528853776105" lon="8.009198934178729"><ele>527.0</ele><time>2026-04-23T17:05:42Z</time></trkpt><trkpt lat="45.57521543589499" lon="8.00932135689278"><ele>527.0</ele><time>2026-04-23T17:05:43Z</time></trkpt><trkpt lat="45.575140729759525" lon="8.009443485195774"><ele>525.25</ele><time>2026-04-23T17:05:44Z</time></trkpt><trkpt lat="45.575061193530914" lon="8.009566117833222"><ele>523.5</ele><time>2026-04-23T17:05:45Z</time></trkpt><trkpt lat="45.57497635460661" lon="8.00968099300809"><ele>521.75</ele><time>2026-04-23T17:05:46Z</time></trkpt><trkpt lat="45.574897119940715" lon="8.009791550323158"><ele>520.0</ele><time>2026-04-23T17:05:47Z</time></trkpt><trkpt lat="45.57481466346871" lon="8.009911583154887"><ele>519.5</ele><time>2026-04-23T17:05:48Z</time></trkpt><trkpt lat="45.57472760739244" lon="8.01004531024736"><ele>519.0</ele><time>2026-04-23T17:05:49Z</time></trkpt><trkpt lat="45.57464783631384" lon="8.010176723729016"><ele>518.5</ele><time>2026-04-23T17:05:50Z</time></trkpt><trkpt lat="45.57453990523502" lon="8.010291483222964"><ele>518.0</ele><time>2026-04-23T17:05:51Z</time></trkpt><trkpt lat="45.574451585199746" lon="8.010413313116127"><ele>516.75</ele><time>2026-04-23T17:05:52Z</time></trkpt><trkpt lat="45.57437557664213" lon="8.010529682904863"><ele>515.5</ele><time>2026-04-23T17:05:53Z</time></trkpt><trkpt lat="45.57429699078428" lon="8.010654511690538"><ele>514.25</ele><time>2026-04-23T17:05:54Z</time></trkpt><trkpt lat="45.574216926450156" lon="8.010774869550882"><ele>513.0</ele><time>2026-04-23T17:05:55Z</time></trkpt><trkpt lat="45.5741275260869" lon="8.010900710372885"><ele>513.0</ele><time>2026-04-23T17:05:56Z</time></trkpt><trkpt lat="45.574034919979994" lon="8.011037076756693"><ele>513.0</ele><time>2026-04-23T17:05:57Z</time></trkpt><trkpt lat="45.573960372260856" lon="8.011165453668017"><ele>513.0</ele><time>2026-04-23T17:05:58Z</time></trkpt><trkpt lat="45.57388631399377" lon="8.011296815934276"><ele>513.0</ele><time>2026-04-23T17:05:59Z</time></trkpt><trkpt lat="45.5737883381117" lon="8.011428288137319"><ele>513.0</ele><time>2026-04-23T17:06:00Z</time></trkpt><trkpt lat="45.57369368886514" lon="8.011555906002965"><ele>513.0</ele><time>2026-04-23T17:06:01Z</time></trkpt><trkpt lat="45.573602440818355" lon="8.011683353478258"><ele>513.0</ele><time>2026-04-23T17:06:02Z</time></trkpt><trkpt lat="45.573520827473075" lon="8.011817005845007"><ele>513.0</ele><time>2026-04-23T17:06:03Z</time></trkpt><trkpt lat="45.573434975202964" lon="8.011944836203174"><ele>510.5</ele><time>2026-04-23T17:06:04Z</time></trkpt><trkpt lat="45.57334815502036" lon="8.012079092979645"><ele>508.0</ele><time>2026-04-23T17:06:05Z</time></trkpt><trkpt lat="45.57325449333091" lon="8.01220717392278"><ele>505.5</ele><time>2026-04-23T17:06:06Z</time></trkpt><trkpt lat="45.573158548076115" lon="8.012336227086443"><ele>503.0</ele><time>2026-04-23T17:06:07Z</time></trkpt><trkpt lat="45.57306326922057" lon="8.012464755363325"><ele>501.0</ele><time>2026-04-23T17:06:08Z</time></trkpt><trkpt lat="45.57295631667409" lon="8.012592490316052"><ele>499.0</ele><time>2026-04-23T17:06:09Z</time></trkpt><trkpt lat="45.572850079175616" lon="8.012710709345102"><ele>497.0</ele><time>2026-04-23T17:06:10Z</time></trkpt><trkpt lat="45.57274951672152" lon="8.01282179131621"><ele>495.0</ele><time>2026-04-23T17:06:11Z</time></trkpt><trkpt lat="45.57264289199252" lon="8.012938530405046"><ele>495.0</ele><time>2026-04-23T17:06:12Z</time></trkpt><trkpt lat="45.57253570175204" lon="8.013041477202366"><ele>495.0</ele><time>2026-04-23T17:06:13Z</time></trkpt><trkpt lat="45.57243367322229" lon="8.01314971199394"><ele>495.0</ele><time>2026-04-23T17:06:14Z</time></trkpt><trkpt lat="45.572329173116714" lon="8.013249998024994"><ele>495.0</ele><time>2026-04-23T17:06:15Z</time></trkpt><trkpt lat="45.57222800609122" lon="8.013362793262663"><ele>494.0</ele><time>2026-04-23T17:06:16Z</time></trkpt><trkpt lat="45.572135649130544" lon="8.013459624348481"><ele>493.0</ele><time>2026-04-23T17:06:17Z</time></trkpt><trkpt lat="45.5720362576357" lon="8.01356967953354"><ele>492.0</ele><time>2026-04-23T17:06:18Z</time></trkpt><trkpt lat="45.571945333020984" lon="8.013680896725678"><ele>491.0</ele><time>2026-04-23T17:06:19Z</time></trkpt><trkpt lat="45.57185440017969" lon="8.01378416698396"><ele>491.0</ele><time>2026-04-23T17:06:20Z</time></trkpt><trkpt lat="45.57176372356406" lon="8.013890567082731"><ele>491.0</ele><time>2026-04-23T17:06:21Z</time></trkpt><trkpt lat="45.57167403755787" lon="8.013994533473621"><ele>491.0</ele><time>2026-04-23T17:06:22Z</time></trkpt><trkpt lat="45.57158781654195" lon="8.014093803215248"><ele>491.0</ele><time>2026-04-23T17:06:23Z</time></trkpt><trkpt lat="45.57149487538665" lon="8.014194092236233"><ele>490.8</ele><time>2026-04-23T17:06:24Z</time></trkpt><trkpt lat="45.57140325421909" lon="8.014292843901961"><ele>490.6</ele><time>2026-04-23T17:06:25Z</time></trkpt><trkpt lat="45.57131655742831" lon="8.01439513635193"><ele>490.4</ele><time>2026-04-23T17:06:26Z</time></trkpt><trkpt lat="45.57122878105614" lon="8.01449007043779"><ele>490.2</ele><time>2026-04-23T17:06:27Z</time></trkpt><trkpt lat="45.57113909885332" lon="8.014581757020016"><ele>490.0</ele><time>2026-04-23T17:06:28Z</time></trkpt><trkpt lat="45.57104776522266" lon="8.014667239782472"><ele>489.4</ele><time>2026-04-23T17:06:29Z</time></trkpt><trkpt lat="45.570957256604416" lon="8.014748189515135"><ele>488.8</ele><time>2026-04-23T17:06:30Z</time></trkpt><trkpt lat="45.570863777862364" lon="8.01483291980041"><ele>488.20000000000005</ele><time>2026-04-23T17:06:31Z</time></trkpt><trkpt lat="45.57076782111756" lon="8.014912956310244"><ele>487.6</ele><time>2026-04-23T17:06:32Z</time></trkpt><trkpt lat="45.570674839321676" lon="8.014991179730465"><ele>487.0</ele><time>2026-04-23T17:06:33Z</time></trkpt><trkpt lat="45.570575143022666" lon="8.015062333113011"><ele>487.0</ele><time>2026-04-23T17:06:34Z</time></trkpt><trkpt lat="45.57048329622253" lon="8.015138313018621"><ele>487.00000000000006</ele><time>2026-04-23T17:06:35Z</time></trkpt><trkpt lat="45.570385337745044" lon="8.015203396154888"><ele>487.00000000000006</ele><time>2026-04-23T17:06:36Z</time></trkpt><trkpt lat="45.57028612650769" lon="8.015271004622052"><ele>487.0</ele><time>2026-04-23T17:06:37Z</time></trkpt><trkpt lat="45.570189956593765" lon="8.015339154994237"><ele>487.0</ele><time>2026-04-23T17:06:38Z</time></trkpt><trkpt lat="45.57009600684273" lon="8.015408739818007"><ele>485.20000000000005</ele><time>2026-04-23T17:06:39Z</time></trkpt><trkpt lat="45.56999907856584" lon="8.015483670535367"><ele>483.40000000000003</ele><time>2026-04-23T17:06:40Z</time></trkpt><trkpt lat="45.56990862577631" lon="8.015558355759888"><ele>481.59999999999997</ele><time>2026-04-23T17:06:41Z</time></trkpt><trkpt lat="45.569813619978206" lon="8.015626263840053"><ele>479.79999999999995</ele><time>2026-04-23T17:06:42Z</time></trkpt><trkpt lat="45.569719973280655" lon="8.01569235103219"><ele>478.0</ele><time>2026-04-23T17:06:43Z</time></trkpt><trkpt lat="45.569624436913436" lon="8.01577011676013"><ele>476.79999999999995</ele><time>2026-04-23T17:06:44Z</time></trkpt><trkpt lat="45.56952944473889" lon="8.015847367409458"><ele>475.59999999999997</ele><time>2026-04-23T17:06:45Z</time></trkpt><trkpt lat="45.56943464038494" lon="8.015922501467408"><ele>474.40000000000003</ele><time>2026-04-23T17:06:46Z</time></trkpt><trkpt lat="45.56933919271678" lon="8.015989342961358"><ele>473.20000000000005</ele><time>2026-04-23T17:06:47Z</time></trkpt><trkpt lat="45.56924552480027" lon="8.01605688386938"><ele>472.0</ele><time>2026-04-23T17:06:48Z</time></trkpt><trkpt lat="45.56915185234855" lon="8.016126168739342"><ele>472.0</ele><time>2026-04-23T17:06:49Z</time></trkpt><trkpt lat="45.56905578966408" lon="8.016201026747211"><ele>472.00000000000006</ele><time>2026-04-23T17:06:50Z</time></trkpt><trkpt lat="45.56896275401618" lon="8.016276182054465"><ele>472.00000000000006</ele><time>2026-04-23T17:06:51Z</time></trkpt><trkpt lat="45.56886895551452" lon="8.01634759836797"><ele>472.0</ele><time>2026-04-23T17:06:52Z</time></trkpt><trkpt lat="45.568780525189275" lon="8.016434266203445"><ele>472.0</ele><time>2026-04-23T17:06:53Z</time></trkpt><trkpt lat="45.56869930592902" lon="8.016528159225254"><ele>471.6</ele><time>2026-04-23T17:06:54Z</time></trkpt><trkpt lat="45.56863038716129" lon="8.016630084375846"><ele>471.20000000000005</ele><time>2026-04-23T17:06:55Z</time></trkpt><trkpt lat="45.568562252720355" lon="8.016740801541777"><ele>470.8</ele><time>2026-04-23T17:06:56Z</time></trkpt><trkpt lat="45.568496268717794" lon="8.01685588548924"><ele>470.4</ele><time>2026-04-23T17:06:57Z</time></trkpt><trkpt lat="45.568430043474685" lon="8.016976843806868"><ele>470.0</ele><time>2026-04-23T17:06:58Z</time></trkpt><trkpt lat="45.568364904649435" lon="8.017102373257993"><ele>470.0</ele><time>2026-04-23T17:06:59Z</time></trkpt><trkpt lat="45.56831190505206" lon="8.017235163321825"><ele>470.0</ele><time>2026-04-23T17:07:00Z</time></trkpt><trkpt lat="45.568262774232416" lon="8.017369413497127"><ele>470.0</ele><time>2026-04-23T17:07:01Z</time></trkpt><trkpt lat="45.56823140118864" lon="8.017523866487622"><ele>470.0</ele><time>2026-04-23T17:07:02Z</time></trkpt><trkpt lat="45.568213649653295" lon="8.0176780555589"><ele>470.0</ele><time>2026-04-23T17:07:03Z</time></trkpt><trkpt lat="45.568211122523515" lon="8.017837975481935"><ele>469.75</ele><time>2026-04-23T17:07:04Z</time></trkpt><trkpt lat="45.56823350774496" lon="8.018004947439339"><ele>469.5</ele><time>2026-04-23T17:07:05Z</time></trkpt><trkpt lat="45.568253107873964" lon="8.01817054195512"><ele>469.25</ele><time>2026-04-23T17:07:06Z</time></trkpt><trkpt lat="45.568282616896205" lon="8.018329868742834"><ele>469.0</ele><time>2026-04-23T17:07:07Z</time></trkpt><trkpt lat="45.568306924715905" lon="8.018491941642411"><ele>469.0</ele><time>2026-04-23T17:07:08Z</time></trkpt><trkpt lat="45.568328350079874" lon="8.018649527265513"><ele>469.0</ele><time>2026-04-23T17:07:09Z</time></trkpt><trkpt lat="45.56836207186161" lon="8.018804561834232"><ele>469.0</ele><time>2026-04-23T17:07:10Z</time></trkpt><trkpt lat="45.56838717030607" lon="8.018964481445648"><ele>469.0</ele><time>2026-04-23T17:07:11Z</time></trkpt><trkpt lat="45.56841194899089" lon="8.019116605026573"><ele>467.5</ele><time>2026-04-23T17:07:12Z</time></trkpt><trkpt lat="45.56841341470046" lon="8.019273212420643"><ele>466.0</ele><time>2026-04-23T17:07:13Z</time></trkpt><trkpt lat="45.5684244229279" lon="8.019444571303179"><ele>464.5</ele><time>2026-04-23T17:07:14Z</time></trkpt><trkpt lat="45.568432516895875" lon="8.019610091551803"><ele>463.0</ele><time>2026-04-23T17:07:15Z</time></trkpt><trkpt lat="45.56842654456417" lon="8.019788563091744"><ele>463.0</ele><time>2026-04-23T17:07:16Z</time></trkpt><trkpt lat="45.56840292690017" lon="8.019948191024442"><ele>462.99999999999994</ele><time>2026-04-23T17:07:17Z</time></trkpt><trkpt lat="45.56837859033625" lon="8.020076058658479"><ele>462.99999999999994</ele><time>2026-04-23T17:07:18Z</time></trkpt><trkpt lat="45.56833395676014" lon="8.02023634965702"><ele>463.0</ele><time>2026-04-23T17:07:20Z</time></trkpt><trkpt lat="45.568295716664835" lon="8.02031216671417"><ele>463.0</ele><time>2026-04-23T17:07:21Z</time></trkpt><trkpt lat="45.568266858179484" lon="8.020402540519212"><ele>461.6666666666667</ele><time>2026-04-23T17:07:22Z</time></trkpt><trkpt lat="45.56824222887946" lon="8.020492501077"><ele>460.33333333333337</ele><time>2026-04-23T17:07:23Z</time></trkpt><trkpt lat="45.56821527115039" lon="8.020579574933599"><ele>459.0</ele><time>2026-04-23T17:07:24Z</time></trkpt><trkpt lat="45.568172482371445" lon="8.020674871094727"><ele>457.66666666666663</ele><time>2026-04-23T17:07:26Z</time></trkpt><trkpt lat="45.568135001544356" lon="8.020761858211662"><ele>456.3333333333333</ele><time>2026-04-23T17:07:41Z</time></trkpt><trkpt lat="45.568103405238595" lon="8.020856298052987"><ele>455.0</ele><time>2026-04-23T17:07:43Z</time></trkpt><trkpt lat="45.568030569665815" lon="8.02096790433725"><ele>454.4</ele><time>2026-04-23T17:07:45Z</time></trkpt><trkpt lat="45.56795595513118" lon="8.021103824131993"><ele>453.8</ele><time>2026-04-23T17:07:47Z</time></trkpt><trkpt lat="45.56787719956047" lon="8.021209875963711"><ele>453.20000000000005</ele><time>2026-04-23T17:07:49Z</time></trkpt><trkpt lat="45.5678120611953" lon="8.021320289764914"><ele>452.6</ele><time>2026-04-23T17:07:51Z</time></trkpt><trkpt lat="45.56777043435038" lon="8.021390849997507"><ele>452.0</ele><time>2026-04-23T17:07:53Z</time></trkpt><trkpt lat="45.56772840615899" lon="8.021462090538186"><ele>451.49999999999994</ele><time>2026-04-23T17:07:56Z</time></trkpt><trkpt lat="45.56768246369989" lon="8.021539966021766"><ele>451.0</ele><time>2026-04-23T17:07:58Z</time></trkpt><trkpt lat="45.56763751125247" lon="8.021616163375452"><ele>450.5</ele><time>2026-04-23T17:08:00Z</time></trkpt><trkpt lat="45.567580562828184" lon="8.02171296726811"><ele>450.0</ele><time>2026-04-23T17:08:03Z</time></trkpt><trkpt lat="45.567531774894604" lon="8.021796050579596"><ele>449.49999999999994</ele><time>2026-04-23T17:08:07Z</time></trkpt><trkpt lat="45.56747459087703" lon="8.021895861476606"><ele>449.0</ele><time>2026-04-23T17:08:10Z</time></trkpt><trkpt lat="45.567371670405365" lon="8.022072683076646"><ele>450.5</ele><time>2026-04-23T17:08:13Z</time></trkpt><trkpt lat="45.5672668818275" lon="8.022245377339093"><ele>452.0</ele><time>2026-04-23T17:08:14Z</time></trkpt><trkpt lat="45.56718110401241" lon="8.022351881672728"><ele>453.5</ele><time>2026-04-23T17:08:15Z</time></trkpt><trkpt lat="45.56710236241228" lon="8.022452046428539"><ele>455.0</ele><time>2026-04-23T17:08:16Z</time></trkpt><trkpt lat="45.56699986619994" lon="8.02253264071734"><ele>457.25</ele><time>2026-04-23T17:08:17Z</time></trkpt><trkpt lat="45.566901618189874" lon="8.022599551076892"><ele>459.5</ele><time>2026-04-23T17:08:18Z</time></trkpt><trkpt lat="45.566792048704016" lon="8.022645356760917"><ele>461.75</ele><time>2026-04-23T17:08:19Z</time></trkpt><trkpt lat="45.56667778314241" lon="8.022711468804948"><ele>464.0</ele><time>2026-04-23T17:08:20Z</time></trkpt><trkpt lat="45.56657378405358" lon="8.022771640845427"><ele>464.0</ele><time>2026-04-23T17:08:21Z</time></trkpt><trkpt lat="45.56645787307947" lon="8.022838704899968"><ele>464.0</ele><time>2026-04-23T17:08:22Z</time></trkpt><trkpt lat="45.56634156388612" lon="8.022905556978078"><ele>464.0</ele><time>2026-04-23T17:08:23Z</time></trkpt><trkpt lat="45.566231081919" lon="8.022965959759567"><ele>464.0</ele><time>2026-04-23T17:08:24Z</time></trkpt><trkpt lat="45.566114090637825" lon="8.023010073625386"><ele>459.0</ele><time>2026-04-23T17:08:25Z</time></trkpt><trkpt lat="45.565988681095625" lon="8.023008224721519"><ele>454.0</ele><time>2026-04-23T17:08:26Z</time></trkpt><trkpt lat="45.56586002922282" lon="8.023005335108708"><ele>449.0</ele><time>2026-04-23T17:08:27Z</time></trkpt><trkpt lat="45.56572483578958" lon="8.022998252842841"><ele>444.0</ele><time>2026-04-23T17:08:28Z</time></trkpt><trkpt lat="45.56559529038232" lon="8.022992507812667"><ele>444.0</ele><time>2026-04-23T17:08:29Z</time></trkpt><trkpt lat="45.56546703795261" lon="8.02299149925478"><ele>444.0</ele><time>2026-04-23T17:08:30Z</time></trkpt><trkpt lat="45.56533362797897" lon="8.02300694007822"><ele>444.0</ele><time>2026-04-23T17:08:31Z</time></trkpt><trkpt lat="45.56520570256996" lon="8.023017438697586"><ele>444.0</ele><time>2026-04-23T17:08:32Z</time></trkpt><trkpt lat="45.56507960115575" lon="8.023036811662736"><ele>441.75</ele><time>2026-04-23T17:08:33Z</time></trkpt><trkpt lat="45.56494957540826" lon="8.023036480391536"><ele>439.5</ele><time>2026-04-23T17:08:34Z</time></trkpt><trkpt lat="45.564817876524025" lon="8.023045549859159"><ele>437.25</ele><time>2026-04-23T17:08:35Z</time></trkpt><trkpt lat="45.564688724394806" lon="8.023052928398327"><ele>435.0</ele><time>2026-04-23T17:08:36Z</time></trkpt><trkpt lat="45.56456157437647" lon="8.023055591024573"><ele>435.75</ele><time>2026-04-23T17:08:37Z</time></trkpt><trkpt lat="45.564435259741046" lon="8.023058992386689"><ele>436.5</ele><time>2026-04-23T17:08:38Z</time></trkpt><trkpt lat="45.56430399983035" lon="8.0230624669507"><ele>437.25</ele><time>2026-04-23T17:08:39Z</time></trkpt><trkpt lat="45.56417024694136" lon="8.023079997836666"><ele>438.0</ele><time>2026-04-23T17:08:40Z</time></trkpt><trkpt lat="45.56403993203269" lon="8.023097831260612"><ele>438.0</ele><time>2026-04-23T17:08:41Z</time></trkpt><trkpt lat="45.563915654088014" lon="8.0231050984465"><ele>438.0</ele><time>2026-04-23T17:08:42Z</time></trkpt><trkpt lat="45.56378930269869" lon="8.023121294243838"><ele>438.0</ele><time>2026-04-23T17:08:43Z</time></trkpt><trkpt lat="45.56366938341123" lon="8.023134004750155"><ele>438.0</ele><time>2026-04-23T17:08:44Z</time></trkpt><trkpt lat="45.56355430747489" lon="8.023172447248195"><ele>437.5</ele><time>2026-04-23T17:08:45Z</time></trkpt><trkpt lat="45.56343745871575" lon="8.02321528067736"><ele>437.0</ele><time>2026-04-23T17:08:46Z</time></trkpt><trkpt lat="45.563317649076744" lon="8.02325674004403"><ele>436.5</ele><time>2026-04-23T17:08:47Z</time></trkpt><trkpt lat="45.56320254270068" lon="8.023322533665697"><ele>436.0</ele><time>2026-04-23T17:08:48Z</time></trkpt><trkpt lat="45.56310328477433" lon="8.023410675239246"><ele>436.0</ele><time>2026-04-23T17:08:49Z</time></trkpt><trkpt lat="45.56299362784315" lon="8.02345501454437"><ele>436.0</ele><time>2026-04-23T17:08:50Z</time></trkpt><trkpt lat="45.562888271577656" lon="8.023537948351521"><ele>436.0</ele><time>2026-04-23T17:08:51Z</time></trkpt><trkpt lat="45.56279027900765" lon="8.02361640744449"><ele>436.0</ele><time>2026-04-23T17:08:52Z</time></trkpt><trkpt lat="45.56268524949176" lon="8.023688641325556"><ele>435.4</ele><time>2026-04-23T17:08:53Z</time></trkpt><trkpt lat="45.56258797557706" lon="8.023757687875612"><ele>434.8</ele><time>2026-04-23T17:08:54Z</time></trkpt><trkpt lat="45.56248951347665" lon="8.023825535464454"><ele>434.19999999999993</ele><time>2026-04-23T17:08:55Z</time></trkpt><trkpt lat="45.56239178367748" lon="8.023906543482086"><ele>433.59999999999997</ele><time>2026-04-23T17:08:56Z</time></trkpt><trkpt lat="45.56229115121525" lon="8.023976790810599"><ele>433.0</ele><time>2026-04-23T17:08:57Z</time></trkpt><trkpt lat="45.56219329247263" lon="8.02404538394039"><ele>433.0</ele><time>2026-04-23T17:08:58Z</time></trkpt><trkpt lat="45.562095606641776" lon="8.024116444049605"><ele>432.99999999999994</ele><time>2026-04-23T17:08:59Z</time></trkpt><trkpt lat="45.56200012299595" lon="8.024181229633017"><ele>432.99999999999994</ele><time>2026-04-23T17:09:00Z</time></trkpt><trkpt lat="45.561907991343205" lon="8.024253724105447"><ele>433.0</ele><time>2026-04-23T17:09:01Z</time></trkpt><trkpt lat="45.561813633824514" lon="8.024323563056214"><ele>433.0</ele><time>2026-04-23T17:09:02Z</time></trkpt><trkpt lat="45.56171814257058" lon="8.024395032542978"><ele>431.79999999999995</ele><time>2026-04-23T17:09:03Z</time></trkpt><trkpt lat="45.56162208126566" lon="8.024469694159084"><ele>430.59999999999997</ele><time>2026-04-23T17:09:04Z</time></trkpt><trkpt lat="45.56152558442733" lon="8.024543112983663"><ele>429.40000000000003</ele><time>2026-04-23T17:09:05Z</time></trkpt><trkpt lat="45.56142868541573" lon="8.024609643115875"><ele>428.20000000000005</ele><time>2026-04-23T17:09:06Z</time></trkpt><trkpt lat="45.56133376155675" lon="8.024678887589095"><ele>427.0</ele><time>2026-04-23T17:09:07Z</time></trkpt><trkpt lat="45.5612394110984" lon="8.024749817708038"><ele>426.20000000000005</ele><time>2026-04-23T17:09:08Z</time></trkpt><trkpt lat="45.561145663839774" lon="8.024812607614054"><ele>425.40000000000003</ele><time>2026-04-23T17:09:09Z</time></trkpt><trkpt lat="45.561053590094126" lon="8.024898162347121"><ele>424.6</ele><time>2026-04-23T17:09:10Z</time></trkpt><trkpt lat="45.56095943044501" lon="8.024960288196084"><ele>423.79999999999995</ele><time>2026-04-23T17:09:11Z</time></trkpt><trkpt lat="45.56087755877159" lon="8.025029162273515"><ele>423.0</ele><time>2026-04-23T17:09:12Z</time></trkpt><trkpt lat="45.56078411842263" lon="8.025103655049337"><ele>422.4</ele><time>2026-04-23T17:09:13Z</time></trkpt><trkpt lat="45.56068917320743" lon="8.025177010653616"><ele>421.79999999999995</ele><time>2026-04-23T17:09:14Z</time></trkpt><trkpt lat="45.56060359816165" lon="8.025233835609829"><ele>421.2</ele><time>2026-04-23T17:09:15Z</time></trkpt><trkpt lat="45.56050666024685" lon="8.025298475009789"><ele>420.6</ele><time>2026-04-23T17:09:16Z</time></trkpt><trkpt lat="45.56042451872875" lon="8.025365727055771"><ele>420.0</ele><time>2026-04-23T17:09:17Z</time></trkpt><trkpt lat="45.560343098081965" lon="8.025436564534804"><ele>420.0</ele><time>2026-04-23T17:09:18Z</time></trkpt><trkpt lat="45.56025999103344" lon="8.025508714867966"><ele>420.0</ele><time>2026-04-23T17:09:19Z</time></trkpt><trkpt lat="45.560170426399985" lon="8.025577479902864"><ele>420.0</ele><time>2026-04-23T17:09:20Z</time></trkpt><trkpt lat="45.56008050039531" lon="8.025650118127782"><ele>420.0</ele><time>2026-04-23T17:09:21Z</time></trkpt><trkpt lat="45.56000800854222" lon="8.025712213626623"><ele>420.0</ele><time>2026-04-23T17:09:22Z</time></trkpt><trkpt lat="45.55992601578635" lon="8.025753458209447"><ele>419.6</ele><time>2026-04-23T17:09:23Z</time></trkpt><trkpt lat="45.559829481747734" lon="8.025821720332875"><ele>419.2</ele><time>2026-04-23T17:09:24Z</time></trkpt><trkpt lat="45.559751716416834" lon="8.025888562390207"><ele>418.79999999999995</ele><time>2026-04-23T17:09:25Z</time></trkpt><trkpt lat="45.559676230086936" lon="8.025949507738806"><ele>418.4</ele><time>2026-04-23T17:09:26Z</time></trkpt><trkpt lat="45.55959109487357" lon="8.026010979254679"><ele>418.0</ele><time>2026-04-23T17:09:27Z</time></trkpt><trkpt lat="45.559514621366425" lon="8.026072164930262"><ele>417.50000000000006</ele><time>2026-04-23T17:09:28Z</time></trkpt><trkpt lat="45.55944327109467" lon="8.026130097483444"><ele>417.0</ele><time>2026-04-23T17:09:29Z</time></trkpt><trkpt lat="45.55935912093326" lon="8.026187256520522"><ele>416.5</ele><time>2026-04-23T17:09:30Z</time></trkpt><trkpt lat="45.55927754998968" lon="8.02624140540373"><ele>416.0</ele><time>2026-04-23T17:09:31Z</time></trkpt><trkpt lat="45.55920746657853" lon="8.026302387074477"><ele>415.50000000000006</ele><time>2026-04-23T17:09:32Z</time></trkpt><trkpt lat="45.55912355780101" lon="8.026356153664391"><ele>415.0</ele><time>2026-04-23T17:09:33Z</time></trkpt><trkpt lat="45.559041518229165" lon="8.026409143019155"><ele>415.00000000000006</ele><time>2026-04-23T17:09:34Z</time></trkpt><trkpt lat="45.55897946426301" lon="8.026466882172473"><ele>415.0</ele><time>2026-04-23T17:09:35Z</time></trkpt><trkpt lat="45.55889142583608" lon="8.02652363187618"><ele>415.0</ele><time>2026-04-23T17:09:36Z</time></trkpt><trkpt lat="45.558809622036286" lon="8.026580863397408"><ele>415.0</ele><time>2026-04-23T17:09:37Z</time></trkpt><trkpt lat="45.55873095203992" lon="8.026641719022226"><ele>415.00000000000006</ele><time>2026-04-23T17:09:38Z</time></trkpt><trkpt lat="45.558641680735775" lon="8.026698481952563"><ele>415.0</ele><time>2026-04-23T17:09:39Z</time></trkpt><trkpt lat="45.55856132489874" lon="8.026757809655102"><ele>414.4</ele><time>2026-04-23T17:09:40Z</time></trkpt><trkpt lat="45.558476161346526" lon="8.026818768224915"><ele>413.8</ele><time>2026-04-23T17:09:41Z</time></trkpt><trkpt lat="45.55839201099992" lon="8.026880891981365"><ele>413.20000000000005</ele><time>2026-04-23T17:09:42Z</time></trkpt><trkpt lat="45.55830863661617" lon="8.02694751568845"><ele>412.6</ele><time>2026-04-23T17:09:43Z</time></trkpt><trkpt lat="45.55822212635257" lon="8.02701211008152"><ele>412.0</ele><time>2026-04-23T17:09:44Z</time></trkpt><trkpt lat="45.558139069950684" lon="8.027083596510384"><ele>412.0</ele><time>2026-04-23T17:09:45Z</time></trkpt><trkpt lat="45.558051416321675" lon="8.027152642116866"><ele>412.0</ele><time>2026-04-23T17:09:46Z</time></trkpt><trkpt lat="45.55796572069388" lon="8.027218688077715"><ele>412.0</ele><time>2026-04-23T17:09:47Z</time></trkpt><trkpt lat="45.557881159204214" lon="8.02728591805228"><ele>412.0</ele><time>2026-04-23T17:09:48Z</time></trkpt><trkpt lat="45.55779149471223" lon="8.027352631220118"><ele>412.0</ele><time>2026-04-23T17:09:49Z</time></trkpt><trkpt lat="45.557711495623565" lon="8.027419180234059"><ele>413.6</ele><time>2026-04-23T17:09:50Z</time></trkpt><trkpt lat="45.55761244491442" lon="8.02746800078128"><ele>415.20000000000005</ele><time>2026-04-23T17:09:51Z</time></trkpt><trkpt lat="45.557527581486006" lon="8.027530704299606"><ele>416.8</ele><time>2026-04-23T17:09:52Z</time></trkpt><trkpt lat="45.55745195935908" lon="8.027611342250404"><ele>418.4</ele><time>2026-04-23T17:09:53Z</time></trkpt><trkpt lat="45.55736938565639" lon="8.027670408308216"><ele>420.0</ele><time>2026-04-23T17:09:54Z</time></trkpt><trkpt lat="45.55727906510933" lon="8.027713561083214"><ele>420.0</ele><time>2026-04-23T17:09:55Z</time></trkpt><trkpt lat="45.55720480374938" lon="8.027794484771697"><ele>420.0</ele><time>2026-04-23T17:09:56Z</time></trkpt><trkpt lat="45.55711697162225" lon="8.027833137337026"><ele>420.0</ele><time>2026-04-23T17:09:57Z</time></trkpt><trkpt lat="45.55703737014481" lon="8.027891900305304"><ele>420.0</ele><time>2026-04-23T17:09:58Z</time></trkpt><trkpt lat="45.55695580737001" lon="8.027952111171476"><ele>420.0</ele><time>2026-04-23T17:09:59Z</time></trkpt><trkpt lat="45.556875782578565" lon="8.028011186672416"><ele>421.0</ele><time>2026-04-23T17:10:00Z</time></trkpt><trkpt lat="45.556802212723696" lon="8.028089784631481"><ele>422.0</ele><time>2026-04-23T17:10:01Z</time></trkpt><trkpt lat="45.55672145965122" lon="8.028153244182658"><ele>423.0</ele><time>2026-04-23T17:10:02Z</time></trkpt><trkpt lat="45.556634566475424" lon="8.028191785624612"><ele>424.0</ele><time>2026-04-23T17:10:03Z</time></trkpt><trkpt lat="45.55656146035514" lon="8.028247120391695"><ele>425.0</ele><time>2026-04-23T17:10:04Z</time></trkpt><trkpt lat="45.55650307782162" lon="8.02830670185081"><ele>426.0</ele><time>2026-04-23T17:10:05Z</time></trkpt><trkpt lat="45.55641396978026" lon="8.028366612385623"><ele>423.5</ele><time>2026-04-23T17:10:07Z</time></trkpt><trkpt lat="45.55635667673581" lon="8.028410168239558"><ele>421.0</ele><time>2026-04-23T17:10:18Z</time></trkpt><trkpt lat="45.55629145322605" lon="8.028431619549298"><ele>418.5</ele><time>2026-04-23T17:10:21Z</time></trkpt><trkpt lat="45.55619079129909" lon="8.028454046810685"><ele>416.0</ele><time>2026-04-23T17:10:27Z</time></trkpt><trkpt lat="45.55608916069903" lon="8.028471642701652"><ele>413.5</ele><time>2026-04-23T17:10:29Z</time></trkpt><trkpt lat="45.55602355791897" lon="8.028514701591298"><ele>411.0</ele><time>2026-04-23T17:10:30Z</time></trkpt><trkpt lat="45.55598794888776" lon="8.028628919917319"><ele>411.0</ele><time>2026-04-23T17:10:31Z</time></trkpt><trkpt lat="45.5559808840384" lon="8.028726815599123"><ele>411.0</ele><time>2026-04-23T17:10:32Z</time></trkpt><trkpt lat="45.556083959584974" lon="8.028847992169986"><ele>411.0</ele><time>2026-04-23T17:10:33Z</time></trkpt><trkpt lat="45.556166716803" lon="8.02889616225167"><ele>411.0</ele><time>2026-04-23T17:10:34Z</time></trkpt><trkpt lat="45.55622688624555" lon="8.028966148467072"><ele>411.0</ele><time>2026-04-23T17:10:35Z</time></trkpt><trkpt lat="45.55626026714882" lon="8.029064260430596"><ele>411.0</ele><time>2026-04-23T17:10:36Z</time></trkpt><trkpt lat="45.55628861990136" lon="8.029172541399102"><ele>410.5</ele><time>2026-04-23T17:10:37Z</time></trkpt><trkpt lat="45.55632392900098" lon="8.029275058386986"><ele>410.0</ele><time>2026-04-23T17:10:38Z</time></trkpt><trkpt lat="45.55635976256491" lon="8.029376870094204"><ele>409.5</ele><time>2026-04-23T17:10:39Z</time></trkpt><trkpt lat="45.55638993586297" lon="8.029481426499029"><ele>409.0</ele><time>2026-04-23T17:10:40Z</time></trkpt><trkpt lat="45.55642329200357" lon="8.029580310405162"><ele>408.5</ele><time>2026-04-23T17:10:41Z</time></trkpt><trkpt lat="45.55646098921085" lon="8.029672314586785"><ele>408.0</ele><time>2026-04-23T17:10:42Z</time></trkpt><trkpt lat="45.55649688122275" lon="8.029764950527051"><ele>408.0</ele><time>2026-04-23T17:10:43Z</time></trkpt><trkpt lat="45.55653493297308" lon="8.029859541686696"><ele>408.0</ele><time>2026-04-23T17:10:44Z</time></trkpt><trkpt lat="45.55657253412055" lon="8.029960534053995"><ele>408.0</ele><time>2026-04-23T17:10:45Z</time></trkpt><trkpt lat="45.55661020120292" lon="8.03006183203329"><ele>408.0</ele><time>2026-04-23T17:10:46Z</time></trkpt><trkpt lat="45.55664532695039" lon="8.030161972110246"><ele>408.0</ele><time>2026-04-23T17:10:47Z</time></trkpt><trkpt lat="45.55668175263465" lon="8.030262900590843"><ele>408.0</ele><time>2026-04-23T17:10:48Z</time></trkpt><trkpt lat="45.55671875132403" lon="8.030362246099257"><ele>408.0</ele><time>2026-04-23T17:10:49Z</time></trkpt><trkpt lat="45.55675369681032" lon="8.030468026923904"><ele>408.0</ele><time>2026-04-23T17:10:50Z</time></trkpt><trkpt lat="45.55678104496252" lon="8.030570422905283"><ele>408.0</ele><time>2026-04-23T17:10:51Z</time></trkpt><trkpt lat="45.556803702707704" lon="8.030672098355481"><ele>408.0</ele><time>2026-04-23T17:10:52Z</time></trkpt><trkpt lat="45.556816078070995" lon="8.030775451394797"><ele>408.0</ele><time>2026-04-23T17:10:53Z</time></trkpt><trkpt lat="45.5568214978316" lon="8.030879432997322"><ele>408.0</ele><time>2026-04-23T17:10:54Z</time></trkpt><trkpt lat="45.556822952158115" lon="8.03098783225012"><ele>408.0</ele><time>2026-04-23T17:10:55Z</time></trkpt><trkpt lat="45.55683296692038" lon="8.031090304624115"><ele>408.0</ele><time>2026-04-23T17:10:56Z</time></trkpt><trkpt lat="45.5568369723985" lon="8.031192440836332"><ele>408.0</ele><time>2026-04-23T17:10:57Z</time></trkpt><trkpt lat="45.55685201550356" lon="8.031289031264695"><ele>408.0</ele><time>2026-04-23T17:10:58Z</time></trkpt><trkpt lat="45.55685190979839" lon="8.031398306947887"><ele>408.0</ele><time>2026-04-23T17:10:59Z</time></trkpt><trkpt lat="45.55685568028359" lon="8.031502839862176"><ele>408.0</ele><time>2026-04-23T17:11:00Z</time></trkpt><trkpt lat="45.55686220937461" lon="8.031608707455872"><ele>408.0</ele><time>2026-04-23T17:11:01Z</time></trkpt><trkpt lat="45.55687128477925" lon="8.031716026162629"><ele>407.5</ele><time>2026-04-23T17:11:02Z</time></trkpt><trkpt lat="45.556881009541264" lon="8.031824159637484"><ele>407.0</ele><time>2026-04-23T17:11:03Z</time></trkpt><trkpt lat="45.55688452164498" lon="8.031934010766522"><ele>406.5</ele><time>2026-04-23T17:11:04Z</time></trkpt><trkpt lat="45.556890786383086" lon="8.032043359823586"><ele>406.0</ele><time>2026-04-23T17:11:05Z</time></trkpt><trkpt lat="45.556892351131495" lon="8.032161029256972"><ele>405.5</ele><time>2026-04-23T17:11:06Z</time></trkpt><trkpt lat="45.55690256076373" lon="8.032273182831549"><ele>405.0</ele><time>2026-04-23T17:11:07Z</time></trkpt><trkpt lat="45.556902775096354" lon="8.032395800571518"><ele>404.6666666666667</ele><time>2026-04-23T17:11:08Z</time></trkpt><trkpt lat="45.55690821259436" lon="8.032509210585726"><ele>404.33333333333337</ele><time>2026-04-23T17:11:09Z</time></trkpt><trkpt lat="45.556915493178025" lon="8.032627785422038"><ele>404.0</ele><time>2026-04-23T17:11:10Z</time></trkpt><trkpt lat="45.55692341416073" lon="8.032746642257452"><ele>403.6666666666667</ele><time>2026-04-23T17:11:11Z</time></trkpt><trkpt lat="45.556932645512696" lon="8.032868111480221"><ele>403.33333333333337</ele><time>2026-04-23T17:11:12Z</time></trkpt><trkpt lat="45.55693839543553" lon="8.032990785561546"><ele>403.0</ele><time>2026-04-23T17:11:13Z</time></trkpt><trkpt lat="45.556948036075404" lon="8.03311179655633"><ele>403.00000000000006</ele><time>2026-04-23T17:11:14Z</time></trkpt><trkpt lat="45.556949554490856" lon="8.033239462750656"><ele>403.0</ele><time>2026-04-23T17:11:15Z</time></trkpt><trkpt lat="45.556961807458585" lon="8.033358409249583"><ele>403.0</ele><time>2026-04-23T17:11:16Z</time></trkpt><trkpt lat="45.5569611251856" lon="8.033486383018289"><ele>403.0</ele><time>2026-04-23T17:11:17Z</time></trkpt><trkpt lat="45.55697278182567" lon="8.03360949301871"><ele>403.00000000000006</ele><time>2026-04-23T17:11:18Z</time></trkpt><trkpt lat="45.5569804438504" lon="8.033731760113787"><ele>403.0</ele><time>2026-04-23T17:11:19Z</time></trkpt><trkpt lat="45.55699264061741" lon="8.033849280860963"><ele>403.00000000000006</ele><time>2026-04-23T17:11:20Z</time></trkpt><trkpt lat="45.55698675217609" lon="8.033966975087566"><ele>403.0</ele><time>2026-04-23T17:11:21Z</time></trkpt><trkpt lat="45.556976595779076" lon="8.034082391558362"><ele>403.0</ele><time>2026-04-23T17:11:22Z</time></trkpt><trkpt lat="45.55692362732012" lon="8.034184069911706"><ele>403.0</ele><time>2026-04-23T17:11:23Z</time></trkpt><trkpt lat="45.55690876968665" lon="8.034291646770866"><ele>403.00000000000006</ele><time>2026-04-23T17:11:24Z</time></trkpt><trkpt lat="45.55692934934242" lon="8.03439747459771"><ele>403.0</ele><time>2026-04-23T17:11:25Z</time></trkpt><trkpt lat="45.557010079435024" lon="8.034486691830079"><ele>404.00000000000006</ele><time>2026-04-23T17:11:26Z</time></trkpt><trkpt lat="45.557055182421166" lon="8.034583503325864"><ele>405.0</ele><time>2026-04-23T17:11:27Z</time></trkpt><trkpt lat="45.55706269576021" lon="8.034707114278934"><ele>406.0</ele><time>2026-04-23T17:11:28Z</time></trkpt><trkpt lat="45.557060375148026" lon="8.03483773972366"><ele>407.0</ele><time>2026-04-23T17:11:29Z</time></trkpt><trkpt lat="45.55706716246353" lon="8.034964728284953"><ele>408.00000000000006</ele><time>2026-04-23T17:11:30Z</time></trkpt><trkpt lat="45.557069951432325" lon="8.03509671436829"><ele>409.0</ele><time>2026-04-23T17:11:31Z</time></trkpt><trkpt lat="45.55707620500107" lon="8.035224522900565"><ele>409.0</ele><time>2026-04-23T17:11:32Z</time></trkpt><trkpt lat="45.55708053328752" lon="8.035359960273352"><ele>409.0</ele><time>2026-04-23T17:11:33Z</time></trkpt><trkpt lat="45.55708402540186" lon="8.035495027517001"><ele>409.0</ele><time>2026-04-23T17:11:34Z</time></trkpt><trkpt lat="45.55710147954175" lon="8.035629104695271"><ele>409.0</ele><time>2026-04-23T17:11:35Z</time></trkpt><trkpt lat="45.55709541952324" lon="8.035771763452768"><ele>409.0</ele><time>2026-04-23T17:11:36Z</time></trkpt><trkpt lat="45.5571032712011" lon="8.035905484497967"><ele>408.2</ele><time>2026-04-23T17:11:37Z</time></trkpt><trkpt lat="45.55710501700185" lon="8.036042817281805"><ele>407.4</ele><time>2026-04-23T17:11:38Z</time></trkpt><trkpt lat="45.5571045678233" lon="8.036177486036461"><ele>406.6</ele><time>2026-04-23T17:11:39Z</time></trkpt><trkpt lat="45.5571022708904" lon="8.036312390232542"><ele>405.8</ele><time>2026-04-23T17:11:40Z</time></trkpt><trkpt lat="45.557095981125144" lon="8.036455486892507"><ele>405.0</ele><time>2026-04-23T17:11:41Z</time></trkpt><trkpt lat="45.557093382171956" lon="8.036594432670448"><ele>404.0</ele><time>2026-04-23T17:11:42Z</time></trkpt><trkpt lat="45.55709765024331" lon="8.036724425110055"><ele>403.0</ele><time>2026-04-23T17:11:43Z</time></trkpt><trkpt lat="45.557089853447174" lon="8.036862558220141"><ele>402.0</ele><time>2026-04-23T17:11:44Z</time></trkpt><trkpt lat="45.557079161120804" lon="8.036998541810261"><ele>401.0</ele><time>2026-04-23T17:11:45Z</time></trkpt><trkpt lat="45.55707913936378" lon="8.037131869018344"><ele>400.0</ele><time>2026-04-23T17:11:46Z</time></trkpt><trkpt lat="45.55707285089256" lon="8.037264139641062"><ele>400.0</ele><time>2026-04-23T17:11:47Z</time></trkpt><trkpt lat="45.55706248420861" lon="8.0373976179834"><ele>400.0</ele><time>2026-04-23T17:11:48Z</time></trkpt><trkpt lat="45.557062478776544" lon="8.037525183622186"><ele>400.0</ele><time>2026-04-23T17:11:49Z</time></trkpt><trkpt lat="45.55705220329984" lon="8.03765425380243"><ele>400.0</ele><time>2026-04-23T17:11:50Z</time></trkpt><trkpt lat="45.557052858844216" lon="8.037778472415752"><ele>400.0</ele><time>2026-04-23T17:11:51Z</time></trkpt><trkpt lat="45.55704862763264" lon="8.03790635551383"><ele>400.0</ele><time>2026-04-23T17:11:52Z</time></trkpt><trkpt lat="45.55704725276564" lon="8.038034992139433"><ele>400.0</ele><time>2026-04-23T17:11:53Z</time></trkpt><trkpt lat="45.55704953253009" lon="8.038166647504656"><ele>400.0</ele><time>2026-04-23T17:11:54Z</time></trkpt><trkpt lat="45.55705598912557" lon="8.03829539630673"><ele>400.0</ele><time>2026-04-23T17:11:55Z</time></trkpt><trkpt lat="45.55706660770759" lon="8.03843004794038"><ele>400.0</ele><time>2026-04-23T17:11:56Z</time></trkpt><trkpt lat="45.55707771447316" lon="8.038556645236957"><ele>399.50000000000006</ele><time>2026-04-23T17:11:57Z</time></trkpt><trkpt lat="45.55702838832542" lon="8.038686255312907"><ele>399.0</ele><time>2026-04-23T17:11:58Z</time></trkpt><trkpt lat="45.55705928387149" lon="8.0387943072773"><ele>398.5</ele><time>2026-04-23T17:11:59Z</time></trkpt><trkpt lat="45.55712257165211" lon="8.038882772555834"><ele>398.0</ele><time>2026-04-23T17:12:00Z</time></trkpt><trkpt lat="45.557196932487095" lon="8.038936360840108"><ele>397.50000000000006</ele><time>2026-04-23T17:12:01Z</time></trkpt><trkpt lat="45.55726129067607" lon="8.03901207405644"><ele>397.0</ele><time>2026-04-23T17:12:02Z</time></trkpt><trkpt lat="45.5573110199436" lon="8.03909258965141"><ele>398.50000000000006</ele><time>2026-04-23T17:12:03Z</time></trkpt><trkpt lat="45.557368446477916" lon="8.03917228212117"><ele>400.0</ele><time>2026-04-23T17:12:04Z</time></trkpt><trkpt lat="45.557416356724154" lon="8.039255277657897"><ele>401.5</ele><time>2026-04-23T17:12:05Z</time></trkpt><trkpt lat="45.557452686700536" lon="8.039351940781605"><ele>403.0</ele><time>2026-04-23T17:12:06Z</time></trkpt><trkpt lat="45.557490737004265" lon="8.039441339545558"><ele>404.50000000000006</ele><time>2026-04-23T17:12:07Z</time></trkpt><trkpt lat="45.55753249467186" lon="8.039535153578111"><ele>406.0</ele><time>2026-04-23T17:12:08Z</time></trkpt><trkpt lat="45.557571502543134" lon="8.039628636762375"><ele>406.0</ele><time>2026-04-23T17:12:09Z</time></trkpt><trkpt lat="45.557612367584944" lon="8.039718124557044"><ele>406.0</ele><time>2026-04-23T17:12:10Z</time></trkpt><trkpt lat="45.5576526665337" lon="8.039803481829592"><ele>406.0</ele><time>2026-04-23T17:12:11Z</time></trkpt><trkpt lat="45.55769276382399" lon="8.039899539211424"><ele>406.0</ele><time>2026-04-23T17:12:12Z</time></trkpt><trkpt lat="45.55772311613545" lon="8.039996007563841"><ele>406.0</ele><time>2026-04-23T17:12:13Z</time></trkpt><trkpt lat="45.55775111750752" lon="8.040091390769032"><ele>406.0</ele><time>2026-04-23T17:12:14Z</time></trkpt><trkpt lat="45.55778477562442" lon="8.040188482557447"><ele>406.0</ele><time>2026-04-23T17:12:15Z</time></trkpt><trkpt lat="45.557823443689976" lon="8.040283770182006"><ele>406.0</ele><time>2026-04-23T17:12:16Z</time></trkpt><trkpt lat="45.557861624258784" lon="8.040374939973107"><ele>406.0</ele><time>2026-04-23T17:12:17Z</time></trkpt><trkpt lat="45.55789779913912" lon="8.040470223019254"><ele>406.0</ele><time>2026-04-23T17:12:18Z</time></trkpt><trkpt lat="45.55793594299199" lon="8.04056310485542"><ele>406.0</ele><time>2026-04-23T17:12:19Z</time></trkpt><trkpt lat="45.557970780936216" lon="8.040655562164181"><ele>406.0</ele><time>2026-04-23T17:12:20Z</time></trkpt><trkpt lat="45.55800314823922" lon="8.040748638374497"><ele>406.0</ele><time>2026-04-23T17:12:21Z</time></trkpt><trkpt lat="45.55803672720435" lon="8.040838357238567"><ele>406.0</ele><time>2026-04-23T17:12:22Z</time></trkpt><trkpt lat="45.55806891691696" lon="8.040925778625688"><ele>406.0</ele><time>2026-04-23T17:12:23Z</time></trkpt><trkpt lat="45.55810393044346" lon="8.041015809494295"><ele>406.0</ele><time>2026-04-23T17:12:24Z</time></trkpt><trkpt lat="45.55813392276652" lon="8.041103884701498"><ele>406.0</ele><time>2026-04-23T17:12:25Z</time></trkpt><trkpt lat="45.558163744315706" lon="8.041193875988911"><ele>406.0</ele><time>2026-04-23T17:12:26Z</time></trkpt><trkpt lat="45.558200216353924" lon="8.041276792338149"><ele>406.0</ele><time>2026-04-23T17:12:27Z</time></trkpt><trkpt lat="45.55823658704161" lon="8.041365002778914"><ele>406.0</ele><time>2026-04-23T17:12:28Z</time></trkpt><trkpt lat="45.55827480696258" lon="8.041455507356467"><ele>406.0</ele><time>2026-04-23T17:12:29Z</time></trkpt><trkpt lat="45.558305311706796" lon="8.041546325406037"><ele>405.7142857142857</ele><time>2026-04-23T17:12:30Z</time></trkpt><trkpt lat="45.558341900416416" lon="8.04163466336999"><ele>405.42857142857144</ele><time>2026-04-23T17:12:31Z</time></trkpt><trkpt lat="45.558373272759404" lon="8.04172091326406"><ele>405.1428571428571</ele><time>2026-04-23T17:12:32Z</time></trkpt><trkpt lat="45.55840571137317" lon="8.041802692132098"><ele>404.8571428571429</ele><time>2026-04-23T17:12:33Z</time></trkpt><trkpt lat="45.55844229079685" lon="8.04188400961608"><ele>404.57142857142856</ele><time>2026-04-23T17:12:34Z</time></trkpt><trkpt lat="45.558477723725844" lon="8.041967386229361"><ele>404.2857142857143</ele><time>2026-04-23T17:12:35Z</time></trkpt><trkpt lat="45.55851443092942" lon="8.04205586763117"><ele>404.0</ele><time>2026-04-23T17:12:36Z</time></trkpt><trkpt lat="45.55855170765504" lon="8.042137952292917"><ele>403.99999999999994</ele><time>2026-04-23T17:12:37Z</time></trkpt><trkpt lat="45.5585860986474" lon="8.04221907120091"><ele>404.0</ele><time>2026-04-23T17:12:38Z</time></trkpt><trkpt lat="45.55861544950707" lon="8.042302093375746"><ele>404.0</ele><time>2026-04-23T17:12:39Z</time></trkpt><trkpt lat="45.55864541761058" lon="8.042383277469561"><ele>404.0</ele><time>2026-04-23T17:12:40Z</time></trkpt><trkpt lat="45.55867690166849" lon="8.042467893348586"><ele>403.99999999999994</ele><time>2026-04-23T17:12:41Z</time></trkpt><trkpt lat="45.55871362059051" lon="8.042547858097127"><ele>404.0</ele><time>2026-04-23T17:12:42Z</time></trkpt><trkpt lat="45.558773458791656" lon="8.042706682637792"><ele>404.16666666666663</ele><time>2026-04-23T17:12:44Z</time></trkpt><trkpt lat="45.55883974267787" lon="8.04285902988265"><ele>404.3333333333333</ele><time>2026-04-23T17:12:46Z</time></trkpt><trkpt lat="45.55887175261363" lon="8.042941309791374"><ele>404.5</ele><time>2026-04-23T17:12:47Z</time></trkpt><trkpt lat="45.558899561322754" lon="8.043025097527549"><ele>404.66666666666663</ele><time>2026-04-23T17:12:48Z</time></trkpt><trkpt lat="45.558930506629615" lon="8.043105826547908"><ele>404.8333333333333</ele><time>2026-04-23T17:12:49Z</time></trkpt><trkpt lat="45.558980264971176" lon="8.043260617750747"><ele>405.0</ele><time>2026-04-23T17:12:51Z</time></trkpt><trkpt lat="45.5590303042864" lon="8.043415965918541"><ele>405.0</ele><time>2026-04-23T17:12:53Z</time></trkpt><trkpt lat="45.55908513097871" lon="8.043572269638211"><ele>405.0</ele><time>2026-04-23T17:12:55Z</time></trkpt><trkpt lat="45.55914194470525" lon="8.04373014561587"><ele>405.0</ele><time>2026-04-23T17:12:57Z</time></trkpt><trkpt lat="45.55920016542831" lon="8.043880106909688"><ele>405.0</ele><time>2026-04-23T17:12:59Z</time></trkpt><trkpt lat="45.55927017408941" lon="8.044019691856219"><ele>405.25</ele><time>2026-04-23T17:13:01Z</time></trkpt><trkpt lat="45.55930392175055" lon="8.044184239190376"><ele>405.5</ele><time>2026-04-23T17:13:03Z</time></trkpt><trkpt lat="45.55935907049101" lon="8.044338497877233"><ele>405.75</ele><time>2026-04-23T17:13:05Z</time></trkpt><trkpt lat="45.559413606352805" lon="8.044499039013413"><ele>406.0</ele><time>2026-04-23T17:13:07Z</time></trkpt><trkpt lat="45.55946529330648" lon="8.044649448964957"><ele>406.0</ele><time>2026-04-23T17:13:09Z</time></trkpt><trkpt lat="45.55952116445619" lon="8.044803167771837"><ele>406.0</ele><time>2026-04-23T17:13:11Z</time></trkpt><trkpt lat="45.559545014324605" lon="8.044886787864105"><ele>406.0</ele><time>2026-04-23T17:13:12Z</time></trkpt><trkpt lat="45.559586993786056" lon="8.04504806696254"><ele>406.0</ele><time>2026-04-23T17:13:14Z</time></trkpt><trkpt lat="45.559615451965925" lon="8.045216010752586"><ele>406.0</ele><time>2026-04-23T17:13:16Z</time></trkpt><trkpt lat="45.559628761700715" lon="8.045392266118643"><ele>407.5</ele><time>2026-04-23T17:13:18Z</time></trkpt><trkpt lat="45.55963441474187" lon="8.045562906565062"><ele>409.0</ele><time>2026-04-23T17:13:20Z</time></trkpt><trkpt lat="45.559649539140885" lon="8.045736942233846"><ele>410.5</ele><time>2026-04-23T17:13:22Z</time></trkpt><trkpt lat="45.55965688352691" lon="8.045906981968384"><ele>412.0</ele><time>2026-04-23T17:13:24Z</time></trkpt><trkpt lat="45.55966654690285" lon="8.04608168566915"><ele>412.0</ele><time>2026-04-23T17:13:26Z</time></trkpt><trkpt lat="45.559670487590466" lon="8.046171826432731"><ele>412.0</ele><time>2026-04-23T17:13:27Z</time></trkpt><trkpt lat="45.559678845854656" lon="8.046355038209718"><ele>412.0</ele><time>2026-04-23T17:13:29Z</time></trkpt><trkpt lat="45.55969248008471" lon="8.046528833308065"><ele>412.0</ele><time>2026-04-23T17:13:31Z</time></trkpt><trkpt lat="45.559688655873494" lon="8.046718286587573"><ele>412.0</ele><time>2026-04-23T17:13:33Z</time></trkpt><trkpt lat="45.55969055013134" lon="8.04681617401764"><ele>412.00000000000006</ele><time>2026-04-23T17:13:34Z</time></trkpt><trkpt lat="45.559687014222966" lon="8.046924884926534"><ele>412.0</ele><time>2026-04-23T17:13:35Z</time></trkpt><trkpt lat="45.559688055465436" lon="8.047017397826176"><ele>412.0</ele><time>2026-04-23T17:13:36Z</time></trkpt><trkpt lat="45.55970515899318" lon="8.047111937281105"><ele>412.0</ele><time>2026-04-23T17:13:37Z</time></trkpt><trkpt lat="45.55969222901376" lon="8.047285252569635"><ele>412.00000000000006</ele><time>2026-04-23T17:13:39Z</time></trkpt><trkpt lat="45.559677325662285" lon="8.047445047828393"><ele>412.0</ele><time>2026-04-23T17:13:41Z</time></trkpt><trkpt lat="45.559623135723776" lon="8.047576806878382"><ele>411.40000000000003</ele><time>2026-04-23T17:13:43Z</time></trkpt><trkpt lat="45.55952948156519" lon="8.047680914397054"><ele>410.8</ele><time>2026-04-23T17:13:45Z</time></trkpt><trkpt lat="45.55941860125766" lon="8.047732538982832"><ele>410.2</ele><time>2026-04-23T17:13:47Z</time></trkpt><trkpt lat="45.55928212345161" lon="8.047724276459753"><ele>409.6</ele><time>2026-04-23T17:13:49Z</time></trkpt><trkpt lat="45.55921680262306" lon="8.047744915428181"><ele>409.0</ele><time>2026-04-23T17:13:50Z</time></trkpt><trkpt lat="45.559150595233824" lon="8.047776972147675"><ele>409.00000000000006</ele><time>2026-04-23T17:13:51Z</time></trkpt><trkpt lat="45.559085092015295" lon="8.04780839716901"><ele>409.0</ele><time>2026-04-23T17:13:52Z</time></trkpt><trkpt lat="45.5590162231651" lon="8.047832665786489"><ele>409.0</ele><time>2026-04-23T17:13:53Z</time></trkpt><trkpt lat="45.55895193926671" lon="8.047853562316188"><ele>409.0</ele><time>2026-04-23T17:13:54Z</time></trkpt><trkpt lat="45.558825095679985" lon="8.047893034530547"><ele>409.00000000000006</ele><time>2026-04-23T17:13:56Z</time></trkpt><trkpt lat="45.55876020371323" lon="8.04792401696739"><ele>409.0</ele><time>2026-04-23T17:13:57Z</time></trkpt><trkpt lat="45.5586514812713" lon="8.048015466867433"><ele>408.79999999999995</ele><time>2026-04-23T17:13:59Z</time></trkpt><trkpt lat="45.558536616271915" lon="8.048069555643032"><ele>408.59999999999997</ele><time>2026-04-23T17:14:01Z</time></trkpt><trkpt lat="45.55853909048528" lon="8.048285800078085"><ele>408.4</ele><time>2026-04-23T17:14:03Z</time></trkpt><trkpt lat="45.558565414621235" lon="8.048375998295791"><ele>408.2</ele><time>2026-04-23T17:14:04Z</time></trkpt><trkpt lat="45.55858111219045" lon="8.048467202179918"><ele>408.0</ele><time>2026-04-23T17:14:05Z</time></trkpt><trkpt lat="45.558616077980695" lon="8.048545808875431"><ele>408.0</ele><time>2026-04-23T17:14:06Z</time></trkpt><trkpt lat="45.55864489972707" lon="8.048631967118002"><ele>408.0</ele><time>2026-04-23T17:14:07Z</time></trkpt><trkpt lat="45.55867010125683" lon="8.048714962993857"><ele>408.0</ele><time>2026-04-23T17:14:08Z</time></trkpt><trkpt lat="45.55869791204666" lon="8.048801572601091"><ele>408.0</ele><time>2026-04-23T17:14:09Z</time></trkpt><trkpt lat="45.558727266603476" lon="8.048881706039692"><ele>408.0</ele><time>2026-04-23T17:14:10Z</time></trkpt><trkpt lat="45.55875757824335" lon="8.048969839657438"><ele>408.0</ele><time>2026-04-23T17:14:11Z</time></trkpt><trkpt lat="45.558785052506565" lon="8.049051698726613"><ele>408.0</ele><time>2026-04-23T17:14:12Z</time></trkpt><trkpt lat="45.5588456323494" lon="8.049221240352264"><ele>408.1666666666667</ele><time>2026-04-23T17:14:14Z</time></trkpt><trkpt lat="45.55886763394045" lon="8.0493147244652"><ele>408.33333333333337</ele><time>2026-04-23T17:14:15Z</time></trkpt><trkpt lat="45.55889089715682" lon="8.049403433638023"><ele>408.5</ele><time>2026-04-23T17:14:16Z</time></trkpt><trkpt lat="45.55891818093395" lon="8.049488061152719"><ele>408.6666666666667</ele><time>2026-04-23T17:14:17Z</time></trkpt><trkpt lat="45.558963879336794" lon="8.049647024544296"><ele>408.83333333333337</ele><time>2026-04-23T17:14:19Z</time></trkpt><trkpt lat="45.55899038218487" lon="8.049784675671598"><ele>409.0</ele><time>2026-04-23T17:14:21Z</time></trkpt><trkpt lat="45.559006811482966" lon="8.049917368300905"><ele>409.25</ele><time>2026-04-23T17:14:23Z</time></trkpt><trkpt lat="45.55903554866907" lon="8.050039126454745"><ele>409.5</ele><time>2026-04-23T17:14:25Z</time></trkpt><trkpt lat="45.559052136877" lon="8.050153179093742"><ele>409.75</ele><time>2026-04-23T17:14:27Z</time></trkpt><trkpt lat="45.55913753978416" lon="8.050152893293594"><ele>410.0</ele><time>2026-04-23T17:14:47Z</time></trkpt><trkpt lat="45.55892079768598" lon="8.050345258831056"><ele>410.0</ele><time>2026-04-23T17:15:24.993Z</time></trkpt><trkpt lat="45.559082533755024" lon="8.050280891676248"><ele>410.0</ele><time>2026-04-23T17:15:53Z</time></trkpt><trkpt lat="45.5590139584737" lon="8.050188565766863"><ele>410.0</ele><time>2026-04-23T17:16:07Z</time></trkpt></trkseg></trk></gpx>